<?xml version="1.0" encoding="UTF-8" standalone="no" ?>
<gpx xmlns="http://www.topografix.com/GPX/1/1" xmlns:xsi="http://www.w3.org/2001/XMLSchema-instance" xsi:schemaLocation="http://www.topografix.com/GPX/1/1 http://www.topografix.com/GPX/1/1/gpx.xsd" version="1.1" creator="VisuGPX - https://www.visugpx.com">
  <metadata>
    <name>Randonnée du 05/03/26 boucle du Colbery 7,7kms</name>
  </metadata>
  <trk>
    <name><![CDATA[Parcours du 05/03/2026 11h32]]></name>
    <trkseg>
      <trkpt lat="48.48851" lon="7.21806">
        <ele>375.32162</ele>
        <time>2026-03-05T08:12:24Z</time>
      </trkpt>
      <trkpt lat="48.48851" lon="7.21806">
        <ele>375.32162</ele>
        <time>2026-03-05T08:12:25Z</time>
      </trkpt>
      <trkpt lat="48.48852" lon="7.21814">
        <ele>375.32162</ele>
        <time>2026-03-05T08:12:41Z</time>
      </trkpt>
      <trkpt lat="48.48853" lon="7.21806">
        <ele>375.32162</ele>
        <time>2026-03-05T08:13:01Z</time>
      </trkpt>
      <trkpt lat="48.4886" lon="7.218">
        <ele>375.32162</ele>
        <time>2026-03-05T08:13:09Z</time>
      </trkpt>
      <trkpt lat="48.48863" lon="7.21807">
        <ele>375.32162</ele>
        <time>2026-03-05T08:13:14Z</time>
      </trkpt>
      <trkpt lat="48.48868" lon="7.21806">
        <ele>375.32162</ele>
        <time>2026-03-05T08:13:19Z</time>
      </trkpt>
      <trkpt lat="48.48873" lon="7.21811">
        <ele>375.32162</ele>
        <time>2026-03-05T08:13:33Z</time>
      </trkpt>
      <trkpt lat="48.48878" lon="7.2181">
        <ele>375.32162</ele>
        <time>2026-03-05T08:13:37Z</time>
      </trkpt>
      <trkpt lat="48.48883" lon="7.21813">
        <ele>375.32162</ele>
        <time>2026-03-05T08:13:43Z</time>
      </trkpt>
      <trkpt lat="48.48887" lon="7.21817">
        <ele>375.32162</ele>
        <time>2026-03-05T08:13:48Z</time>
      </trkpt>
      <trkpt lat="48.48891" lon="7.2182">
        <ele>375.32162</ele>
        <time>2026-03-05T08:13:53Z</time>
      </trkpt>
      <trkpt lat="48.48895" lon="7.21824">
        <ele>375.32162</ele>
        <time>2026-03-05T08:14:00Z</time>
      </trkpt>
      <trkpt lat="48.48898" lon="7.21829">
        <ele>375.32162</ele>
        <time>2026-03-05T08:14:05Z</time>
      </trkpt>
      <trkpt lat="48.48903" lon="7.21832">
        <ele>375.32162</ele>
        <time>2026-03-05T08:14:11Z</time>
      </trkpt>
      <trkpt lat="48.48907" lon="7.21835">
        <ele>375.32162</ele>
        <time>2026-03-05T08:14:16Z</time>
      </trkpt>
      <trkpt lat="48.48911" lon="7.21837">
        <ele>375.32162</ele>
        <time>2026-03-05T08:14:20Z</time>
      </trkpt>
      <trkpt lat="48.48916" lon="7.2184">
        <ele>375.32162</ele>
        <time>2026-03-05T08:14:25Z</time>
      </trkpt>
      <trkpt lat="48.4892" lon="7.21843">
        <ele>375.32162</ele>
        <time>2026-03-05T08:14:30Z</time>
      </trkpt>
      <trkpt lat="48.48925" lon="7.21845">
        <ele>375.32162</ele>
        <time>2026-03-05T08:14:37Z</time>
      </trkpt>
      <trkpt lat="48.48929" lon="7.21841">
        <ele>375.32162</ele>
        <time>2026-03-05T08:14:49Z</time>
      </trkpt>
      <trkpt lat="48.48933" lon="7.2184">
        <ele>375.32162</ele>
        <time>2026-03-05T08:14:54Z</time>
      </trkpt>
      <trkpt lat="48.48939" lon="7.21843">
        <ele>375.32162</ele>
        <time>2026-03-05T08:14:59Z</time>
      </trkpt>
      <trkpt lat="48.48943" lon="7.21844">
        <ele>377.47913</ele>
        <time>2026-03-05T08:15:04Z</time>
      </trkpt>
      <trkpt lat="48.4895" lon="7.21844">
        <ele>379.6366</ele>
        <time>2026-03-05T08:15:14Z</time>
      </trkpt>
      <trkpt lat="48.48954" lon="7.21843">
        <ele>381.7941</ele>
        <time>2026-03-05T08:15:19Z</time>
      </trkpt>
      <trkpt lat="48.4896" lon="7.21842">
        <ele>383.95157</ele>
        <time>2026-03-05T08:15:23Z</time>
      </trkpt>
      <trkpt lat="48.48966" lon="7.2184">
        <ele>386.10907</ele>
        <time>2026-03-05T08:15:26Z</time>
      </trkpt>
      <trkpt lat="48.4897" lon="7.21838">
        <ele>386.10907</ele>
        <time>2026-03-05T08:15:31Z</time>
      </trkpt>
      <trkpt lat="48.48975" lon="7.21836">
        <ele>386.10907</ele>
        <time>2026-03-05T08:15:39Z</time>
      </trkpt>
      <trkpt lat="48.4898" lon="7.21834">
        <ele>386.10907</ele>
        <time>2026-03-05T08:15:43Z</time>
      </trkpt>
      <trkpt lat="48.48985" lon="7.21832">
        <ele>386.10907</ele>
        <time>2026-03-05T08:15:47Z</time>
      </trkpt>
      <trkpt lat="48.48991" lon="7.2183">
        <ele>386.10907</ele>
        <time>2026-03-05T08:15:52Z</time>
      </trkpt>
      <trkpt lat="48.48996" lon="7.21828">
        <ele>386.10907</ele>
        <time>2026-03-05T08:16:00Z</time>
      </trkpt>
      <trkpt lat="48.49001" lon="7.21826">
        <ele>386.10907</ele>
        <time>2026-03-05T08:16:03Z</time>
      </trkpt>
      <trkpt lat="48.49006" lon="7.21823">
        <ele>388.5065</ele>
        <time>2026-03-05T08:16:11Z</time>
      </trkpt>
      <trkpt lat="48.49011" lon="7.2182">
        <ele>390.90393</ele>
        <time>2026-03-05T08:16:15Z</time>
      </trkpt>
      <trkpt lat="48.49015" lon="7.21817">
        <ele>393.30133</ele>
        <time>2026-03-05T08:16:18Z</time>
      </trkpt>
      <trkpt lat="48.4902" lon="7.21813">
        <ele>395.69876</ele>
        <time>2026-03-05T08:16:21Z</time>
      </trkpt>
      <trkpt lat="48.49025" lon="7.21808">
        <ele>398.0962</ele>
        <time>2026-03-05T08:16:27Z</time>
      </trkpt>
      <trkpt lat="48.49029" lon="7.21804">
        <ele>398.0962</ele>
        <time>2026-03-05T08:16:31Z</time>
      </trkpt>
      <trkpt lat="48.49034" lon="7.218">
        <ele>398.0962</ele>
        <time>2026-03-05T08:16:36Z</time>
      </trkpt>
      <trkpt lat="48.49042" lon="7.21792">
        <ele>398.0962</ele>
        <time>2026-03-05T08:16:43Z</time>
      </trkpt>
      <trkpt lat="48.49046" lon="7.21787">
        <ele>398.0962</ele>
        <time>2026-03-05T08:16:51Z</time>
      </trkpt>
      <trkpt lat="48.4905" lon="7.21781">
        <ele>398.0962</ele>
        <time>2026-03-05T08:16:57Z</time>
      </trkpt>
      <trkpt lat="48.49044" lon="7.21776">
        <ele>400.2464</ele>
        <time>2026-03-05T08:17:02Z</time>
      </trkpt>
      <trkpt lat="48.49041" lon="7.21771">
        <ele>402.3966</ele>
        <time>2026-03-05T08:17:05Z</time>
      </trkpt>
      <trkpt lat="48.49044" lon="7.21763">
        <ele>404.54684</ele>
        <time>2026-03-05T08:17:08Z</time>
      </trkpt>
      <trkpt lat="48.49048" lon="7.2176">
        <ele>406.69705</ele>
        <time>2026-03-05T08:17:13Z</time>
      </trkpt>
      <trkpt lat="48.49052" lon="7.21755">
        <ele>408.84726</ele>
        <time>2026-03-05T08:17:19Z</time>
      </trkpt>
      <trkpt lat="48.49058" lon="7.2175">
        <ele>408.84726</ele>
        <time>2026-03-05T08:17:27Z</time>
      </trkpt>
      <trkpt lat="48.49064" lon="7.21746">
        <ele>408.84726</ele>
        <time>2026-03-05T08:17:29Z</time>
      </trkpt>
      <trkpt lat="48.49069" lon="7.21744">
        <ele>408.84726</ele>
        <time>2026-03-05T08:17:39Z</time>
      </trkpt>
      <trkpt lat="48.49083" lon="7.21743">
        <ele>408.84726</ele>
        <time>2026-03-05T08:17:40Z</time>
      </trkpt>
      <trkpt lat="48.49078" lon="7.21747">
        <ele>408.84726</ele>
        <time>2026-03-05T08:17:41Z</time>
      </trkpt>
      <trkpt lat="48.49083" lon="7.21743">
        <ele>408.84726</ele>
        <time>2026-03-05T08:17:52Z</time>
      </trkpt>
      <trkpt lat="48.49089" lon="7.21738">
        <ele>408.84726</ele>
        <time>2026-03-05T08:18:00Z</time>
      </trkpt>
      <trkpt lat="48.49094" lon="7.21734">
        <ele>408.84726</ele>
        <time>2026-03-05T08:18:07Z</time>
      </trkpt>
      <trkpt lat="48.49099" lon="7.2173">
        <ele>408.84726</ele>
        <time>2026-03-05T08:18:12Z</time>
      </trkpt>
      <trkpt lat="48.49103" lon="7.21726">
        <ele>408.84726</ele>
        <time>2026-03-05T08:18:18Z</time>
      </trkpt>
      <trkpt lat="48.4911" lon="7.21721">
        <ele>408.84726</ele>
        <time>2026-03-05T08:18:22Z</time>
      </trkpt>
      <trkpt lat="48.49117" lon="7.21715">
        <ele>408.84726</ele>
        <time>2026-03-05T08:18:31Z</time>
      </trkpt>
      <trkpt lat="48.49121" lon="7.21712">
        <ele>408.84726</ele>
        <time>2026-03-05T08:18:40Z</time>
      </trkpt>
      <trkpt lat="48.49125" lon="7.21708">
        <ele>408.84726</ele>
        <time>2026-03-05T08:18:46Z</time>
      </trkpt>
      <trkpt lat="48.49129" lon="7.21705">
        <ele>411.1089</ele>
        <time>2026-03-05T08:18:54Z</time>
      </trkpt>
      <trkpt lat="48.49133" lon="7.21702">
        <ele>413.37054</ele>
        <time>2026-03-05T08:19:00Z</time>
      </trkpt>
      <trkpt lat="48.49138" lon="7.21698">
        <ele>415.63217</ele>
        <time>2026-03-05T08:19:09Z</time>
      </trkpt>
      <trkpt lat="48.49142" lon="7.21694">
        <ele>417.89383</ele>
        <time>2026-03-05T08:19:18Z</time>
      </trkpt>
      <trkpt lat="48.49146" lon="7.2169">
        <ele>420.15546</ele>
        <time>2026-03-05T08:19:22Z</time>
      </trkpt>
      <trkpt lat="48.49151" lon="7.21687">
        <ele>420.15546</ele>
        <time>2026-03-05T08:19:27Z</time>
      </trkpt>
      <trkpt lat="48.49155" lon="7.21684">
        <ele>420.15546</ele>
        <time>2026-03-05T08:19:32Z</time>
      </trkpt>
      <trkpt lat="48.4916" lon="7.21683">
        <ele>420.15546</ele>
        <time>2026-03-05T08:19:40Z</time>
      </trkpt>
      <trkpt lat="48.49165" lon="7.21683">
        <ele>420.15546</ele>
        <time>2026-03-05T08:19:43Z</time>
      </trkpt>
      <trkpt lat="48.49169" lon="7.21677">
        <ele>420.15546</ele>
        <time>2026-03-05T08:19:48Z</time>
      </trkpt>
      <trkpt lat="48.4917" lon="7.21669">
        <ele>420.15546</ele>
        <time>2026-03-05T08:19:56Z</time>
      </trkpt>
      <trkpt lat="48.4917" lon="7.21677">
        <ele>420.15546</ele>
        <time>2026-03-05T08:20:10Z</time>
      </trkpt>
      <trkpt lat="48.49172" lon="7.21683">
        <ele>420.15546</ele>
        <time>2026-03-05T08:20:21Z</time>
      </trkpt>
      <trkpt lat="48.4917" lon="7.21671">
        <ele>423.097</ele>
        <time>2026-03-05T08:20:38Z</time>
      </trkpt>
      <trkpt lat="48.49172" lon="7.21664">
        <ele>426.0385</ele>
        <time>2026-03-05T08:21:28Z</time>
      </trkpt>
      <trkpt lat="48.49167" lon="7.21664">
        <ele>428.98</ele>
        <time>2026-03-05T08:21:36Z</time>
      </trkpt>
      <trkpt lat="48.49162" lon="7.2167">
        <ele>431.92154</ele>
        <time>2026-03-05T08:21:40Z</time>
      </trkpt>
      <trkpt lat="48.49157" lon="7.21671">
        <ele>432.72095</ele>
        <time>2026-03-05T08:21:46Z</time>
      </trkpt>
      <trkpt lat="48.49152" lon="7.21673">
        <ele>430.5788</ele>
        <time>2026-03-05T08:21:50Z</time>
      </trkpt>
      <trkpt lat="48.49148" lon="7.21672">
        <ele>428.43668</ele>
        <time>2026-03-05T08:21:55Z</time>
      </trkpt>
      <trkpt lat="48.49143" lon="7.21674">
        <ele>426.29453</ele>
        <time>2026-03-05T08:21:58Z</time>
      </trkpt>
      <trkpt lat="48.49137" lon="7.21674">
        <ele>424.1524</ele>
        <time>2026-03-05T08:22:04Z</time>
      </trkpt>
      <trkpt lat="48.49132" lon="7.21673">
        <ele>424.1524</ele>
        <time>2026-03-05T08:22:09Z</time>
      </trkpt>
      <trkpt lat="48.49127" lon="7.21672">
        <ele>424.1524</ele>
        <time>2026-03-05T08:22:12Z</time>
      </trkpt>
      <trkpt lat="48.49122" lon="7.21675">
        <ele>424.1524</ele>
        <time>2026-03-05T08:22:18Z</time>
      </trkpt>
      <trkpt lat="48.49117" lon="7.21674">
        <ele>424.1524</ele>
        <time>2026-03-05T08:22:23Z</time>
      </trkpt>
      <trkpt lat="48.49111" lon="7.21675">
        <ele>424.1524</ele>
        <time>2026-03-05T08:22:27Z</time>
      </trkpt>
      <trkpt lat="48.49107" lon="7.21676">
        <ele>424.1524</ele>
        <time>2026-03-05T08:22:32Z</time>
      </trkpt>
      <trkpt lat="48.49102" lon="7.21681">
        <ele>424.1524</ele>
        <time>2026-03-05T08:22:36Z</time>
      </trkpt>
      <trkpt lat="48.49097" lon="7.21682">
        <ele>424.1524</ele>
        <time>2026-03-05T08:22:41Z</time>
      </trkpt>
      <trkpt lat="48.49091" lon="7.21682">
        <ele>424.1524</ele>
        <time>2026-03-05T08:22:45Z</time>
      </trkpt>
      <trkpt lat="48.49087" lon="7.21689">
        <ele>424.1524</ele>
        <time>2026-03-05T08:22:50Z</time>
      </trkpt>
      <trkpt lat="48.49083" lon="7.21689">
        <ele>424.1524</ele>
        <time>2026-03-05T08:22:53Z</time>
      </trkpt>
      <trkpt lat="48.49078" lon="7.21692">
        <ele>424.1524</ele>
        <time>2026-03-05T08:22:58Z</time>
      </trkpt>
      <trkpt lat="48.49074" lon="7.21696">
        <ele>424.1524</ele>
        <time>2026-03-05T08:23:04Z</time>
      </trkpt>
      <trkpt lat="48.49069" lon="7.21697">
        <ele>424.1524</ele>
        <time>2026-03-05T08:23:08Z</time>
      </trkpt>
      <trkpt lat="48.49064" lon="7.21698">
        <ele>424.1524</ele>
        <time>2026-03-05T08:23:11Z</time>
      </trkpt>
      <trkpt lat="48.49059" lon="7.21701">
        <ele>424.1524</ele>
        <time>2026-03-05T08:23:15Z</time>
      </trkpt>
      <trkpt lat="48.49054" lon="7.21701">
        <ele>424.1524</ele>
        <time>2026-03-05T08:23:18Z</time>
      </trkpt>
      <trkpt lat="48.4905" lon="7.21706">
        <ele>424.1524</ele>
        <time>2026-03-05T08:23:23Z</time>
      </trkpt>
      <trkpt lat="48.49044" lon="7.21708">
        <ele>424.1524</ele>
        <time>2026-03-05T08:23:30Z</time>
      </trkpt>
      <trkpt lat="48.4904" lon="7.21711">
        <ele>424.1524</ele>
        <time>2026-03-05T08:23:33Z</time>
      </trkpt>
      <trkpt lat="48.49035" lon="7.21709">
        <ele>424.1524</ele>
        <time>2026-03-05T08:23:37Z</time>
      </trkpt>
      <trkpt lat="48.4903" lon="7.2171">
        <ele>424.1524</ele>
        <time>2026-03-05T08:23:41Z</time>
      </trkpt>
      <trkpt lat="48.49025" lon="7.21714">
        <ele>424.1524</ele>
        <time>2026-03-05T08:23:45Z</time>
      </trkpt>
      <trkpt lat="48.4902" lon="7.21716">
        <ele>424.1524</ele>
        <time>2026-03-05T08:23:50Z</time>
      </trkpt>
      <trkpt lat="48.49015" lon="7.21721">
        <ele>424.1524</ele>
        <time>2026-03-05T08:23:55Z</time>
      </trkpt>
      <trkpt lat="48.4901" lon="7.21723">
        <ele>424.1524</ele>
        <time>2026-03-05T08:24:00Z</time>
      </trkpt>
      <trkpt lat="48.49005" lon="7.21721">
        <ele>424.1524</ele>
        <time>2026-03-05T08:24:04Z</time>
      </trkpt>
      <trkpt lat="48.49" lon="7.21721">
        <ele>424.1524</ele>
        <time>2026-03-05T08:24:07Z</time>
      </trkpt>
      <trkpt lat="48.48995" lon="7.21719">
        <ele>424.1524</ele>
        <time>2026-03-05T08:24:13Z</time>
      </trkpt>
      <trkpt lat="48.48991" lon="7.21717">
        <ele>424.1524</ele>
        <time>2026-03-05T08:24:17Z</time>
      </trkpt>
      <trkpt lat="48.48986" lon="7.21716">
        <ele>424.1524</ele>
        <time>2026-03-05T08:24:21Z</time>
      </trkpt>
      <trkpt lat="48.48981" lon="7.21716">
        <ele>424.1524</ele>
        <time>2026-03-05T08:24:25Z</time>
      </trkpt>
      <trkpt lat="48.48976" lon="7.21713">
        <ele>424.1524</ele>
        <time>2026-03-05T08:24:30Z</time>
      </trkpt>
      <trkpt lat="48.4897" lon="7.21711">
        <ele>424.1524</ele>
        <time>2026-03-05T08:24:35Z</time>
      </trkpt>
      <trkpt lat="48.48965" lon="7.21709">
        <ele>424.1524</ele>
        <time>2026-03-05T08:24:40Z</time>
      </trkpt>
      <trkpt lat="48.48959" lon="7.21707">
        <ele>424.1524</ele>
        <time>2026-03-05T08:24:46Z</time>
      </trkpt>
      <trkpt lat="48.48954" lon="7.21705">
        <ele>424.1524</ele>
        <time>2026-03-05T08:24:50Z</time>
      </trkpt>
      <trkpt lat="48.48949" lon="7.21704">
        <ele>424.1524</ele>
        <time>2026-03-05T08:24:55Z</time>
      </trkpt>
      <trkpt lat="48.48944" lon="7.21702">
        <ele>424.1524</ele>
        <time>2026-03-05T08:24:59Z</time>
      </trkpt>
      <trkpt lat="48.48941" lon="7.21697">
        <ele>424.1524</ele>
        <time>2026-03-05T08:25:05Z</time>
      </trkpt>
      <trkpt lat="48.48937" lon="7.21693">
        <ele>424.1524</ele>
        <time>2026-03-05T08:25:10Z</time>
      </trkpt>
      <trkpt lat="48.48934" lon="7.21687">
        <ele>424.1524</ele>
        <time>2026-03-05T08:25:14Z</time>
      </trkpt>
      <trkpt lat="48.4893" lon="7.21682">
        <ele>424.1524</ele>
        <time>2026-03-05T08:25:18Z</time>
      </trkpt>
      <trkpt lat="48.48927" lon="7.21676">
        <ele>424.1524</ele>
        <time>2026-03-05T08:25:23Z</time>
      </trkpt>
      <trkpt lat="48.48924" lon="7.2167">
        <ele>424.1524</ele>
        <time>2026-03-05T08:25:28Z</time>
      </trkpt>
      <trkpt lat="48.48921" lon="7.21664">
        <ele>424.1524</ele>
        <time>2026-03-05T08:25:32Z</time>
      </trkpt>
      <trkpt lat="48.48919" lon="7.21657">
        <ele>424.1524</ele>
        <time>2026-03-05T08:25:37Z</time>
      </trkpt>
      <trkpt lat="48.48916" lon="7.21649">
        <ele>424.1524</ele>
        <time>2026-03-05T08:25:42Z</time>
      </trkpt>
      <trkpt lat="48.48913" lon="7.21644">
        <ele>424.1524</ele>
        <time>2026-03-05T08:25:46Z</time>
      </trkpt>
      <trkpt lat="48.48911" lon="7.21637">
        <ele>424.1524</ele>
        <time>2026-03-05T08:25:50Z</time>
      </trkpt>
      <trkpt lat="48.4891" lon="7.2163">
        <ele>426.62216</ele>
        <time>2026-03-05T08:25:54Z</time>
      </trkpt>
      <trkpt lat="48.48909" lon="7.21623">
        <ele>429.09192</ele>
        <time>2026-03-05T08:25:59Z</time>
      </trkpt>
      <trkpt lat="48.48908" lon="7.21615">
        <ele>431.5617</ele>
        <time>2026-03-05T08:26:04Z</time>
      </trkpt>
      <trkpt lat="48.48906" lon="7.21608">
        <ele>434.03146</ele>
        <time>2026-03-05T08:26:09Z</time>
      </trkpt>
      <trkpt lat="48.48904" lon="7.216">
        <ele>436.50122</ele>
        <time>2026-03-05T08:26:13Z</time>
      </trkpt>
      <trkpt lat="48.48902" lon="7.21593">
        <ele>436.50122</ele>
        <time>2026-03-05T08:26:17Z</time>
      </trkpt>
      <trkpt lat="48.489" lon="7.21586">
        <ele>436.50122</ele>
        <time>2026-03-05T08:26:21Z</time>
      </trkpt>
      <trkpt lat="48.489" lon="7.21578">
        <ele>436.50122</ele>
        <time>2026-03-05T08:26:26Z</time>
      </trkpt>
      <trkpt lat="48.48898" lon="7.21571">
        <ele>436.50122</ele>
        <time>2026-03-05T08:26:30Z</time>
      </trkpt>
      <trkpt lat="48.48896" lon="7.21565">
        <ele>436.50122</ele>
        <time>2026-03-05T08:26:34Z</time>
      </trkpt>
      <trkpt lat="48.48896" lon="7.21556">
        <ele>436.50122</ele>
        <time>2026-03-05T08:26:40Z</time>
      </trkpt>
      <trkpt lat="48.48897" lon="7.21549">
        <ele>436.50122</ele>
        <time>2026-03-05T08:26:45Z</time>
      </trkpt>
      <trkpt lat="48.48896" lon="7.21542">
        <ele>436.50122</ele>
        <time>2026-03-05T08:26:49Z</time>
      </trkpt>
      <trkpt lat="48.48893" lon="7.21535">
        <ele>436.50122</ele>
        <time>2026-03-05T08:26:53Z</time>
      </trkpt>
      <trkpt lat="48.4889" lon="7.2153">
        <ele>436.50122</ele>
        <time>2026-03-05T08:26:56Z</time>
      </trkpt>
      <trkpt lat="48.4889" lon="7.21521">
        <ele>436.50122</ele>
        <time>2026-03-05T08:27:00Z</time>
      </trkpt>
      <trkpt lat="48.48893" lon="7.21511">
        <ele>436.50122</ele>
        <time>2026-03-05T08:27:06Z</time>
      </trkpt>
      <trkpt lat="48.4889" lon="7.21502">
        <ele>436.50122</ele>
        <time>2026-03-05T08:27:14Z</time>
      </trkpt>
      <trkpt lat="48.48889" lon="7.21495">
        <ele>436.50122</ele>
        <time>2026-03-05T08:27:19Z</time>
      </trkpt>
      <trkpt lat="48.48889" lon="7.21488">
        <ele>436.50122</ele>
        <time>2026-03-05T08:27:25Z</time>
      </trkpt>
      <trkpt lat="48.48887" lon="7.2148">
        <ele>436.50122</ele>
        <time>2026-03-05T08:27:28Z</time>
      </trkpt>
      <trkpt lat="48.48886" lon="7.21472">
        <ele>436.50122</ele>
        <time>2026-03-05T08:27:32Z</time>
      </trkpt>
      <trkpt lat="48.48883" lon="7.21465">
        <ele>436.50122</ele>
        <time>2026-03-05T08:27:37Z</time>
      </trkpt>
      <trkpt lat="48.4888" lon="7.21458">
        <ele>436.50122</ele>
        <time>2026-03-05T08:27:42Z</time>
      </trkpt>
      <trkpt lat="48.48878" lon="7.21452">
        <ele>436.50122</ele>
        <time>2026-03-05T08:27:46Z</time>
      </trkpt>
      <trkpt lat="48.48876" lon="7.21446">
        <ele>436.50122</ele>
        <time>2026-03-05T08:27:52Z</time>
      </trkpt>
      <trkpt lat="48.48873" lon="7.21439">
        <ele>436.50122</ele>
        <time>2026-03-05T08:27:56Z</time>
      </trkpt>
      <trkpt lat="48.48869" lon="7.21433">
        <ele>436.50122</ele>
        <time>2026-03-05T08:27:59Z</time>
      </trkpt>
      <trkpt lat="48.48865" lon="7.21428">
        <ele>436.50122</ele>
        <time>2026-03-05T08:28:05Z</time>
      </trkpt>
      <trkpt lat="48.4886" lon="7.21422">
        <ele>436.50122</ele>
        <time>2026-03-05T08:28:12Z</time>
      </trkpt>
      <trkpt lat="48.48857" lon="7.21416">
        <ele>436.50122</ele>
        <time>2026-03-05T08:28:18Z</time>
      </trkpt>
      <trkpt lat="48.48856" lon="7.21408">
        <ele>436.50122</ele>
        <time>2026-03-05T08:28:22Z</time>
      </trkpt>
      <trkpt lat="48.48851" lon="7.21402">
        <ele>436.50122</ele>
        <time>2026-03-05T08:28:27Z</time>
      </trkpt>
      <trkpt lat="48.48848" lon="7.21396">
        <ele>436.50122</ele>
        <time>2026-03-05T08:28:31Z</time>
      </trkpt>
      <trkpt lat="48.48843" lon="7.21389">
        <ele>436.50122</ele>
        <time>2026-03-05T08:28:38Z</time>
      </trkpt>
      <trkpt lat="48.48841" lon="7.21383">
        <ele>436.50122</ele>
        <time>2026-03-05T08:28:44Z</time>
      </trkpt>
      <trkpt lat="48.48836" lon="7.21378">
        <ele>436.50122</ele>
        <time>2026-03-05T08:28:49Z</time>
      </trkpt>
      <trkpt lat="48.48833" lon="7.21372">
        <ele>436.50122</ele>
        <time>2026-03-05T08:28:54Z</time>
      </trkpt>
      <trkpt lat="48.48829" lon="7.21368">
        <ele>436.50122</ele>
        <time>2026-03-05T08:28:58Z</time>
      </trkpt>
      <trkpt lat="48.48823" lon="7.21363">
        <ele>436.50122</ele>
        <time>2026-03-05T08:29:05Z</time>
      </trkpt>
      <trkpt lat="48.4882" lon="7.21358">
        <ele>436.50122</ele>
        <time>2026-03-05T08:29:10Z</time>
      </trkpt>
      <trkpt lat="48.48816" lon="7.21351">
        <ele>436.50122</ele>
        <time>2026-03-05T08:29:16Z</time>
      </trkpt>
      <trkpt lat="48.48814" lon="7.21345">
        <ele>436.50122</ele>
        <time>2026-03-05T08:29:21Z</time>
      </trkpt>
      <trkpt lat="48.4881" lon="7.2134">
        <ele>438.53326</ele>
        <time>2026-03-05T08:29:27Z</time>
      </trkpt>
      <trkpt lat="48.48806" lon="7.21335">
        <ele>440.56534</ele>
        <time>2026-03-05T08:29:31Z</time>
      </trkpt>
      <trkpt lat="48.48801" lon="7.21329">
        <ele>442.59738</ele>
        <time>2026-03-05T08:29:35Z</time>
      </trkpt>
      <trkpt lat="48.48798" lon="7.21323">
        <ele>444.62946</ele>
        <time>2026-03-05T08:29:42Z</time>
      </trkpt>
      <trkpt lat="48.48795" lon="7.21317">
        <ele>446.6615</ele>
        <time>2026-03-05T08:29:47Z</time>
      </trkpt>
      <trkpt lat="48.48792" lon="7.21311">
        <ele>446.6615</ele>
        <time>2026-03-05T08:29:50Z</time>
      </trkpt>
      <trkpt lat="48.4879" lon="7.21305">
        <ele>446.6615</ele>
        <time>2026-03-05T08:29:56Z</time>
      </trkpt>
      <trkpt lat="48.48786" lon="7.21299">
        <ele>446.6615</ele>
        <time>2026-03-05T08:30:01Z</time>
      </trkpt>
      <trkpt lat="48.48783" lon="7.21292">
        <ele>446.6615</ele>
        <time>2026-03-05T08:30:06Z</time>
      </trkpt>
      <trkpt lat="48.48781" lon="7.21285">
        <ele>446.6615</ele>
        <time>2026-03-05T08:30:14Z</time>
      </trkpt>
      <trkpt lat="48.48777" lon="7.2128">
        <ele>446.6615</ele>
        <time>2026-03-05T08:30:18Z</time>
      </trkpt>
      <trkpt lat="48.48777" lon="7.21272">
        <ele>446.6615</ele>
        <time>2026-03-05T08:30:24Z</time>
      </trkpt>
      <trkpt lat="48.48773" lon="7.21268">
        <ele>446.6615</ele>
        <time>2026-03-05T08:30:28Z</time>
      </trkpt>
      <trkpt lat="48.48771" lon="7.21262">
        <ele>446.6615</ele>
        <time>2026-03-05T08:30:31Z</time>
      </trkpt>
      <trkpt lat="48.48769" lon="7.21255">
        <ele>446.6615</ele>
        <time>2026-03-05T08:30:36Z</time>
      </trkpt>
      <trkpt lat="48.48767" lon="7.21249">
        <ele>446.6615</ele>
        <time>2026-03-05T08:30:40Z</time>
      </trkpt>
      <trkpt lat="48.48764" lon="7.21242">
        <ele>448.92453</ele>
        <time>2026-03-05T08:30:44Z</time>
      </trkpt>
      <trkpt lat="48.48763" lon="7.21236">
        <ele>451.18753</ele>
        <time>2026-03-05T08:30:50Z</time>
      </trkpt>
      <trkpt lat="48.48761" lon="7.21229">
        <ele>453.45056</ele>
        <time>2026-03-05T08:30:55Z</time>
      </trkpt>
      <trkpt lat="48.48758" lon="7.21222">
        <ele>455.71356</ele>
        <time>2026-03-05T08:31:01Z</time>
      </trkpt>
      <trkpt lat="48.48756" lon="7.21216">
        <ele>457.9766</ele>
        <time>2026-03-05T08:31:05Z</time>
      </trkpt>
      <trkpt lat="48.48752" lon="7.21211">
        <ele>457.9766</ele>
        <time>2026-03-05T08:31:09Z</time>
      </trkpt>
      <trkpt lat="48.48752" lon="7.21204">
        <ele>457.9766</ele>
        <time>2026-03-05T08:31:16Z</time>
      </trkpt>
      <trkpt lat="48.48747" lon="7.21199">
        <ele>457.9766</ele>
        <time>2026-03-05T08:31:20Z</time>
      </trkpt>
      <trkpt lat="48.48745" lon="7.21192">
        <ele>457.9766</ele>
        <time>2026-03-05T08:31:25Z</time>
      </trkpt>
      <trkpt lat="48.48743" lon="7.21186">
        <ele>457.9766</ele>
        <time>2026-03-05T08:31:30Z</time>
      </trkpt>
      <trkpt lat="48.4874" lon="7.2118">
        <ele>457.9766</ele>
        <time>2026-03-05T08:31:35Z</time>
      </trkpt>
      <trkpt lat="48.48737" lon="7.21173">
        <ele>457.9766</ele>
        <time>2026-03-05T08:31:41Z</time>
      </trkpt>
      <trkpt lat="48.48737" lon="7.21166">
        <ele>457.9766</ele>
        <time>2026-03-05T08:31:47Z</time>
      </trkpt>
      <trkpt lat="48.48733" lon="7.21162">
        <ele>457.9766</ele>
        <time>2026-03-05T08:31:50Z</time>
      </trkpt>
      <trkpt lat="48.48728" lon="7.21154">
        <ele>457.9766</ele>
        <time>2026-03-05T08:31:55Z</time>
      </trkpt>
      <trkpt lat="48.48728" lon="7.21145">
        <ele>457.9766</ele>
        <time>2026-03-05T08:32:01Z</time>
      </trkpt>
      <trkpt lat="48.48725" lon="7.2114">
        <ele>457.9766</ele>
        <time>2026-03-05T08:32:05Z</time>
      </trkpt>
      <trkpt lat="48.48722" lon="7.21135">
        <ele>457.9766</ele>
        <time>2026-03-05T08:32:09Z</time>
      </trkpt>
      <trkpt lat="48.48718" lon="7.21129">
        <ele>457.9766</ele>
        <time>2026-03-05T08:32:14Z</time>
      </trkpt>
      <trkpt lat="48.48719" lon="7.21122">
        <ele>457.9766</ele>
        <time>2026-03-05T08:32:19Z</time>
      </trkpt>
      <trkpt lat="48.48714" lon="7.21117">
        <ele>457.9766</ele>
        <time>2026-03-05T08:32:23Z</time>
      </trkpt>
      <trkpt lat="48.4871" lon="7.21116">
        <ele>457.9766</ele>
        <time>2026-03-05T08:32:27Z</time>
      </trkpt>
      <trkpt lat="48.48705" lon="7.21113">
        <ele>457.9766</ele>
        <time>2026-03-05T08:32:31Z</time>
      </trkpt>
      <trkpt lat="48.48703" lon="7.21107">
        <ele>457.9766</ele>
        <time>2026-03-05T08:32:35Z</time>
      </trkpt>
      <trkpt lat="48.48697" lon="7.21103">
        <ele>457.9766</ele>
        <time>2026-03-05T08:32:39Z</time>
      </trkpt>
      <trkpt lat="48.48694" lon="7.21099">
        <ele>457.9766</ele>
        <time>2026-03-05T08:32:45Z</time>
      </trkpt>
      <trkpt lat="48.4869" lon="7.21096">
        <ele>457.9766</ele>
        <time>2026-03-05T08:32:49Z</time>
      </trkpt>
      <trkpt lat="48.48685" lon="7.21096">
        <ele>457.9766</ele>
        <time>2026-03-05T08:32:54Z</time>
      </trkpt>
      <trkpt lat="48.4868" lon="7.21095">
        <ele>457.9766</ele>
        <time>2026-03-05T08:32:57Z</time>
      </trkpt>
      <trkpt lat="48.48676" lon="7.21094">
        <ele>457.9766</ele>
        <time>2026-03-05T08:33:01Z</time>
      </trkpt>
      <trkpt lat="48.4867" lon="7.21092">
        <ele>457.9766</ele>
        <time>2026-03-05T08:33:06Z</time>
      </trkpt>
      <trkpt lat="48.48664" lon="7.21092">
        <ele>457.9766</ele>
        <time>2026-03-05T08:33:10Z</time>
      </trkpt>
      <trkpt lat="48.48659" lon="7.21092">
        <ele>460.56448</ele>
        <time>2026-03-05T08:33:14Z</time>
      </trkpt>
      <trkpt lat="48.48654" lon="7.21093">
        <ele>463.15234</ele>
        <time>2026-03-05T08:33:20Z</time>
      </trkpt>
      <trkpt lat="48.48649" lon="7.21094">
        <ele>465.74023</ele>
        <time>2026-03-05T08:33:24Z</time>
      </trkpt>
      <trkpt lat="48.48644" lon="7.21096">
        <ele>468.3281</ele>
        <time>2026-03-05T08:33:30Z</time>
      </trkpt>
      <trkpt lat="48.48639" lon="7.21097">
        <ele>470.916</ele>
        <time>2026-03-05T08:33:35Z</time>
      </trkpt>
      <trkpt lat="48.48634" lon="7.21097">
        <ele>470.916</ele>
        <time>2026-03-05T08:33:40Z</time>
      </trkpt>
      <trkpt lat="48.4863" lon="7.21095">
        <ele>470.916</ele>
        <time>2026-03-05T08:33:45Z</time>
      </trkpt>
      <trkpt lat="48.48624" lon="7.21097">
        <ele>470.916</ele>
        <time>2026-03-05T08:33:48Z</time>
      </trkpt>
      <trkpt lat="48.48618" lon="7.21098">
        <ele>470.916</ele>
        <time>2026-03-05T08:33:54Z</time>
      </trkpt>
      <trkpt lat="48.48614" lon="7.21095">
        <ele>470.916</ele>
        <time>2026-03-05T08:34:01Z</time>
      </trkpt>
      <trkpt lat="48.4861" lon="7.21089">
        <ele>470.916</ele>
        <time>2026-03-05T08:34:07Z</time>
      </trkpt>
      <trkpt lat="48.48606" lon="7.21086">
        <ele>470.916</ele>
        <time>2026-03-05T08:34:11Z</time>
      </trkpt>
      <trkpt lat="48.48601" lon="7.21083">
        <ele>470.916</ele>
        <time>2026-03-05T08:34:16Z</time>
      </trkpt>
      <trkpt lat="48.48596" lon="7.21079">
        <ele>470.916</ele>
        <time>2026-03-05T08:34:20Z</time>
      </trkpt>
      <trkpt lat="48.48591" lon="7.21076">
        <ele>470.916</ele>
        <time>2026-03-05T08:34:25Z</time>
      </trkpt>
      <trkpt lat="48.48586" lon="7.21072">
        <ele>470.916</ele>
        <time>2026-03-05T08:34:31Z</time>
      </trkpt>
      <trkpt lat="48.48583" lon="7.21067">
        <ele>470.916</ele>
        <time>2026-03-05T08:34:37Z</time>
      </trkpt>
      <trkpt lat="48.48579" lon="7.21066">
        <ele>470.916</ele>
        <time>2026-03-05T08:34:42Z</time>
      </trkpt>
      <trkpt lat="48.48573" lon="7.21064">
        <ele>470.916</ele>
        <time>2026-03-05T08:34:47Z</time>
      </trkpt>
      <trkpt lat="48.48568" lon="7.21062">
        <ele>470.916</ele>
        <time>2026-03-05T08:34:53Z</time>
      </trkpt>
      <trkpt lat="48.48564" lon="7.21061">
        <ele>470.916</ele>
        <time>2026-03-05T08:34:56Z</time>
      </trkpt>
      <trkpt lat="48.48559" lon="7.21058">
        <ele>470.916</ele>
        <time>2026-03-05T08:35:02Z</time>
      </trkpt>
      <trkpt lat="48.48552" lon="7.21056">
        <ele>470.916</ele>
        <time>2026-03-05T08:35:07Z</time>
      </trkpt>
      <trkpt lat="48.48546" lon="7.21054">
        <ele>470.916</ele>
        <time>2026-03-05T08:35:13Z</time>
      </trkpt>
      <trkpt lat="48.48542" lon="7.21049">
        <ele>470.916</ele>
        <time>2026-03-05T08:35:18Z</time>
      </trkpt>
      <trkpt lat="48.48537" lon="7.21046">
        <ele>472.95087</ele>
        <time>2026-03-05T08:35:23Z</time>
      </trkpt>
      <trkpt lat="48.48534" lon="7.21039">
        <ele>474.98578</ele>
        <time>2026-03-05T08:35:32Z</time>
      </trkpt>
      <trkpt lat="48.48529" lon="7.21034">
        <ele>477.02066</ele>
        <time>2026-03-05T08:35:37Z</time>
      </trkpt>
      <trkpt lat="48.48526" lon="7.21029">
        <ele>479.05557</ele>
        <time>2026-03-05T08:35:43Z</time>
      </trkpt>
      <trkpt lat="48.48524" lon="7.21023">
        <ele>481.09045</ele>
        <time>2026-03-05T08:35:48Z</time>
      </trkpt>
      <trkpt lat="48.4852" lon="7.21019">
        <ele>481.09045</ele>
        <time>2026-03-05T08:35:53Z</time>
      </trkpt>
      <trkpt lat="48.48517" lon="7.21013">
        <ele>481.09045</ele>
        <time>2026-03-05T08:35:58Z</time>
      </trkpt>
      <trkpt lat="48.48516" lon="7.21006">
        <ele>481.09045</ele>
        <time>2026-03-05T08:36:03Z</time>
      </trkpt>
      <trkpt lat="48.48513" lon="7.20999">
        <ele>481.09045</ele>
        <time>2026-03-05T08:36:09Z</time>
      </trkpt>
      <trkpt lat="48.4851" lon="7.20994">
        <ele>481.09045</ele>
        <time>2026-03-05T08:36:12Z</time>
      </trkpt>
      <trkpt lat="48.48508" lon="7.20986">
        <ele>481.09045</ele>
        <time>2026-03-05T08:36:17Z</time>
      </trkpt>
      <trkpt lat="48.48507" lon="7.2098">
        <ele>481.09045</ele>
        <time>2026-03-05T08:36:20Z</time>
      </trkpt>
      <trkpt lat="48.48507" lon="7.20972">
        <ele>481.09045</ele>
        <time>2026-03-05T08:36:25Z</time>
      </trkpt>
      <trkpt lat="48.48504" lon="7.20965">
        <ele>481.09045</ele>
        <time>2026-03-05T08:36:31Z</time>
      </trkpt>
      <trkpt lat="48.48506" lon="7.20959">
        <ele>481.09045</ele>
        <time>2026-03-05T08:36:37Z</time>
      </trkpt>
      <trkpt lat="48.48506" lon="7.20951">
        <ele>481.09045</ele>
        <time>2026-03-05T08:36:42Z</time>
      </trkpt>
      <trkpt lat="48.48505" lon="7.20944">
        <ele>481.09045</ele>
        <time>2026-03-05T08:36:47Z</time>
      </trkpt>
      <trkpt lat="48.48506" lon="7.20937">
        <ele>481.09045</ele>
        <time>2026-03-05T08:36:52Z</time>
      </trkpt>
      <trkpt lat="48.48507" lon="7.2093">
        <ele>481.09045</ele>
        <time>2026-03-05T08:36:56Z</time>
      </trkpt>
      <trkpt lat="48.48508" lon="7.20922">
        <ele>481.09045</ele>
        <time>2026-03-05T08:37:01Z</time>
      </trkpt>
      <trkpt lat="48.4851" lon="7.20916">
        <ele>481.09045</ele>
        <time>2026-03-05T08:37:06Z</time>
      </trkpt>
      <trkpt lat="48.4851" lon="7.20909">
        <ele>481.09045</ele>
        <time>2026-03-05T08:37:11Z</time>
      </trkpt>
      <trkpt lat="48.48511" lon="7.20902">
        <ele>481.09045</ele>
        <time>2026-03-05T08:37:15Z</time>
      </trkpt>
      <trkpt lat="48.48512" lon="7.20895">
        <ele>481.09045</ele>
        <time>2026-03-05T08:37:20Z</time>
      </trkpt>
      <trkpt lat="48.48513" lon="7.20887">
        <ele>481.09045</ele>
        <time>2026-03-05T08:37:25Z</time>
      </trkpt>
      <trkpt lat="48.48513" lon="7.20879">
        <ele>481.09045</ele>
        <time>2026-03-05T08:37:31Z</time>
      </trkpt>
      <trkpt lat="48.48513" lon="7.20871">
        <ele>481.09045</ele>
        <time>2026-03-05T08:37:36Z</time>
      </trkpt>
      <trkpt lat="48.48514" lon="7.20863">
        <ele>483.11295</ele>
        <time>2026-03-05T08:37:41Z</time>
      </trkpt>
      <trkpt lat="48.48513" lon="7.20856">
        <ele>485.13547</ele>
        <time>2026-03-05T08:37:46Z</time>
      </trkpt>
      <trkpt lat="48.48515" lon="7.2085">
        <ele>487.15796</ele>
        <time>2026-03-05T08:37:51Z</time>
      </trkpt>
      <trkpt lat="48.48515" lon="7.20842">
        <ele>489.18048</ele>
        <time>2026-03-05T08:37:55Z</time>
      </trkpt>
      <trkpt lat="48.48518" lon="7.20836">
        <ele>491.20297</ele>
        <time>2026-03-05T08:37:59Z</time>
      </trkpt>
      <trkpt lat="48.4852" lon="7.20828">
        <ele>491.20297</ele>
        <time>2026-03-05T08:38:05Z</time>
      </trkpt>
      <trkpt lat="48.48522" lon="7.20822">
        <ele>491.20297</ele>
        <time>2026-03-05T08:38:09Z</time>
      </trkpt>
      <trkpt lat="48.48524" lon="7.20814">
        <ele>491.20297</ele>
        <time>2026-03-05T08:38:14Z</time>
      </trkpt>
      <trkpt lat="48.48526" lon="7.20807">
        <ele>491.20297</ele>
        <time>2026-03-05T08:38:20Z</time>
      </trkpt>
      <trkpt lat="48.48529" lon="7.20801">
        <ele>491.20297</ele>
        <time>2026-03-05T08:38:25Z</time>
      </trkpt>
      <trkpt lat="48.48533" lon="7.20797">
        <ele>491.20297</ele>
        <time>2026-03-05T08:38:29Z</time>
      </trkpt>
      <trkpt lat="48.48537" lon="7.20793">
        <ele>491.20297</ele>
        <time>2026-03-05T08:38:33Z</time>
      </trkpt>
      <trkpt lat="48.48541" lon="7.2079">
        <ele>491.20297</ele>
        <time>2026-03-05T08:38:37Z</time>
      </trkpt>
      <trkpt lat="48.48545" lon="7.20784">
        <ele>491.20297</ele>
        <time>2026-03-05T08:38:43Z</time>
      </trkpt>
      <trkpt lat="48.48547" lon="7.20778">
        <ele>491.20297</ele>
        <time>2026-03-05T08:38:50Z</time>
      </trkpt>
      <trkpt lat="48.48552" lon="7.20774">
        <ele>491.20297</ele>
        <time>2026-03-05T08:38:54Z</time>
      </trkpt>
      <trkpt lat="48.48557" lon="7.20772">
        <ele>491.20297</ele>
        <time>2026-03-05T08:38:57Z</time>
      </trkpt>
      <trkpt lat="48.4856" lon="7.20768">
        <ele>491.20297</ele>
        <time>2026-03-05T08:39:02Z</time>
      </trkpt>
      <trkpt lat="48.48566" lon="7.20764">
        <ele>491.20297</ele>
        <time>2026-03-05T08:39:06Z</time>
      </trkpt>
      <trkpt lat="48.48569" lon="7.20759">
        <ele>491.20297</ele>
        <time>2026-03-05T08:39:11Z</time>
      </trkpt>
      <trkpt lat="48.48573" lon="7.20752">
        <ele>491.20297</ele>
        <time>2026-03-05T08:39:16Z</time>
      </trkpt>
      <trkpt lat="48.48578" lon="7.20748">
        <ele>491.20297</ele>
        <time>2026-03-05T08:39:20Z</time>
      </trkpt>
      <trkpt lat="48.48581" lon="7.20743">
        <ele>491.20297</ele>
        <time>2026-03-05T08:39:25Z</time>
      </trkpt>
      <trkpt lat="48.48583" lon="7.20736">
        <ele>491.20297</ele>
        <time>2026-03-05T08:39:28Z</time>
      </trkpt>
      <trkpt lat="48.48586" lon="7.2073">
        <ele>491.20297</ele>
        <time>2026-03-05T08:39:32Z</time>
      </trkpt>
      <trkpt lat="48.48589" lon="7.20722">
        <ele>491.20297</ele>
        <time>2026-03-05T08:39:38Z</time>
      </trkpt>
      <trkpt lat="48.48589" lon="7.20715">
        <ele>491.20297</ele>
        <time>2026-03-05T08:39:42Z</time>
      </trkpt>
      <trkpt lat="48.48592" lon="7.20708">
        <ele>491.20297</ele>
        <time>2026-03-05T08:39:46Z</time>
      </trkpt>
      <trkpt lat="48.48594" lon="7.20701">
        <ele>491.20297</ele>
        <time>2026-03-05T08:39:52Z</time>
      </trkpt>
      <trkpt lat="48.48595" lon="7.20693">
        <ele>491.20297</ele>
        <time>2026-03-05T08:39:56Z</time>
      </trkpt>
      <trkpt lat="48.48596" lon="7.20686">
        <ele>493.2779</ele>
        <time>2026-03-05T08:40:00Z</time>
      </trkpt>
      <trkpt lat="48.48595" lon="7.20677">
        <ele>495.3528</ele>
        <time>2026-03-05T08:40:04Z</time>
      </trkpt>
      <trkpt lat="48.48594" lon="7.20671">
        <ele>497.4277</ele>
        <time>2026-03-05T08:40:09Z</time>
      </trkpt>
      <trkpt lat="48.48595" lon="7.20663">
        <ele>499.50262</ele>
        <time>2026-03-05T08:40:14Z</time>
      </trkpt>
      <trkpt lat="48.48596" lon="7.20655">
        <ele>501.57755</ele>
        <time>2026-03-05T08:40:18Z</time>
      </trkpt>
      <trkpt lat="48.48596" lon="7.20649">
        <ele>501.57755</ele>
        <time>2026-03-05T08:40:21Z</time>
      </trkpt>
      <trkpt lat="48.48597" lon="7.20639">
        <ele>501.57755</ele>
        <time>2026-03-05T08:40:25Z</time>
      </trkpt>
      <trkpt lat="48.48597" lon="7.20632">
        <ele>501.57755</ele>
        <time>2026-03-05T08:40:33Z</time>
      </trkpt>
      <trkpt lat="48.48597" lon="7.20624">
        <ele>501.57755</ele>
        <time>2026-03-05T08:40:38Z</time>
      </trkpt>
      <trkpt lat="48.48598" lon="7.20617">
        <ele>501.57755</ele>
        <time>2026-03-05T08:40:41Z</time>
      </trkpt>
      <trkpt lat="48.48599" lon="7.2061">
        <ele>501.57755</ele>
        <time>2026-03-05T08:40:46Z</time>
      </trkpt>
      <trkpt lat="48.48597" lon="7.20603">
        <ele>501.57755</ele>
        <time>2026-03-05T08:40:50Z</time>
      </trkpt>
      <trkpt lat="48.48596" lon="7.20594">
        <ele>501.57755</ele>
        <time>2026-03-05T08:40:55Z</time>
      </trkpt>
      <trkpt lat="48.48595" lon="7.20585">
        <ele>501.57755</ele>
        <time>2026-03-05T08:41:01Z</time>
      </trkpt>
      <trkpt lat="48.48595" lon="7.20577">
        <ele>501.57755</ele>
        <time>2026-03-05T08:41:05Z</time>
      </trkpt>
      <trkpt lat="48.48595" lon="7.2057">
        <ele>501.57755</ele>
        <time>2026-03-05T08:41:11Z</time>
      </trkpt>
      <trkpt lat="48.48595" lon="7.20562">
        <ele>501.57755</ele>
        <time>2026-03-05T08:41:16Z</time>
      </trkpt>
      <trkpt lat="48.48597" lon="7.20553">
        <ele>501.57755</ele>
        <time>2026-03-05T08:41:21Z</time>
      </trkpt>
      <trkpt lat="48.48599" lon="7.20545">
        <ele>501.57755</ele>
        <time>2026-03-05T08:41:26Z</time>
      </trkpt>
      <trkpt lat="48.486" lon="7.20538">
        <ele>501.57755</ele>
        <time>2026-03-05T08:41:30Z</time>
      </trkpt>
      <trkpt lat="48.48602" lon="7.20531">
        <ele>501.57755</ele>
        <time>2026-03-05T08:41:35Z</time>
      </trkpt>
      <trkpt lat="48.48605" lon="7.20525">
        <ele>501.57755</ele>
        <time>2026-03-05T08:41:40Z</time>
      </trkpt>
      <trkpt lat="48.48605" lon="7.20517">
        <ele>501.57755</ele>
        <time>2026-03-05T08:41:43Z</time>
      </trkpt>
      <trkpt lat="48.48608" lon="7.2051">
        <ele>501.57755</ele>
        <time>2026-03-05T08:41:47Z</time>
      </trkpt>
      <trkpt lat="48.48612" lon="7.20505">
        <ele>501.57755</ele>
        <time>2026-03-05T08:41:53Z</time>
      </trkpt>
      <trkpt lat="48.48615" lon="7.20497">
        <ele>501.57755</ele>
        <time>2026-03-05T08:41:58Z</time>
      </trkpt>
      <trkpt lat="48.48619" lon="7.20492">
        <ele>501.57755</ele>
        <time>2026-03-05T08:42:04Z</time>
      </trkpt>
      <trkpt lat="48.48624" lon="7.20494">
        <ele>503.95398</ele>
        <time>2026-03-05T08:42:36Z</time>
      </trkpt>
      <trkpt lat="48.48619" lon="7.20493">
        <ele>506.33038</ele>
        <time>2026-03-05T08:42:49Z</time>
      </trkpt>
      <trkpt lat="48.48616" lon="7.20487">
        <ele>508.70682</ele>
        <time>2026-03-05T08:43:38Z</time>
      </trkpt>
      <trkpt lat="48.48621" lon="7.20497">
        <ele>511.08322</ele>
        <time>2026-03-05T08:43:56Z</time>
      </trkpt>
      <trkpt lat="48.48619" lon="7.20487">
        <ele>513.45966</ele>
        <time>2026-03-05T08:44:18Z</time>
      </trkpt>
      <trkpt lat="48.48623" lon="7.20482">
        <ele>513.45966</ele>
        <time>2026-03-05T08:44:36Z</time>
      </trkpt>
      <trkpt lat="48.48627" lon="7.20475">
        <ele>513.45966</ele>
        <time>2026-03-05T08:44:41Z</time>
      </trkpt>
      <trkpt lat="48.4863" lon="7.20468">
        <ele>513.45966</ele>
        <time>2026-03-05T08:44:46Z</time>
      </trkpt>
      <trkpt lat="48.48635" lon="7.20465">
        <ele>513.45966</ele>
        <time>2026-03-05T08:44:51Z</time>
      </trkpt>
      <trkpt lat="48.48639" lon="7.20465">
        <ele>513.45966</ele>
        <time>2026-03-05T08:44:56Z</time>
      </trkpt>
      <trkpt lat="48.48644" lon="7.20468">
        <ele>513.45966</ele>
        <time>2026-03-05T08:44:57Z</time>
      </trkpt>
      <trkpt lat="48.48649" lon="7.20466">
        <ele>513.45966</ele>
        <time>2026-03-05T08:45:02Z</time>
      </trkpt>
      <trkpt lat="48.48654" lon="7.20464">
        <ele>513.45966</ele>
        <time>2026-03-05T08:45:07Z</time>
      </trkpt>
      <trkpt lat="48.48659" lon="7.20463">
        <ele>513.45966</ele>
        <time>2026-03-05T08:45:11Z</time>
      </trkpt>
      <trkpt lat="48.48664" lon="7.2046">
        <ele>513.45966</ele>
        <time>2026-03-05T08:45:16Z</time>
      </trkpt>
      <trkpt lat="48.48669" lon="7.20456">
        <ele>513.45966</ele>
        <time>2026-03-05T08:45:21Z</time>
      </trkpt>
      <trkpt lat="48.48673" lon="7.20455">
        <ele>513.45966</ele>
        <time>2026-03-05T08:45:26Z</time>
      </trkpt>
      <trkpt lat="48.48679" lon="7.20455">
        <ele>513.45966</ele>
        <time>2026-03-05T08:45:31Z</time>
      </trkpt>
      <trkpt lat="48.48683" lon="7.20451">
        <ele>513.45966</ele>
        <time>2026-03-05T08:45:40Z</time>
      </trkpt>
      <trkpt lat="48.48687" lon="7.20448">
        <ele>513.45966</ele>
        <time>2026-03-05T08:45:42Z</time>
      </trkpt>
      <trkpt lat="48.48692" lon="7.20445">
        <ele>513.45966</ele>
        <time>2026-03-05T08:45:47Z</time>
      </trkpt>
      <trkpt lat="48.487" lon="7.20444">
        <ele>513.45966</ele>
        <time>2026-03-05T08:45:50Z</time>
      </trkpt>
      <trkpt lat="48.48704" lon="7.20442">
        <ele>513.45966</ele>
        <time>2026-03-05T08:45:56Z</time>
      </trkpt>
      <trkpt lat="48.48709" lon="7.20442">
        <ele>513.45966</ele>
        <time>2026-03-05T08:45:59Z</time>
      </trkpt>
      <trkpt lat="48.48713" lon="7.20443">
        <ele>513.45966</ele>
        <time>2026-03-05T08:46:03Z</time>
      </trkpt>
      <trkpt lat="48.48718" lon="7.20442">
        <ele>513.45966</ele>
        <time>2026-03-05T08:46:08Z</time>
      </trkpt>
      <trkpt lat="48.48724" lon="7.20443">
        <ele>513.45966</ele>
        <time>2026-03-05T08:46:12Z</time>
      </trkpt>
      <trkpt lat="48.48729" lon="7.20442">
        <ele>513.45966</ele>
        <time>2026-03-05T08:46:18Z</time>
      </trkpt>
      <trkpt lat="48.48734" lon="7.20442">
        <ele>513.45966</ele>
        <time>2026-03-05T08:46:22Z</time>
      </trkpt>
      <trkpt lat="48.48739" lon="7.20441">
        <ele>513.45966</ele>
        <time>2026-03-05T08:46:25Z</time>
      </trkpt>
      <trkpt lat="48.48743" lon="7.20443">
        <ele>513.45966</ele>
        <time>2026-03-05T08:46:32Z</time>
      </trkpt>
      <trkpt lat="48.48748" lon="7.20444">
        <ele>513.45966</ele>
        <time>2026-03-05T08:46:35Z</time>
      </trkpt>
      <trkpt lat="48.48753" lon="7.20443">
        <ele>513.45966</ele>
        <time>2026-03-05T08:46:39Z</time>
      </trkpt>
      <trkpt lat="48.48757" lon="7.20446">
        <ele>513.45966</ele>
        <time>2026-03-05T08:46:43Z</time>
      </trkpt>
      <trkpt lat="48.48762" lon="7.20445">
        <ele>513.45966</ele>
        <time>2026-03-05T08:46:49Z</time>
      </trkpt>
      <trkpt lat="48.48768" lon="7.20446">
        <ele>513.45966</ele>
        <time>2026-03-05T08:46:54Z</time>
      </trkpt>
      <trkpt lat="48.48773" lon="7.20447">
        <ele>513.45966</ele>
        <time>2026-03-05T08:46:59Z</time>
      </trkpt>
      <trkpt lat="48.48778" lon="7.20449">
        <ele>513.45966</ele>
        <time>2026-03-05T08:47:04Z</time>
      </trkpt>
      <trkpt lat="48.48783" lon="7.20451">
        <ele>513.45966</ele>
        <time>2026-03-05T08:47:08Z</time>
      </trkpt>
      <trkpt lat="48.48788" lon="7.20452">
        <ele>513.45966</ele>
        <time>2026-03-05T08:47:12Z</time>
      </trkpt>
      <trkpt lat="48.48795" lon="7.20452">
        <ele>513.45966</ele>
        <time>2026-03-05T08:47:16Z</time>
      </trkpt>
      <trkpt lat="48.48799" lon="7.20453">
        <ele>513.45966</ele>
        <time>2026-03-05T08:47:22Z</time>
      </trkpt>
      <trkpt lat="48.48804" lon="7.20455">
        <ele>513.45966</ele>
        <time>2026-03-05T08:47:26Z</time>
      </trkpt>
      <trkpt lat="48.48809" lon="7.20455">
        <ele>513.45966</ele>
        <time>2026-03-05T08:47:30Z</time>
      </trkpt>
      <trkpt lat="48.48814" lon="7.20457">
        <ele>513.45966</ele>
        <time>2026-03-05T08:47:35Z</time>
      </trkpt>
      <trkpt lat="48.48819" lon="7.20459">
        <ele>513.45966</ele>
        <time>2026-03-05T08:47:41Z</time>
      </trkpt>
      <trkpt lat="48.48824" lon="7.2046">
        <ele>513.45966</ele>
        <time>2026-03-05T08:47:45Z</time>
      </trkpt>
      <trkpt lat="48.4883" lon="7.20462">
        <ele>513.45966</ele>
        <time>2026-03-05T08:47:50Z</time>
      </trkpt>
      <trkpt lat="48.48834" lon="7.20463">
        <ele>513.45966</ele>
        <time>2026-03-05T08:47:54Z</time>
      </trkpt>
      <trkpt lat="48.48839" lon="7.20464">
        <ele>513.45966</ele>
        <time>2026-03-05T08:47:56Z</time>
      </trkpt>
      <trkpt lat="48.48845" lon="7.20464">
        <ele>513.45966</ele>
        <time>2026-03-05T08:48:01Z</time>
      </trkpt>
      <trkpt lat="48.4885" lon="7.20461">
        <ele>513.45966</ele>
        <time>2026-03-05T08:48:06Z</time>
      </trkpt>
      <trkpt lat="48.48855" lon="7.2046">
        <ele>513.45966</ele>
        <time>2026-03-05T08:48:10Z</time>
      </trkpt>
      <trkpt lat="48.4886" lon="7.20461">
        <ele>513.45966</ele>
        <time>2026-03-05T08:48:14Z</time>
      </trkpt>
      <trkpt lat="48.48864" lon="7.20461">
        <ele>513.45966</ele>
        <time>2026-03-05T08:48:18Z</time>
      </trkpt>
      <trkpt lat="48.48869" lon="7.20462">
        <ele>513.45966</ele>
        <time>2026-03-05T08:48:23Z</time>
      </trkpt>
      <trkpt lat="48.48875" lon="7.20462">
        <ele>513.45966</ele>
        <time>2026-03-05T08:48:28Z</time>
      </trkpt>
      <trkpt lat="48.48879" lon="7.20462">
        <ele>513.45966</ele>
        <time>2026-03-05T08:48:32Z</time>
      </trkpt>
      <trkpt lat="48.48885" lon="7.20462">
        <ele>515.5329</ele>
        <time>2026-03-05T08:48:37Z</time>
      </trkpt>
      <trkpt lat="48.48889" lon="7.20462">
        <ele>517.60614</ele>
        <time>2026-03-05T08:48:41Z</time>
      </trkpt>
      <trkpt lat="48.48894" lon="7.20461">
        <ele>519.6793</ele>
        <time>2026-03-05T08:48:46Z</time>
      </trkpt>
      <trkpt lat="48.489" lon="7.20461">
        <ele>521.75256</ele>
        <time>2026-03-05T08:48:51Z</time>
      </trkpt>
      <trkpt lat="48.48905" lon="7.20461">
        <ele>523.8258</ele>
        <time>2026-03-05T08:48:57Z</time>
      </trkpt>
      <trkpt lat="48.4891" lon="7.2046">
        <ele>523.8258</ele>
        <time>2026-03-05T08:49:04Z</time>
      </trkpt>
      <trkpt lat="48.48914" lon="7.2046">
        <ele>523.8258</ele>
        <time>2026-03-05T08:49:07Z</time>
      </trkpt>
      <trkpt lat="48.4892" lon="7.20461">
        <ele>523.8258</ele>
        <time>2026-03-05T08:49:13Z</time>
      </trkpt>
      <trkpt lat="48.48925" lon="7.20461">
        <ele>523.8258</ele>
        <time>2026-03-05T08:49:17Z</time>
      </trkpt>
      <trkpt lat="48.48931" lon="7.20464">
        <ele>523.8258</ele>
        <time>2026-03-05T08:49:21Z</time>
      </trkpt>
      <trkpt lat="48.48935" lon="7.20463">
        <ele>523.8258</ele>
        <time>2026-03-05T08:49:25Z</time>
      </trkpt>
      <trkpt lat="48.4894" lon="7.20465">
        <ele>523.8258</ele>
        <time>2026-03-05T08:49:32Z</time>
      </trkpt>
      <trkpt lat="48.48944" lon="7.20466">
        <ele>523.8258</ele>
        <time>2026-03-05T08:49:50Z</time>
      </trkpt>
      <trkpt lat="48.48948" lon="7.20462">
        <ele>523.8258</ele>
        <time>2026-03-05T08:49:52Z</time>
      </trkpt>
      <trkpt lat="48.48954" lon="7.20464">
        <ele>523.8258</ele>
        <time>2026-03-05T08:50:02Z</time>
      </trkpt>
      <trkpt lat="48.48959" lon="7.20465">
        <ele>523.8258</ele>
        <time>2026-03-05T08:50:04Z</time>
      </trkpt>
      <trkpt lat="48.48964" lon="7.20467">
        <ele>523.8258</ele>
        <time>2026-03-05T08:50:12Z</time>
      </trkpt>
      <trkpt lat="48.48969" lon="7.2047">
        <ele>523.8258</ele>
        <time>2026-03-05T08:50:19Z</time>
      </trkpt>
      <trkpt lat="48.48974" lon="7.20473">
        <ele>523.8258</ele>
        <time>2026-03-05T08:50:25Z</time>
      </trkpt>
      <trkpt lat="48.48979" lon="7.20473">
        <ele>523.8258</ele>
        <time>2026-03-05T08:50:29Z</time>
      </trkpt>
      <trkpt lat="48.48983" lon="7.20475">
        <ele>523.8258</ele>
        <time>2026-03-05T08:50:33Z</time>
      </trkpt>
      <trkpt lat="48.48988" lon="7.20476">
        <ele>523.8258</ele>
        <time>2026-03-05T08:50:37Z</time>
      </trkpt>
      <trkpt lat="48.48993" lon="7.20478">
        <ele>523.8258</ele>
        <time>2026-03-05T08:50:43Z</time>
      </trkpt>
      <trkpt lat="48.48998" lon="7.20479">
        <ele>526.25226</ele>
        <time>2026-03-05T08:50:49Z</time>
      </trkpt>
      <trkpt lat="48.49001" lon="7.20485">
        <ele>528.67865</ele>
        <time>2026-03-05T08:51:01Z</time>
      </trkpt>
      <trkpt lat="48.49008" lon="7.20487">
        <ele>531.1051</ele>
        <time>2026-03-05T08:51:07Z</time>
      </trkpt>
      <trkpt lat="48.49012" lon="7.20488">
        <ele>533.5315</ele>
        <time>2026-03-05T08:51:12Z</time>
      </trkpt>
      <trkpt lat="48.49017" lon="7.20489">
        <ele>535.95795</ele>
        <time>2026-03-05T08:51:16Z</time>
      </trkpt>
      <trkpt lat="48.49022" lon="7.20491">
        <ele>535.95795</ele>
        <time>2026-03-05T08:51:21Z</time>
      </trkpt>
      <trkpt lat="48.49027" lon="7.20492">
        <ele>535.95795</ele>
        <time>2026-03-05T08:51:26Z</time>
      </trkpt>
      <trkpt lat="48.49031" lon="7.20495">
        <ele>535.95795</ele>
        <time>2026-03-05T08:51:29Z</time>
      </trkpt>
      <trkpt lat="48.49036" lon="7.20496">
        <ele>535.95795</ele>
        <time>2026-03-05T08:51:34Z</time>
      </trkpt>
      <trkpt lat="48.49041" lon="7.20499">
        <ele>535.95795</ele>
        <time>2026-03-05T08:51:40Z</time>
      </trkpt>
      <trkpt lat="48.49045" lon="7.20501">
        <ele>535.95795</ele>
        <time>2026-03-05T08:51:46Z</time>
      </trkpt>
      <trkpt lat="48.4905" lon="7.20503">
        <ele>535.95795</ele>
        <time>2026-03-05T08:51:52Z</time>
      </trkpt>
      <trkpt lat="48.49055" lon="7.20506">
        <ele>535.95795</ele>
        <time>2026-03-05T08:51:56Z</time>
      </trkpt>
      <trkpt lat="48.49059" lon="7.20508">
        <ele>535.95795</ele>
        <time>2026-03-05T08:52:01Z</time>
      </trkpt>
      <trkpt lat="48.49064" lon="7.2051">
        <ele>535.95795</ele>
        <time>2026-03-05T08:52:05Z</time>
      </trkpt>
      <trkpt lat="48.49069" lon="7.20513">
        <ele>535.95795</ele>
        <time>2026-03-05T08:52:10Z</time>
      </trkpt>
      <trkpt lat="48.49074" lon="7.20516">
        <ele>535.95795</ele>
        <time>2026-03-05T08:52:13Z</time>
      </trkpt>
      <trkpt lat="48.49079" lon="7.20519">
        <ele>535.95795</ele>
        <time>2026-03-05T08:52:20Z</time>
      </trkpt>
      <trkpt lat="48.49084" lon="7.20521">
        <ele>538.122</ele>
        <time>2026-03-05T08:52:26Z</time>
      </trkpt>
      <trkpt lat="48.49089" lon="7.20524">
        <ele>540.2861</ele>
        <time>2026-03-05T08:52:31Z</time>
      </trkpt>
      <trkpt lat="48.49094" lon="7.20527">
        <ele>542.4502</ele>
        <time>2026-03-05T08:52:36Z</time>
      </trkpt>
      <trkpt lat="48.49099" lon="7.2053">
        <ele>544.61426</ele>
        <time>2026-03-05T08:52:42Z</time>
      </trkpt>
      <trkpt lat="48.49104" lon="7.20533">
        <ele>546.7783</ele>
        <time>2026-03-05T08:52:46Z</time>
      </trkpt>
      <trkpt lat="48.4911" lon="7.20537">
        <ele>546.7783</ele>
        <time>2026-03-05T08:52:51Z</time>
      </trkpt>
      <trkpt lat="48.49114" lon="7.2054">
        <ele>546.7783</ele>
        <time>2026-03-05T08:52:59Z</time>
      </trkpt>
      <trkpt lat="48.49118" lon="7.20543">
        <ele>546.7783</ele>
        <time>2026-03-05T08:53:12Z</time>
      </trkpt>
      <trkpt lat="48.49121" lon="7.20548">
        <ele>546.7783</ele>
        <time>2026-03-05T08:53:18Z</time>
      </trkpt>
      <trkpt lat="48.49126" lon="7.20553">
        <ele>546.7783</ele>
        <time>2026-03-05T08:53:22Z</time>
      </trkpt>
      <trkpt lat="48.4913" lon="7.20559">
        <ele>546.7783</ele>
        <time>2026-03-05T08:53:30Z</time>
      </trkpt>
      <trkpt lat="48.49135" lon="7.20559">
        <ele>546.7783</ele>
        <time>2026-03-05T08:53:34Z</time>
      </trkpt>
      <trkpt lat="48.49138" lon="7.20565">
        <ele>546.7783</ele>
        <time>2026-03-05T08:53:39Z</time>
      </trkpt>
      <trkpt lat="48.49143" lon="7.20567">
        <ele>546.7783</ele>
        <time>2026-03-05T08:53:42Z</time>
      </trkpt>
      <trkpt lat="48.49148" lon="7.20571">
        <ele>546.7783</ele>
        <time>2026-03-05T08:53:47Z</time>
      </trkpt>
      <trkpt lat="48.49153" lon="7.20575">
        <ele>546.7783</ele>
        <time>2026-03-05T08:53:53Z</time>
      </trkpt>
      <trkpt lat="48.49158" lon="7.20579">
        <ele>546.7783</ele>
        <time>2026-03-05T08:53:59Z</time>
      </trkpt>
      <trkpt lat="48.49162" lon="7.20583">
        <ele>549.0864</ele>
        <time>2026-03-05T08:54:02Z</time>
      </trkpt>
      <trkpt lat="48.49167" lon="7.20588">
        <ele>551.39453</ele>
        <time>2026-03-05T08:54:07Z</time>
      </trkpt>
      <trkpt lat="48.49168" lon="7.20595">
        <ele>553.7026</ele>
        <time>2026-03-05T08:54:15Z</time>
      </trkpt>
      <trkpt lat="48.49173" lon="7.20597">
        <ele>556.0107</ele>
        <time>2026-03-05T08:54:18Z</time>
      </trkpt>
      <trkpt lat="48.49176" lon="7.20603">
        <ele>558.3188</ele>
        <time>2026-03-05T08:54:20Z</time>
      </trkpt>
      <trkpt lat="48.4918" lon="7.20609">
        <ele>558.3188</ele>
        <time>2026-03-05T08:54:28Z</time>
      </trkpt>
      <trkpt lat="48.49185" lon="7.20612">
        <ele>558.3188</ele>
        <time>2026-03-05T08:54:31Z</time>
      </trkpt>
      <trkpt lat="48.49189" lon="7.20616">
        <ele>558.3188</ele>
        <time>2026-03-05T08:54:37Z</time>
      </trkpt>
      <trkpt lat="48.49192" lon="7.20622">
        <ele>558.3188</ele>
        <time>2026-03-05T08:54:45Z</time>
      </trkpt>
      <trkpt lat="48.49196" lon="7.20629">
        <ele>558.3188</ele>
        <time>2026-03-05T08:54:56Z</time>
      </trkpt>
      <trkpt lat="48.49199" lon="7.20636">
        <ele>558.3188</ele>
        <time>2026-03-05T08:55:01Z</time>
      </trkpt>
      <trkpt lat="48.49204" lon="7.20639">
        <ele>558.3188</ele>
        <time>2026-03-05T08:55:06Z</time>
      </trkpt>
      <trkpt lat="48.49207" lon="7.20644">
        <ele>558.3188</ele>
        <time>2026-03-05T08:55:09Z</time>
      </trkpt>
      <trkpt lat="48.49211" lon="7.2065">
        <ele>558.3188</ele>
        <time>2026-03-05T08:55:14Z</time>
      </trkpt>
      <trkpt lat="48.49215" lon="7.20656">
        <ele>558.3188</ele>
        <time>2026-03-05T08:55:18Z</time>
      </trkpt>
      <trkpt lat="48.49219" lon="7.20661">
        <ele>558.3188</ele>
        <time>2026-03-05T08:55:22Z</time>
      </trkpt>
      <trkpt lat="48.49222" lon="7.20668">
        <ele>558.3188</ele>
        <time>2026-03-05T08:55:27Z</time>
      </trkpt>
      <trkpt lat="48.49223" lon="7.20675">
        <ele>558.3188</ele>
        <time>2026-03-05T08:55:33Z</time>
      </trkpt>
      <trkpt lat="48.49227" lon="7.20681">
        <ele>558.3188</ele>
        <time>2026-03-05T08:55:39Z</time>
      </trkpt>
      <trkpt lat="48.4923" lon="7.20688">
        <ele>558.3188</ele>
        <time>2026-03-05T08:55:43Z</time>
      </trkpt>
      <trkpt lat="48.49231" lon="7.20695">
        <ele>558.3188</ele>
        <time>2026-03-05T08:55:48Z</time>
      </trkpt>
      <trkpt lat="48.49231" lon="7.20702">
        <ele>558.3188</ele>
        <time>2026-03-05T08:55:52Z</time>
      </trkpt>
      <trkpt lat="48.49233" lon="7.2071">
        <ele>558.3188</ele>
        <time>2026-03-05T08:55:56Z</time>
      </trkpt>
      <trkpt lat="48.49233" lon="7.20717">
        <ele>558.3188</ele>
        <time>2026-03-05T08:56:01Z</time>
      </trkpt>
      <trkpt lat="48.49235" lon="7.20724">
        <ele>558.3188</ele>
        <time>2026-03-05T08:56:06Z</time>
      </trkpt>
      <trkpt lat="48.49236" lon="7.20732">
        <ele>558.3188</ele>
        <time>2026-03-05T08:56:11Z</time>
      </trkpt>
      <trkpt lat="48.49238" lon="7.20738">
        <ele>558.3188</ele>
        <time>2026-03-05T08:56:15Z</time>
      </trkpt>
      <trkpt lat="48.49239" lon="7.20746">
        <ele>558.3188</ele>
        <time>2026-03-05T08:56:19Z</time>
      </trkpt>
      <trkpt lat="48.49241" lon="7.20754">
        <ele>558.3188</ele>
        <time>2026-03-05T08:56:24Z</time>
      </trkpt>
      <trkpt lat="48.49242" lon="7.20761">
        <ele>558.3188</ele>
        <time>2026-03-05T08:56:29Z</time>
      </trkpt>
      <trkpt lat="48.49243" lon="7.20768">
        <ele>558.3188</ele>
        <time>2026-03-05T08:56:34Z</time>
      </trkpt>
      <trkpt lat="48.49246" lon="7.20775">
        <ele>558.3188</ele>
        <time>2026-03-05T08:56:39Z</time>
      </trkpt>
      <trkpt lat="48.4925" lon="7.20778">
        <ele>558.3188</ele>
        <time>2026-03-05T09:00:27Z</time>
      </trkpt>
      <trkpt lat="48.49253" lon="7.20782">
        <ele>558.3188</ele>
        <time>2026-03-05T09:01:50Z</time>
      </trkpt>
      <trkpt lat="48.49258" lon="7.20785">
        <ele>558.3188</ele>
        <time>2026-03-05T09:01:56Z</time>
      </trkpt>
      <trkpt lat="48.49263" lon="7.20787">
        <ele>558.3188</ele>
        <time>2026-03-05T09:02:01Z</time>
      </trkpt>
      <trkpt lat="48.49268" lon="7.20786">
        <ele>558.3188</ele>
        <time>2026-03-05T09:02:06Z</time>
      </trkpt>
      <trkpt lat="48.49273" lon="7.20786">
        <ele>558.3188</ele>
        <time>2026-03-05T09:02:10Z</time>
      </trkpt>
      <trkpt lat="48.49278" lon="7.20785">
        <ele>560.35315</ele>
        <time>2026-03-05T09:02:15Z</time>
      </trkpt>
      <trkpt lat="48.49282" lon="7.20782">
        <ele>562.3876</ele>
        <time>2026-03-05T09:02:20Z</time>
      </trkpt>
      <trkpt lat="48.49285" lon="7.20776">
        <ele>564.42194</ele>
        <time>2026-03-05T09:02:24Z</time>
      </trkpt>
      <trkpt lat="48.49287" lon="7.2077">
        <ele>566.45636</ele>
        <time>2026-03-05T09:02:28Z</time>
      </trkpt>
      <trkpt lat="48.49292" lon="7.20765">
        <ele>568.4907</ele>
        <time>2026-03-05T09:02:33Z</time>
      </trkpt>
      <trkpt lat="48.49295" lon="7.20759">
        <ele>568.4907</ele>
        <time>2026-03-05T09:02:39Z</time>
      </trkpt>
      <trkpt lat="48.49299" lon="7.20759">
        <ele>568.4907</ele>
        <time>2026-03-05T09:02:44Z</time>
      </trkpt>
      <trkpt lat="48.49303" lon="7.20757">
        <ele>568.4907</ele>
        <time>2026-03-05T09:02:49Z</time>
      </trkpt>
      <trkpt lat="48.49308" lon="7.20752">
        <ele>568.4907</ele>
        <time>2026-03-05T09:02:53Z</time>
      </trkpt>
      <trkpt lat="48.49313" lon="7.2075">
        <ele>568.4907</ele>
        <time>2026-03-05T09:02:59Z</time>
      </trkpt>
      <trkpt lat="48.49317" lon="7.20747">
        <ele>568.4907</ele>
        <time>2026-03-05T09:03:04Z</time>
      </trkpt>
      <trkpt lat="48.49321" lon="7.20744">
        <ele>568.4907</ele>
        <time>2026-03-05T09:03:09Z</time>
      </trkpt>
      <trkpt lat="48.49326" lon="7.20743">
        <ele>568.4907</ele>
        <time>2026-03-05T09:03:14Z</time>
      </trkpt>
      <trkpt lat="48.49332" lon="7.20741">
        <ele>568.4907</ele>
        <time>2026-03-05T09:03:19Z</time>
      </trkpt>
      <trkpt lat="48.49337" lon="7.20738">
        <ele>568.4907</ele>
        <time>2026-03-05T09:03:24Z</time>
      </trkpt>
      <trkpt lat="48.49342" lon="7.20735">
        <ele>568.4907</ele>
        <time>2026-03-05T09:03:30Z</time>
      </trkpt>
      <trkpt lat="48.49345" lon="7.20729">
        <ele>568.4907</ele>
        <time>2026-03-05T09:03:35Z</time>
      </trkpt>
      <trkpt lat="48.4935" lon="7.20726">
        <ele>568.4907</ele>
        <time>2026-03-05T09:03:39Z</time>
      </trkpt>
      <trkpt lat="48.49355" lon="7.20722">
        <ele>568.4907</ele>
        <time>2026-03-05T09:03:44Z</time>
      </trkpt>
      <trkpt lat="48.49359" lon="7.20719">
        <ele>568.4907</ele>
        <time>2026-03-05T09:03:49Z</time>
      </trkpt>
      <trkpt lat="48.49364" lon="7.20716">
        <ele>568.4907</ele>
        <time>2026-03-05T09:03:54Z</time>
      </trkpt>
      <trkpt lat="48.49369" lon="7.20714">
        <ele>568.4907</ele>
        <time>2026-03-05T09:04:00Z</time>
      </trkpt>
      <trkpt lat="48.49374" lon="7.20713">
        <ele>568.4907</ele>
        <time>2026-03-05T09:04:04Z</time>
      </trkpt>
      <trkpt lat="48.49379" lon="7.20712">
        <ele>568.4907</ele>
        <time>2026-03-05T09:04:11Z</time>
      </trkpt>
      <trkpt lat="48.49385" lon="7.20711">
        <ele>568.4907</ele>
        <time>2026-03-05T09:04:15Z</time>
      </trkpt>
      <trkpt lat="48.4939" lon="7.2071">
        <ele>568.4907</ele>
        <time>2026-03-05T09:04:21Z</time>
      </trkpt>
      <trkpt lat="48.49395" lon="7.20709">
        <ele>568.4907</ele>
        <time>2026-03-05T09:04:28Z</time>
      </trkpt>
      <trkpt lat="48.494" lon="7.20708">
        <ele>568.4907</ele>
        <time>2026-03-05T09:04:32Z</time>
      </trkpt>
      <trkpt lat="48.49406" lon="7.20708">
        <ele>568.4907</ele>
        <time>2026-03-05T09:04:36Z</time>
      </trkpt>
      <trkpt lat="48.4941" lon="7.20705">
        <ele>570.52814</ele>
        <time>2026-03-05T09:04:41Z</time>
      </trkpt>
      <trkpt lat="48.49415" lon="7.20705">
        <ele>572.5655</ele>
        <time>2026-03-05T09:04:46Z</time>
      </trkpt>
      <trkpt lat="48.4942" lon="7.20703">
        <ele>574.6029</ele>
        <time>2026-03-05T09:04:50Z</time>
      </trkpt>
      <trkpt lat="48.49425" lon="7.20703">
        <ele>576.64026</ele>
        <time>2026-03-05T09:04:54Z</time>
      </trkpt>
      <trkpt lat="48.4943" lon="7.20699">
        <ele>578.6777</ele>
        <time>2026-03-05T09:04:59Z</time>
      </trkpt>
      <trkpt lat="48.49434" lon="7.20696">
        <ele>578.6777</ele>
        <time>2026-03-05T09:05:03Z</time>
      </trkpt>
      <trkpt lat="48.49439" lon="7.2069">
        <ele>578.6777</ele>
        <time>2026-03-05T09:05:08Z</time>
      </trkpt>
      <trkpt lat="48.49443" lon="7.20688">
        <ele>578.6777</ele>
        <time>2026-03-05T09:05:14Z</time>
      </trkpt>
      <trkpt lat="48.49448" lon="7.20685">
        <ele>578.6777</ele>
        <time>2026-03-05T09:05:19Z</time>
      </trkpt>
      <trkpt lat="48.49452" lon="7.20682">
        <ele>578.6777</ele>
        <time>2026-03-05T09:05:23Z</time>
      </trkpt>
      <trkpt lat="48.49456" lon="7.20677">
        <ele>578.6777</ele>
        <time>2026-03-05T09:05:28Z</time>
      </trkpt>
      <trkpt lat="48.49461" lon="7.20674">
        <ele>578.6777</ele>
        <time>2026-03-05T09:05:33Z</time>
      </trkpt>
      <trkpt lat="48.49464" lon="7.2067">
        <ele>578.6777</ele>
        <time>2026-03-05T09:05:37Z</time>
      </trkpt>
      <trkpt lat="48.49469" lon="7.20666">
        <ele>578.6777</ele>
        <time>2026-03-05T09:05:42Z</time>
      </trkpt>
      <trkpt lat="48.49474" lon="7.20661">
        <ele>578.6777</ele>
        <time>2026-03-05T09:05:47Z</time>
      </trkpt>
      <trkpt lat="48.49478" lon="7.20656">
        <ele>578.6777</ele>
        <time>2026-03-05T09:05:52Z</time>
      </trkpt>
      <trkpt lat="48.49483" lon="7.20654">
        <ele>578.6777</ele>
        <time>2026-03-05T09:05:56Z</time>
      </trkpt>
      <trkpt lat="48.49489" lon="7.2065">
        <ele>578.6777</ele>
        <time>2026-03-05T09:06:02Z</time>
      </trkpt>
      <trkpt lat="48.49493" lon="7.20645">
        <ele>578.6777</ele>
        <time>2026-03-05T09:06:07Z</time>
      </trkpt>
      <trkpt lat="48.49498" lon="7.20641">
        <ele>578.6777</ele>
        <time>2026-03-05T09:06:12Z</time>
      </trkpt>
      <trkpt lat="48.49502" lon="7.20636">
        <ele>578.6777</ele>
        <time>2026-03-05T09:06:17Z</time>
      </trkpt>
      <trkpt lat="48.49506" lon="7.2063">
        <ele>578.6777</ele>
        <time>2026-03-05T09:06:23Z</time>
      </trkpt>
      <trkpt lat="48.49511" lon="7.20624">
        <ele>578.6777</ele>
        <time>2026-03-05T09:06:29Z</time>
      </trkpt>
      <trkpt lat="48.49516" lon="7.20618">
        <ele>578.6777</ele>
        <time>2026-03-05T09:06:35Z</time>
      </trkpt>
      <trkpt lat="48.4952" lon="7.20613">
        <ele>578.6777</ele>
        <time>2026-03-05T09:06:40Z</time>
      </trkpt>
      <trkpt lat="48.49523" lon="7.20608">
        <ele>578.6777</ele>
        <time>2026-03-05T09:06:44Z</time>
      </trkpt>
      <trkpt lat="48.49527" lon="7.20603">
        <ele>578.6777</ele>
        <time>2026-03-05T09:06:49Z</time>
      </trkpt>
      <trkpt lat="48.4953" lon="7.20599">
        <ele>578.6777</ele>
        <time>2026-03-05T09:06:54Z</time>
      </trkpt>
      <trkpt lat="48.49534" lon="7.20594">
        <ele>578.6777</ele>
        <time>2026-03-05T09:06:58Z</time>
      </trkpt>
      <trkpt lat="48.49538" lon="7.20589">
        <ele>578.6777</ele>
        <time>2026-03-05T09:07:03Z</time>
      </trkpt>
      <trkpt lat="48.49542" lon="7.20584">
        <ele>578.6777</ele>
        <time>2026-03-05T09:07:08Z</time>
      </trkpt>
      <trkpt lat="48.49546" lon="7.20578">
        <ele>578.6777</ele>
        <time>2026-03-05T09:07:13Z</time>
      </trkpt>
      <trkpt lat="48.49551" lon="7.20573">
        <ele>578.6777</ele>
        <time>2026-03-05T09:07:18Z</time>
      </trkpt>
      <trkpt lat="48.49555" lon="7.20569">
        <ele>578.6777</ele>
        <time>2026-03-05T09:07:23Z</time>
      </trkpt>
      <trkpt lat="48.4956" lon="7.20565">
        <ele>578.6777</ele>
        <time>2026-03-05T09:07:28Z</time>
      </trkpt>
      <trkpt lat="48.49565" lon="7.20561">
        <ele>578.6777</ele>
        <time>2026-03-05T09:07:35Z</time>
      </trkpt>
      <trkpt lat="48.49569" lon="7.20557">
        <ele>578.6777</ele>
        <time>2026-03-05T09:07:40Z</time>
      </trkpt>
      <trkpt lat="48.49574" lon="7.20555">
        <ele>578.6777</ele>
        <time>2026-03-05T09:07:45Z</time>
      </trkpt>
      <trkpt lat="48.49579" lon="7.20553">
        <ele>578.6777</ele>
        <time>2026-03-05T09:07:50Z</time>
      </trkpt>
      <trkpt lat="48.49584" lon="7.2055">
        <ele>578.6777</ele>
        <time>2026-03-05T09:07:55Z</time>
      </trkpt>
      <trkpt lat="48.49588" lon="7.20548">
        <ele>578.6777</ele>
        <time>2026-03-05T09:07:59Z</time>
      </trkpt>
      <trkpt lat="48.49593" lon="7.20548">
        <ele>578.6777</ele>
        <time>2026-03-05T09:08:05Z</time>
      </trkpt>
      <trkpt lat="48.49598" lon="7.20547">
        <ele>578.6777</ele>
        <time>2026-03-05T09:08:10Z</time>
      </trkpt>
      <trkpt lat="48.49604" lon="7.20546">
        <ele>578.6777</ele>
        <time>2026-03-05T09:08:16Z</time>
      </trkpt>
      <trkpt lat="48.49609" lon="7.20545">
        <ele>578.6777</ele>
        <time>2026-03-05T09:08:21Z</time>
      </trkpt>
      <trkpt lat="48.49615" lon="7.20544">
        <ele>578.6777</ele>
        <time>2026-03-05T09:08:26Z</time>
      </trkpt>
      <trkpt lat="48.4962" lon="7.20543">
        <ele>578.6777</ele>
        <time>2026-03-05T09:08:32Z</time>
      </trkpt>
      <trkpt lat="48.49625" lon="7.20542">
        <ele>578.6777</ele>
        <time>2026-03-05T09:08:36Z</time>
      </trkpt>
      <trkpt lat="48.49631" lon="7.20541">
        <ele>580.8245</ele>
        <time>2026-03-05T09:08:41Z</time>
      </trkpt>
      <trkpt lat="48.49635" lon="7.2054">
        <ele>582.9714</ele>
        <time>2026-03-05T09:08:45Z</time>
      </trkpt>
      <trkpt lat="48.4964" lon="7.20539">
        <ele>585.1183</ele>
        <time>2026-03-05T09:08:50Z</time>
      </trkpt>
      <trkpt lat="48.49646" lon="7.20538">
        <ele>587.26514</ele>
        <time>2026-03-05T09:08:55Z</time>
      </trkpt>
      <trkpt lat="48.4965" lon="7.20536">
        <ele>589.412</ele>
        <time>2026-03-05T09:08:59Z</time>
      </trkpt>
      <trkpt lat="48.49656" lon="7.20534">
        <ele>589.412</ele>
        <time>2026-03-05T09:09:04Z</time>
      </trkpt>
      <trkpt lat="48.4966" lon="7.20533">
        <ele>589.412</ele>
        <time>2026-03-05T09:09:09Z</time>
      </trkpt>
      <trkpt lat="48.49665" lon="7.2053">
        <ele>589.412</ele>
        <time>2026-03-05T09:09:14Z</time>
      </trkpt>
      <trkpt lat="48.4967" lon="7.20528">
        <ele>589.412</ele>
        <time>2026-03-05T09:09:19Z</time>
      </trkpt>
      <trkpt lat="48.49675" lon="7.20526">
        <ele>589.412</ele>
        <time>2026-03-05T09:09:23Z</time>
      </trkpt>
      <trkpt lat="48.4968" lon="7.20525">
        <ele>589.412</ele>
        <time>2026-03-05T09:09:28Z</time>
      </trkpt>
      <trkpt lat="48.49684" lon="7.2052">
        <ele>589.412</ele>
        <time>2026-03-05T09:09:33Z</time>
      </trkpt>
      <trkpt lat="48.49688" lon="7.20518">
        <ele>589.412</ele>
        <time>2026-03-05T09:09:37Z</time>
      </trkpt>
      <trkpt lat="48.49693" lon="7.20516">
        <ele>589.412</ele>
        <time>2026-03-05T09:09:42Z</time>
      </trkpt>
      <trkpt lat="48.49698" lon="7.20513">
        <ele>589.412</ele>
        <time>2026-03-05T09:09:47Z</time>
      </trkpt>
      <trkpt lat="48.49702" lon="7.20508">
        <ele>589.412</ele>
        <time>2026-03-05T09:09:52Z</time>
      </trkpt>
      <trkpt lat="48.49707" lon="7.20506">
        <ele>589.412</ele>
        <time>2026-03-05T09:09:57Z</time>
      </trkpt>
      <trkpt lat="48.49712" lon="7.20502">
        <ele>589.412</ele>
        <time>2026-03-05T09:10:02Z</time>
      </trkpt>
      <trkpt lat="48.49716" lon="7.205">
        <ele>589.412</ele>
        <time>2026-03-05T09:10:06Z</time>
      </trkpt>
      <trkpt lat="48.4972" lon="7.20495">
        <ele>589.412</ele>
        <time>2026-03-05T09:10:10Z</time>
      </trkpt>
      <trkpt lat="48.49725" lon="7.20492">
        <ele>589.412</ele>
        <time>2026-03-05T09:10:15Z</time>
      </trkpt>
      <trkpt lat="48.49729" lon="7.20489">
        <ele>589.412</ele>
        <time>2026-03-05T09:10:20Z</time>
      </trkpt>
      <trkpt lat="48.49734" lon="7.20486">
        <ele>589.412</ele>
        <time>2026-03-05T09:10:25Z</time>
      </trkpt>
      <trkpt lat="48.49738" lon="7.20483">
        <ele>589.412</ele>
        <time>2026-03-05T09:10:29Z</time>
      </trkpt>
      <trkpt lat="48.49743" lon="7.2048">
        <ele>589.412</ele>
        <time>2026-03-05T09:10:33Z</time>
      </trkpt>
      <trkpt lat="48.49747" lon="7.20476">
        <ele>589.412</ele>
        <time>2026-03-05T09:10:38Z</time>
      </trkpt>
      <trkpt lat="48.49752" lon="7.20473">
        <ele>589.412</ele>
        <time>2026-03-05T09:10:42Z</time>
      </trkpt>
      <trkpt lat="48.49757" lon="7.20471">
        <ele>589.412</ele>
        <time>2026-03-05T09:10:47Z</time>
      </trkpt>
      <trkpt lat="48.49762" lon="7.20469">
        <ele>589.412</ele>
        <time>2026-03-05T09:10:51Z</time>
      </trkpt>
      <trkpt lat="48.49767" lon="7.20467">
        <ele>589.412</ele>
        <time>2026-03-05T09:10:56Z</time>
      </trkpt>
      <trkpt lat="48.49772" lon="7.20466">
        <ele>589.412</ele>
        <time>2026-03-05T09:11:01Z</time>
      </trkpt>
      <trkpt lat="48.49777" lon="7.20465">
        <ele>589.412</ele>
        <time>2026-03-05T09:11:05Z</time>
      </trkpt>
      <trkpt lat="48.49782" lon="7.20462">
        <ele>589.412</ele>
        <time>2026-03-05T09:11:10Z</time>
      </trkpt>
      <trkpt lat="48.49787" lon="7.20461">
        <ele>589.412</ele>
        <time>2026-03-05T09:11:15Z</time>
      </trkpt>
      <trkpt lat="48.49792" lon="7.20459">
        <ele>589.412</ele>
        <time>2026-03-05T09:11:19Z</time>
      </trkpt>
      <trkpt lat="48.49797" lon="7.20459">
        <ele>589.412</ele>
        <time>2026-03-05T09:11:24Z</time>
      </trkpt>
      <trkpt lat="48.49802" lon="7.20456">
        <ele>589.412</ele>
        <time>2026-03-05T09:11:30Z</time>
      </trkpt>
      <trkpt lat="48.49808" lon="7.20455">
        <ele>589.412</ele>
        <time>2026-03-05T09:11:37Z</time>
      </trkpt>
      <trkpt lat="48.49813" lon="7.20453">
        <ele>589.412</ele>
        <time>2026-03-05T09:11:41Z</time>
      </trkpt>
      <trkpt lat="48.49817" lon="7.20453">
        <ele>589.412</ele>
        <time>2026-03-05T09:11:44Z</time>
      </trkpt>
      <trkpt lat="48.49822" lon="7.20452">
        <ele>589.412</ele>
        <time>2026-03-05T09:11:48Z</time>
      </trkpt>
      <trkpt lat="48.49828" lon="7.20451">
        <ele>589.412</ele>
        <time>2026-03-05T09:11:53Z</time>
      </trkpt>
      <trkpt lat="48.49834" lon="7.20449">
        <ele>589.412</ele>
        <time>2026-03-05T09:11:57Z</time>
      </trkpt>
      <trkpt lat="48.49838" lon="7.20448">
        <ele>589.412</ele>
        <time>2026-03-05T09:12:01Z</time>
      </trkpt>
      <trkpt lat="48.49843" lon="7.20445">
        <ele>589.412</ele>
        <time>2026-03-05T09:12:06Z</time>
      </trkpt>
      <trkpt lat="48.49847" lon="7.20443">
        <ele>589.412</ele>
        <time>2026-03-05T09:12:09Z</time>
      </trkpt>
      <trkpt lat="48.49852" lon="7.20441">
        <ele>589.412</ele>
        <time>2026-03-05T09:12:13Z</time>
      </trkpt>
      <trkpt lat="48.49855" lon="7.20437">
        <ele>589.412</ele>
        <time>2026-03-05T09:12:19Z</time>
      </trkpt>
      <trkpt lat="48.4986" lon="7.20434">
        <ele>589.412</ele>
        <time>2026-03-05T09:12:23Z</time>
      </trkpt>
      <trkpt lat="48.49865" lon="7.20431">
        <ele>589.412</ele>
        <time>2026-03-05T09:12:26Z</time>
      </trkpt>
      <trkpt lat="48.49869" lon="7.20428">
        <ele>589.412</ele>
        <time>2026-03-05T09:12:30Z</time>
      </trkpt>
      <trkpt lat="48.49873" lon="7.20424">
        <ele>591.75385</ele>
        <time>2026-03-05T09:12:34Z</time>
      </trkpt>
      <trkpt lat="48.49877" lon="7.20419">
        <ele>594.0957</ele>
        <time>2026-03-05T09:12:39Z</time>
      </trkpt>
      <trkpt lat="48.49881" lon="7.20414">
        <ele>596.4376</ele>
        <time>2026-03-05T09:12:43Z</time>
      </trkpt>
      <trkpt lat="48.49884" lon="7.20409">
        <ele>598.7795</ele>
        <time>2026-03-05T09:12:47Z</time>
      </trkpt>
      <trkpt lat="48.49886" lon="7.20402">
        <ele>601.12134</ele>
        <time>2026-03-05T09:12:52Z</time>
      </trkpt>
      <trkpt lat="48.49889" lon="7.20395">
        <ele>601.12134</ele>
        <time>2026-03-05T09:12:57Z</time>
      </trkpt>
      <trkpt lat="48.4989" lon="7.20389">
        <ele>601.12134</ele>
        <time>2026-03-05T09:13:01Z</time>
      </trkpt>
      <trkpt lat="48.49892" lon="7.20383">
        <ele>601.12134</ele>
        <time>2026-03-05T09:13:05Z</time>
      </trkpt>
      <trkpt lat="48.49894" lon="7.20376">
        <ele>601.12134</ele>
        <time>2026-03-05T09:13:09Z</time>
      </trkpt>
      <trkpt lat="48.49895" lon="7.20368">
        <ele>601.12134</ele>
        <time>2026-03-05T09:13:13Z</time>
      </trkpt>
      <trkpt lat="48.49896" lon="7.20361">
        <ele>601.12134</ele>
        <time>2026-03-05T09:13:19Z</time>
      </trkpt>
      <trkpt lat="48.49897" lon="7.20355">
        <ele>601.12134</ele>
        <time>2026-03-05T09:13:23Z</time>
      </trkpt>
      <trkpt lat="48.49899" lon="7.20348">
        <ele>601.12134</ele>
        <time>2026-03-05T09:13:27Z</time>
      </trkpt>
      <trkpt lat="48.49902" lon="7.20342">
        <ele>601.12134</ele>
        <time>2026-03-05T09:13:32Z</time>
      </trkpt>
      <trkpt lat="48.49903" lon="7.20335">
        <ele>601.12134</ele>
        <time>2026-03-05T09:13:36Z</time>
      </trkpt>
      <trkpt lat="48.49905" lon="7.20328">
        <ele>601.12134</ele>
        <time>2026-03-05T09:13:41Z</time>
      </trkpt>
      <trkpt lat="48.49907" lon="7.20322">
        <ele>601.12134</ele>
        <time>2026-03-05T09:13:45Z</time>
      </trkpt>
      <trkpt lat="48.49911" lon="7.20318">
        <ele>601.12134</ele>
        <time>2026-03-05T09:13:51Z</time>
      </trkpt>
      <trkpt lat="48.49916" lon="7.20314">
        <ele>601.12134</ele>
        <time>2026-03-05T09:13:55Z</time>
      </trkpt>
      <trkpt lat="48.49921" lon="7.20312">
        <ele>601.12134</ele>
        <time>2026-03-05T09:14:00Z</time>
      </trkpt>
      <trkpt lat="48.49925" lon="7.20307">
        <ele>601.12134</ele>
        <time>2026-03-05T09:14:05Z</time>
      </trkpt>
      <trkpt lat="48.49929" lon="7.20304">
        <ele>601.12134</ele>
        <time>2026-03-05T09:14:09Z</time>
      </trkpt>
      <trkpt lat="48.49933" lon="7.20298">
        <ele>601.12134</ele>
        <time>2026-03-05T09:14:14Z</time>
      </trkpt>
      <trkpt lat="48.49937" lon="7.20293">
        <ele>601.12134</ele>
        <time>2026-03-05T09:14:20Z</time>
      </trkpt>
      <trkpt lat="48.49939" lon="7.20286">
        <ele>601.12134</ele>
        <time>2026-03-05T09:14:25Z</time>
      </trkpt>
      <trkpt lat="48.49941" lon="7.20279">
        <ele>601.12134</ele>
        <time>2026-03-05T09:14:29Z</time>
      </trkpt>
      <trkpt lat="48.49941" lon="7.20271">
        <ele>601.12134</ele>
        <time>2026-03-05T09:14:33Z</time>
      </trkpt>
      <trkpt lat="48.49942" lon="7.20264">
        <ele>601.12134</ele>
        <time>2026-03-05T09:14:38Z</time>
      </trkpt>
      <trkpt lat="48.49945" lon="7.20257">
        <ele>601.12134</ele>
        <time>2026-03-05T09:14:43Z</time>
      </trkpt>
      <trkpt lat="48.49946" lon="7.20249">
        <ele>601.12134</ele>
        <time>2026-03-05T09:14:52Z</time>
      </trkpt>
      <trkpt lat="48.49948" lon="7.20242">
        <ele>601.12134</ele>
        <time>2026-03-05T09:14:58Z</time>
      </trkpt>
      <trkpt lat="48.49951" lon="7.20236">
        <ele>601.12134</ele>
        <time>2026-03-05T09:15:04Z</time>
      </trkpt>
      <trkpt lat="48.49952" lon="7.20243">
        <ele>601.12134</ele>
        <time>2026-03-05T09:15:22Z</time>
      </trkpt>
      <trkpt lat="48.49956" lon="7.20246">
        <ele>601.12134</ele>
        <time>2026-03-05T09:20:17Z</time>
      </trkpt>
      <trkpt lat="48.49952" lon="7.2025">
        <ele>601.12134</ele>
        <time>2026-03-05T09:21:08Z</time>
      </trkpt>
      <trkpt lat="48.49955" lon="7.20245">
        <ele>601.12134</ele>
        <time>2026-03-05T09:26:15Z</time>
      </trkpt>
      <trkpt lat="48.49951" lon="7.20243">
        <ele>601.12134</ele>
        <time>2026-03-05T09:30:47Z</time>
      </trkpt>
      <trkpt lat="48.49947" lon="7.20243">
        <ele>601.12134</ele>
        <time>2026-03-05T09:31:06Z</time>
      </trkpt>
      <trkpt lat="48.49947" lon="7.2025">
        <ele>601.12134</ele>
        <time>2026-03-05T09:33:03Z</time>
      </trkpt>
      <trkpt lat="48.49946" lon="7.20258">
        <ele>601.12134</ele>
        <time>2026-03-05T09:33:07Z</time>
      </trkpt>
      <trkpt lat="48.49943" lon="7.20265">
        <ele>601.12134</ele>
        <time>2026-03-05T09:33:12Z</time>
      </trkpt>
      <trkpt lat="48.49941" lon="7.20271">
        <ele>601.12134</ele>
        <time>2026-03-05T09:33:18Z</time>
      </trkpt>
      <trkpt lat="48.49938" lon="7.20278">
        <ele>601.12134</ele>
        <time>2026-03-05T09:33:27Z</time>
      </trkpt>
      <trkpt lat="48.49937" lon="7.20287">
        <ele>601.12134</ele>
        <time>2026-03-05T09:33:32Z</time>
      </trkpt>
      <trkpt lat="48.49935" lon="7.20294">
        <ele>601.12134</ele>
        <time>2026-03-05T09:33:37Z</time>
      </trkpt>
      <trkpt lat="48.49934" lon="7.20301">
        <ele>601.12134</ele>
        <time>2026-03-05T09:33:43Z</time>
      </trkpt>
      <trkpt lat="48.49931" lon="7.20306">
        <ele>601.12134</ele>
        <time>2026-03-05T09:33:47Z</time>
      </trkpt>
      <trkpt lat="48.49925" lon="7.2031">
        <ele>601.12134</ele>
        <time>2026-03-05T09:33:52Z</time>
      </trkpt>
      <trkpt lat="48.49922" lon="7.20315">
        <ele>601.12134</ele>
        <time>2026-03-05T09:33:56Z</time>
      </trkpt>
      <trkpt lat="48.49921" lon="7.20322">
        <ele>601.12134</ele>
        <time>2026-03-05T09:34:00Z</time>
      </trkpt>
      <trkpt lat="48.49923" lon="7.20329">
        <ele>601.12134</ele>
        <time>2026-03-05T09:34:04Z</time>
      </trkpt>
      <trkpt lat="48.49925" lon="7.20336">
        <ele>601.12134</ele>
        <time>2026-03-05T09:34:09Z</time>
      </trkpt>
      <trkpt lat="48.49928" lon="7.20342">
        <ele>601.12134</ele>
        <time>2026-03-05T09:34:13Z</time>
      </trkpt>
      <trkpt lat="48.4993" lon="7.20348">
        <ele>601.12134</ele>
        <time>2026-03-05T09:34:18Z</time>
      </trkpt>
      <trkpt lat="48.49932" lon="7.20355">
        <ele>601.12134</ele>
        <time>2026-03-05T09:34:23Z</time>
      </trkpt>
      <trkpt lat="48.49934" lon="7.20362">
        <ele>601.12134</ele>
        <time>2026-03-05T09:34:27Z</time>
      </trkpt>
      <trkpt lat="48.49936" lon="7.20369">
        <ele>601.12134</ele>
        <time>2026-03-05T09:34:32Z</time>
      </trkpt>
      <trkpt lat="48.49939" lon="7.20375">
        <ele>601.12134</ele>
        <time>2026-03-05T09:34:37Z</time>
      </trkpt>
      <trkpt lat="48.49941" lon="7.20383">
        <ele>601.12134</ele>
        <time>2026-03-05T09:34:42Z</time>
      </trkpt>
      <trkpt lat="48.49944" lon="7.20389">
        <ele>601.12134</ele>
        <time>2026-03-05T09:34:47Z</time>
      </trkpt>
      <trkpt lat="48.49946" lon="7.20395">
        <ele>601.12134</ele>
        <time>2026-03-05T09:34:51Z</time>
      </trkpt>
      <trkpt lat="48.49949" lon="7.20401">
        <ele>601.12134</ele>
        <time>2026-03-05T09:34:55Z</time>
      </trkpt>
      <trkpt lat="48.49951" lon="7.20407">
        <ele>601.12134</ele>
        <time>2026-03-05T09:34:59Z</time>
      </trkpt>
      <trkpt lat="48.49954" lon="7.20414">
        <ele>601.12134</ele>
        <time>2026-03-05T09:35:04Z</time>
      </trkpt>
      <trkpt lat="48.49957" lon="7.20419">
        <ele>601.12134</ele>
        <time>2026-03-05T09:35:08Z</time>
      </trkpt>
      <trkpt lat="48.4996" lon="7.20425">
        <ele>601.12134</ele>
        <time>2026-03-05T09:35:12Z</time>
      </trkpt>
      <trkpt lat="48.49962" lon="7.20433">
        <ele>601.12134</ele>
        <time>2026-03-05T09:35:18Z</time>
      </trkpt>
      <trkpt lat="48.49964" lon="7.2044">
        <ele>601.12134</ele>
        <time>2026-03-05T09:35:22Z</time>
      </trkpt>
      <trkpt lat="48.49967" lon="7.20447">
        <ele>601.12134</ele>
        <time>2026-03-05T09:35:27Z</time>
      </trkpt>
      <trkpt lat="48.4997" lon="7.20453">
        <ele>601.12134</ele>
        <time>2026-03-05T09:35:32Z</time>
      </trkpt>
      <trkpt lat="48.49972" lon="7.2046">
        <ele>601.12134</ele>
        <time>2026-03-05T09:35:36Z</time>
      </trkpt>
      <trkpt lat="48.49975" lon="7.20467">
        <ele>601.12134</ele>
        <time>2026-03-05T09:35:41Z</time>
      </trkpt>
      <trkpt lat="48.49977" lon="7.20475">
        <ele>601.12134</ele>
        <time>2026-03-05T09:35:46Z</time>
      </trkpt>
      <trkpt lat="48.49978" lon="7.20482">
        <ele>601.12134</ele>
        <time>2026-03-05T09:36:06Z</time>
      </trkpt>
      <trkpt lat="48.49978" lon="7.2049">
        <ele>601.12134</ele>
        <time>2026-03-05T09:36:13Z</time>
      </trkpt>
      <trkpt lat="48.49982" lon="7.20495">
        <ele>601.12134</ele>
        <time>2026-03-05T09:36:16Z</time>
      </trkpt>
      <trkpt lat="48.49983" lon="7.20502">
        <ele>601.12134</ele>
        <time>2026-03-05T09:36:20Z</time>
      </trkpt>
      <trkpt lat="48.49984" lon="7.2051">
        <ele>601.12134</ele>
        <time>2026-03-05T09:36:25Z</time>
      </trkpt>
      <trkpt lat="48.49986" lon="7.20518">
        <ele>601.12134</ele>
        <time>2026-03-05T09:36:30Z</time>
      </trkpt>
      <trkpt lat="48.49987" lon="7.20525">
        <ele>601.12134</ele>
        <time>2026-03-05T09:36:36Z</time>
      </trkpt>
      <trkpt lat="48.49989" lon="7.20532">
        <ele>601.12134</ele>
        <time>2026-03-05T09:36:40Z</time>
      </trkpt>
      <trkpt lat="48.4999" lon="7.20539">
        <ele>601.12134</ele>
        <time>2026-03-05T09:36:44Z</time>
      </trkpt>
      <trkpt lat="48.49991" lon="7.20546">
        <ele>601.12134</ele>
        <time>2026-03-05T09:36:49Z</time>
      </trkpt>
      <trkpt lat="48.49991" lon="7.20555">
        <ele>601.12134</ele>
        <time>2026-03-05T09:36:54Z</time>
      </trkpt>
      <trkpt lat="48.49991" lon="7.20564">
        <ele>601.12134</ele>
        <time>2026-03-05T09:36:59Z</time>
      </trkpt>
      <trkpt lat="48.49991" lon="7.20572">
        <ele>601.12134</ele>
        <time>2026-03-05T09:37:04Z</time>
      </trkpt>
      <trkpt lat="48.49992" lon="7.2058">
        <ele>601.12134</ele>
        <time>2026-03-05T09:37:09Z</time>
      </trkpt>
      <trkpt lat="48.49993" lon="7.20588">
        <ele>601.12134</ele>
        <time>2026-03-05T09:37:14Z</time>
      </trkpt>
      <trkpt lat="48.49994" lon="7.20595">
        <ele>601.12134</ele>
        <time>2026-03-05T09:37:19Z</time>
      </trkpt>
      <trkpt lat="48.49995" lon="7.20603">
        <ele>601.12134</ele>
        <time>2026-03-05T09:37:24Z</time>
      </trkpt>
      <trkpt lat="48.49995" lon="7.20611">
        <ele>601.12134</ele>
        <time>2026-03-05T09:37:28Z</time>
      </trkpt>
      <trkpt lat="48.49996" lon="7.20619">
        <ele>601.12134</ele>
        <time>2026-03-05T09:37:33Z</time>
      </trkpt>
      <trkpt lat="48.49996" lon="7.20628">
        <ele>601.12134</ele>
        <time>2026-03-05T09:37:38Z</time>
      </trkpt>
      <trkpt lat="48.49995" lon="7.20635">
        <ele>601.12134</ele>
        <time>2026-03-05T09:37:42Z</time>
      </trkpt>
      <trkpt lat="48.49995" lon="7.20643">
        <ele>601.12134</ele>
        <time>2026-03-05T09:37:47Z</time>
      </trkpt>
      <trkpt lat="48.49994" lon="7.20651">
        <ele>601.12134</ele>
        <time>2026-03-05T09:37:52Z</time>
      </trkpt>
      <trkpt lat="48.49993" lon="7.20658">
        <ele>601.12134</ele>
        <time>2026-03-05T09:37:57Z</time>
      </trkpt>
      <trkpt lat="48.49991" lon="7.20665">
        <ele>601.12134</ele>
        <time>2026-03-05T09:38:01Z</time>
      </trkpt>
      <trkpt lat="48.4999" lon="7.20673">
        <ele>601.12134</ele>
        <time>2026-03-05T09:38:06Z</time>
      </trkpt>
      <trkpt lat="48.49987" lon="7.2068">
        <ele>601.12134</ele>
        <time>2026-03-05T09:38:12Z</time>
      </trkpt>
      <trkpt lat="48.49986" lon="7.20686">
        <ele>601.12134</ele>
        <time>2026-03-05T09:38:17Z</time>
      </trkpt>
      <trkpt lat="48.49983" lon="7.20693">
        <ele>601.12134</ele>
        <time>2026-03-05T09:38:21Z</time>
      </trkpt>
      <trkpt lat="48.49981" lon="7.20699">
        <ele>601.12134</ele>
        <time>2026-03-05T09:38:26Z</time>
      </trkpt>
      <trkpt lat="48.49979" lon="7.20706">
        <ele>601.12134</ele>
        <time>2026-03-05T09:38:31Z</time>
      </trkpt>
      <trkpt lat="48.49976" lon="7.20713">
        <ele>601.12134</ele>
        <time>2026-03-05T09:38:35Z</time>
      </trkpt>
      <trkpt lat="48.49974" lon="7.20719">
        <ele>601.12134</ele>
        <time>2026-03-05T09:38:39Z</time>
      </trkpt>
      <trkpt lat="48.49971" lon="7.20725">
        <ele>601.12134</ele>
        <time>2026-03-05T09:38:43Z</time>
      </trkpt>
      <trkpt lat="48.49968" lon="7.20732">
        <ele>601.12134</ele>
        <time>2026-03-05T09:38:48Z</time>
      </trkpt>
      <trkpt lat="48.49965" lon="7.20737">
        <ele>601.12134</ele>
        <time>2026-03-05T09:38:52Z</time>
      </trkpt>
      <trkpt lat="48.49962" lon="7.20743">
        <ele>601.12134</ele>
        <time>2026-03-05T09:39:00Z</time>
      </trkpt>
      <trkpt lat="48.49959" lon="7.20748">
        <ele>601.12134</ele>
        <time>2026-03-05T09:39:04Z</time>
      </trkpt>
      <trkpt lat="48.49955" lon="7.20753">
        <ele>601.12134</ele>
        <time>2026-03-05T09:39:10Z</time>
      </trkpt>
      <trkpt lat="48.49952" lon="7.2076">
        <ele>601.12134</ele>
        <time>2026-03-05T09:39:13Z</time>
      </trkpt>
      <trkpt lat="48.49948" lon="7.20765">
        <ele>601.12134</ele>
        <time>2026-03-05T09:39:20Z</time>
      </trkpt>
      <trkpt lat="48.49945" lon="7.20772">
        <ele>601.12134</ele>
        <time>2026-03-05T09:39:26Z</time>
      </trkpt>
      <trkpt lat="48.49942" lon="7.20779">
        <ele>601.12134</ele>
        <time>2026-03-05T09:39:32Z</time>
      </trkpt>
      <trkpt lat="48.49938" lon="7.20786">
        <ele>601.12134</ele>
        <time>2026-03-05T09:39:43Z</time>
      </trkpt>
      <trkpt lat="48.49935" lon="7.20793">
        <ele>601.12134</ele>
        <time>2026-03-05T09:39:48Z</time>
      </trkpt>
      <trkpt lat="48.49932" lon="7.20801">
        <ele>601.12134</ele>
        <time>2026-03-05T09:39:53Z</time>
      </trkpt>
      <trkpt lat="48.49929" lon="7.20807">
        <ele>601.12134</ele>
        <time>2026-03-05T09:39:59Z</time>
      </trkpt>
      <trkpt lat="48.49926" lon="7.20814">
        <ele>601.12134</ele>
        <time>2026-03-05T09:40:04Z</time>
      </trkpt>
      <trkpt lat="48.49924" lon="7.2082">
        <ele>601.12134</ele>
        <time>2026-03-05T09:40:10Z</time>
      </trkpt>
      <trkpt lat="48.49921" lon="7.20825">
        <ele>601.12134</ele>
        <time>2026-03-05T09:40:14Z</time>
      </trkpt>
      <trkpt lat="48.49918" lon="7.20831">
        <ele>601.12134</ele>
        <time>2026-03-05T09:40:19Z</time>
      </trkpt>
      <trkpt lat="48.49916" lon="7.20838">
        <ele>601.12134</ele>
        <time>2026-03-05T09:40:23Z</time>
      </trkpt>
      <trkpt lat="48.49914" lon="7.20844">
        <ele>601.12134</ele>
        <time>2026-03-05T09:40:28Z</time>
      </trkpt>
      <trkpt lat="48.49912" lon="7.2085">
        <ele>601.12134</ele>
        <time>2026-03-05T09:40:33Z</time>
      </trkpt>
      <trkpt lat="48.4991" lon="7.20857">
        <ele>601.12134</ele>
        <time>2026-03-05T09:40:39Z</time>
      </trkpt>
      <trkpt lat="48.49908" lon="7.20865">
        <ele>601.12134</ele>
        <time>2026-03-05T09:40:44Z</time>
      </trkpt>
      <trkpt lat="48.49907" lon="7.20873">
        <ele>601.12134</ele>
        <time>2026-03-05T09:40:49Z</time>
      </trkpt>
      <trkpt lat="48.49906" lon="7.2088">
        <ele>601.12134</ele>
        <time>2026-03-05T09:40:54Z</time>
      </trkpt>
      <trkpt lat="48.49904" lon="7.20886">
        <ele>601.12134</ele>
        <time>2026-03-05T09:40:58Z</time>
      </trkpt>
      <trkpt lat="48.49903" lon="7.20894">
        <ele>601.12134</ele>
        <time>2026-03-05T09:41:04Z</time>
      </trkpt>
      <trkpt lat="48.49901" lon="7.209">
        <ele>601.12134</ele>
        <time>2026-03-05T09:41:09Z</time>
      </trkpt>
      <trkpt lat="48.49899" lon="7.20908">
        <ele>601.12134</ele>
        <time>2026-03-05T09:41:15Z</time>
      </trkpt>
      <trkpt lat="48.49897" lon="7.20914">
        <ele>601.12134</ele>
        <time>2026-03-05T09:41:19Z</time>
      </trkpt>
      <trkpt lat="48.49895" lon="7.2092">
        <ele>601.12134</ele>
        <time>2026-03-05T09:41:24Z</time>
      </trkpt>
      <trkpt lat="48.49893" lon="7.20928">
        <ele>601.12134</ele>
        <time>2026-03-05T09:41:29Z</time>
      </trkpt>
      <trkpt lat="48.49891" lon="7.20935">
        <ele>601.12134</ele>
        <time>2026-03-05T09:41:34Z</time>
      </trkpt>
      <trkpt lat="48.4989" lon="7.20941">
        <ele>601.12134</ele>
        <time>2026-03-05T09:41:39Z</time>
      </trkpt>
      <trkpt lat="48.49888" lon="7.20948">
        <ele>601.12134</ele>
        <time>2026-03-05T09:41:44Z</time>
      </trkpt>
      <trkpt lat="48.49886" lon="7.20956">
        <ele>601.12134</ele>
        <time>2026-03-05T09:41:50Z</time>
      </trkpt>
      <trkpt lat="48.49884" lon="7.20963">
        <ele>601.12134</ele>
        <time>2026-03-05T09:41:55Z</time>
      </trkpt>
      <trkpt lat="48.49883" lon="7.2097">
        <ele>601.12134</ele>
        <time>2026-03-05T09:41:58Z</time>
      </trkpt>
      <trkpt lat="48.49882" lon="7.20977">
        <ele>601.12134</ele>
        <time>2026-03-05T09:42:05Z</time>
      </trkpt>
      <trkpt lat="48.49881" lon="7.20985">
        <ele>601.12134</ele>
        <time>2026-03-05T09:42:10Z</time>
      </trkpt>
      <trkpt lat="48.4988" lon="7.20992">
        <ele>601.12134</ele>
        <time>2026-03-05T09:42:16Z</time>
      </trkpt>
      <trkpt lat="48.49879" lon="7.20999">
        <ele>601.12134</ele>
        <time>2026-03-05T09:42:22Z</time>
      </trkpt>
      <trkpt lat="48.49878" lon="7.21008">
        <ele>601.12134</ele>
        <time>2026-03-05T09:42:27Z</time>
      </trkpt>
      <trkpt lat="48.49877" lon="7.21015">
        <ele>601.12134</ele>
        <time>2026-03-05T09:42:32Z</time>
      </trkpt>
      <trkpt lat="48.49876" lon="7.21022">
        <ele>601.12134</ele>
        <time>2026-03-05T09:42:37Z</time>
      </trkpt>
      <trkpt lat="48.49875" lon="7.2103">
        <ele>598.6992</ele>
        <time>2026-03-05T09:42:44Z</time>
      </trkpt>
      <trkpt lat="48.49873" lon="7.21037">
        <ele>596.2771</ele>
        <time>2026-03-05T09:42:49Z</time>
      </trkpt>
      <trkpt lat="48.49872" lon="7.21044">
        <ele>593.85504</ele>
        <time>2026-03-05T09:42:54Z</time>
      </trkpt>
      <trkpt lat="48.49871" lon="7.21052">
        <ele>591.4329</ele>
        <time>2026-03-05T09:43:00Z</time>
      </trkpt>
      <trkpt lat="48.4987" lon="7.21059">
        <ele>589.0108</ele>
        <time>2026-03-05T09:43:05Z</time>
      </trkpt>
      <trkpt lat="48.49868" lon="7.21067">
        <ele>589.0108</ele>
        <time>2026-03-05T09:43:11Z</time>
      </trkpt>
      <trkpt lat="48.49868" lon="7.21074">
        <ele>589.0108</ele>
        <time>2026-03-05T09:43:16Z</time>
      </trkpt>
      <trkpt lat="48.49867" lon="7.21081">
        <ele>589.0108</ele>
        <time>2026-03-05T09:43:21Z</time>
      </trkpt>
      <trkpt lat="48.49867" lon="7.21089">
        <ele>589.0108</ele>
        <time>2026-03-05T09:43:26Z</time>
      </trkpt>
      <trkpt lat="48.49867" lon="7.21096">
        <ele>589.0108</ele>
        <time>2026-03-05T09:43:31Z</time>
      </trkpt>
      <trkpt lat="48.49867" lon="7.21103">
        <ele>589.0108</ele>
        <time>2026-03-05T09:43:36Z</time>
      </trkpt>
      <trkpt lat="48.49867" lon="7.21111">
        <ele>589.0108</ele>
        <time>2026-03-05T09:43:41Z</time>
      </trkpt>
      <trkpt lat="48.49867" lon="7.21118">
        <ele>589.0108</ele>
        <time>2026-03-05T09:43:45Z</time>
      </trkpt>
      <trkpt lat="48.49866" lon="7.21126">
        <ele>589.0108</ele>
        <time>2026-03-05T09:43:50Z</time>
      </trkpt>
      <trkpt lat="48.49866" lon="7.21133">
        <ele>589.0108</ele>
        <time>2026-03-05T09:43:55Z</time>
      </trkpt>
      <trkpt lat="48.49867" lon="7.2114">
        <ele>589.0108</ele>
        <time>2026-03-05T09:44:00Z</time>
      </trkpt>
      <trkpt lat="48.49866" lon="7.21148">
        <ele>589.0108</ele>
        <time>2026-03-05T09:44:06Z</time>
      </trkpt>
      <trkpt lat="48.49866" lon="7.21156">
        <ele>589.0108</ele>
        <time>2026-03-05T09:44:11Z</time>
      </trkpt>
      <trkpt lat="48.49866" lon="7.21163">
        <ele>589.0108</ele>
        <time>2026-03-05T09:44:16Z</time>
      </trkpt>
      <trkpt lat="48.49865" lon="7.21171">
        <ele>589.0108</ele>
        <time>2026-03-05T09:44:20Z</time>
      </trkpt>
      <trkpt lat="48.49865" lon="7.21179">
        <ele>589.0108</ele>
        <time>2026-03-05T09:44:25Z</time>
      </trkpt>
      <trkpt lat="48.49864" lon="7.21186">
        <ele>589.0108</ele>
        <time>2026-03-05T09:44:31Z</time>
      </trkpt>
      <trkpt lat="48.49863" lon="7.21195">
        <ele>589.0108</ele>
        <time>2026-03-05T09:44:37Z</time>
      </trkpt>
      <trkpt lat="48.49863" lon="7.21202">
        <ele>589.0108</ele>
        <time>2026-03-05T09:44:42Z</time>
      </trkpt>
      <trkpt lat="48.49862" lon="7.21209">
        <ele>589.0108</ele>
        <time>2026-03-05T09:44:47Z</time>
      </trkpt>
      <trkpt lat="48.4986" lon="7.21218">
        <ele>589.0108</ele>
        <time>2026-03-05T09:44:52Z</time>
      </trkpt>
      <trkpt lat="48.49858" lon="7.21225">
        <ele>589.0108</ele>
        <time>2026-03-05T09:44:58Z</time>
      </trkpt>
      <trkpt lat="48.49858" lon="7.21232">
        <ele>589.0108</ele>
        <time>2026-03-05T09:45:03Z</time>
      </trkpt>
      <trkpt lat="48.49856" lon="7.2124">
        <ele>589.0108</ele>
        <time>2026-03-05T09:45:09Z</time>
      </trkpt>
      <trkpt lat="48.49854" lon="7.21249">
        <ele>589.0108</ele>
        <time>2026-03-05T09:45:15Z</time>
      </trkpt>
      <trkpt lat="48.49852" lon="7.21257">
        <ele>589.0108</ele>
        <time>2026-03-05T09:45:22Z</time>
      </trkpt>
      <trkpt lat="48.49851" lon="7.21264">
        <ele>589.0108</ele>
        <time>2026-03-05T09:45:26Z</time>
      </trkpt>
      <trkpt lat="48.4985" lon="7.21272">
        <ele>589.0108</ele>
        <time>2026-03-05T09:45:33Z</time>
      </trkpt>
      <trkpt lat="48.49849" lon="7.2128">
        <ele>589.0108</ele>
        <time>2026-03-05T09:45:38Z</time>
      </trkpt>
      <trkpt lat="48.49848" lon="7.21289">
        <ele>589.0108</ele>
        <time>2026-03-05T09:45:45Z</time>
      </trkpt>
      <trkpt lat="48.49848" lon="7.21297">
        <ele>589.0108</ele>
        <time>2026-03-05T09:45:51Z</time>
      </trkpt>
      <trkpt lat="48.49849" lon="7.21304">
        <ele>589.0108</ele>
        <time>2026-03-05T09:45:55Z</time>
      </trkpt>
      <trkpt lat="48.49849" lon="7.21311">
        <ele>589.0108</ele>
        <time>2026-03-05T09:45:59Z</time>
      </trkpt>
      <trkpt lat="48.49851" lon="7.2132">
        <ele>589.0108</ele>
        <time>2026-03-05T09:46:03Z</time>
      </trkpt>
      <trkpt lat="48.49854" lon="7.21326">
        <ele>589.0108</ele>
        <time>2026-03-05T09:46:08Z</time>
      </trkpt>
      <trkpt lat="48.49857" lon="7.21333">
        <ele>589.0108</ele>
        <time>2026-03-05T09:46:12Z</time>
      </trkpt>
      <trkpt lat="48.4986" lon="7.2134">
        <ele>589.0108</ele>
        <time>2026-03-05T09:46:18Z</time>
      </trkpt>
      <trkpt lat="48.49865" lon="7.21347">
        <ele>589.0108</ele>
        <time>2026-03-05T09:46:25Z</time>
      </trkpt>
      <trkpt lat="48.49868" lon="7.21353">
        <ele>586.7751</ele>
        <time>2026-03-05T09:46:31Z</time>
      </trkpt>
      <trkpt lat="48.49871" lon="7.21358">
        <ele>584.53937</ele>
        <time>2026-03-05T09:46:34Z</time>
      </trkpt>
      <trkpt lat="48.49873" lon="7.21364">
        <ele>582.30365</ele>
        <time>2026-03-05T09:46:40Z</time>
      </trkpt>
      <trkpt lat="48.49875" lon="7.21371">
        <ele>580.06793</ele>
        <time>2026-03-05T09:46:45Z</time>
      </trkpt>
      <trkpt lat="48.49871" lon="7.21378">
        <ele>577.8322</ele>
        <time>2026-03-05T09:46:50Z</time>
      </trkpt>
      <trkpt lat="48.49868" lon="7.21383">
        <ele>577.8322</ele>
        <time>2026-03-05T09:46:54Z</time>
      </trkpt>
      <trkpt lat="48.49862" lon="7.21386">
        <ele>577.8322</ele>
        <time>2026-03-05T09:47:00Z</time>
      </trkpt>
      <trkpt lat="48.49857" lon="7.21388">
        <ele>577.8322</ele>
        <time>2026-03-05T09:47:05Z</time>
      </trkpt>
      <trkpt lat="48.49852" lon="7.21388">
        <ele>577.8322</ele>
        <time>2026-03-05T09:47:12Z</time>
      </trkpt>
      <trkpt lat="48.49847" lon="7.21385">
        <ele>577.8322</ele>
        <time>2026-03-05T09:47:15Z</time>
      </trkpt>
      <trkpt lat="48.49843" lon="7.21381">
        <ele>577.8322</ele>
        <time>2026-03-05T09:47:18Z</time>
      </trkpt>
      <trkpt lat="48.49838" lon="7.21378">
        <ele>577.8322</ele>
        <time>2026-03-05T09:47:28Z</time>
      </trkpt>
      <trkpt lat="48.49833" lon="7.21374">
        <ele>577.8322</ele>
        <time>2026-03-05T09:47:32Z</time>
      </trkpt>
      <trkpt lat="48.49829" lon="7.21372">
        <ele>577.8322</ele>
        <time>2026-03-05T09:47:37Z</time>
      </trkpt>
      <trkpt lat="48.49824" lon="7.21369">
        <ele>577.8322</ele>
        <time>2026-03-05T09:47:41Z</time>
      </trkpt>
      <trkpt lat="48.49819" lon="7.21367">
        <ele>577.8322</ele>
        <time>2026-03-05T09:47:46Z</time>
      </trkpt>
      <trkpt lat="48.49814" lon="7.21365">
        <ele>577.8322</ele>
        <time>2026-03-05T09:47:50Z</time>
      </trkpt>
      <trkpt lat="48.49809" lon="7.21364">
        <ele>577.8322</ele>
        <time>2026-03-05T09:47:55Z</time>
      </trkpt>
      <trkpt lat="48.49804" lon="7.21362">
        <ele>577.8322</ele>
        <time>2026-03-05T09:48:01Z</time>
      </trkpt>
      <trkpt lat="48.49799" lon="7.2136">
        <ele>577.8322</ele>
        <time>2026-03-05T09:48:07Z</time>
      </trkpt>
      <trkpt lat="48.49795" lon="7.21357">
        <ele>577.8322</ele>
        <time>2026-03-05T09:48:11Z</time>
      </trkpt>
      <trkpt lat="48.49789" lon="7.21354">
        <ele>577.8322</ele>
        <time>2026-03-05T09:48:17Z</time>
      </trkpt>
      <trkpt lat="48.49783" lon="7.2135">
        <ele>577.8322</ele>
        <time>2026-03-05T09:48:23Z</time>
      </trkpt>
      <trkpt lat="48.49778" lon="7.21346">
        <ele>577.8322</ele>
        <time>2026-03-05T09:48:29Z</time>
      </trkpt>
      <trkpt lat="48.49773" lon="7.21341">
        <ele>577.8322</ele>
        <time>2026-03-05T09:48:35Z</time>
      </trkpt>
      <trkpt lat="48.49769" lon="7.21337">
        <ele>577.8322</ele>
        <time>2026-03-05T09:48:40Z</time>
      </trkpt>
      <trkpt lat="48.49764" lon="7.21331">
        <ele>577.8322</ele>
        <time>2026-03-05T09:48:45Z</time>
      </trkpt>
      <trkpt lat="48.4976" lon="7.21326">
        <ele>577.8322</ele>
        <time>2026-03-05T09:48:50Z</time>
      </trkpt>
      <trkpt lat="48.49757" lon="7.2132">
        <ele>577.8322</ele>
        <time>2026-03-05T09:48:56Z</time>
      </trkpt>
      <trkpt lat="48.49754" lon="7.21315">
        <ele>577.8322</ele>
        <time>2026-03-05T09:49:02Z</time>
      </trkpt>
      <trkpt lat="48.4975" lon="7.21309">
        <ele>577.8322</ele>
        <time>2026-03-05T09:49:10Z</time>
      </trkpt>
      <trkpt lat="48.49748" lon="7.21303">
        <ele>577.8322</ele>
        <time>2026-03-05T09:49:16Z</time>
      </trkpt>
      <trkpt lat="48.49745" lon="7.21297">
        <ele>577.8322</ele>
        <time>2026-03-05T09:49:20Z</time>
      </trkpt>
      <trkpt lat="48.49743" lon="7.21291">
        <ele>577.8322</ele>
        <time>2026-03-05T09:49:25Z</time>
      </trkpt>
      <trkpt lat="48.49741" lon="7.21285">
        <ele>577.8322</ele>
        <time>2026-03-05T09:49:31Z</time>
      </trkpt>
      <trkpt lat="48.49739" lon="7.21277">
        <ele>577.8322</ele>
        <time>2026-03-05T09:49:36Z</time>
      </trkpt>
      <trkpt lat="48.49736" lon="7.21269">
        <ele>577.8322</ele>
        <time>2026-03-05T09:49:40Z</time>
      </trkpt>
      <trkpt lat="48.49731" lon="7.21262">
        <ele>577.8322</ele>
        <time>2026-03-05T09:49:44Z</time>
      </trkpt>
      <trkpt lat="48.49727" lon="7.21258">
        <ele>577.8322</ele>
        <time>2026-03-05T09:49:47Z</time>
      </trkpt>
      <trkpt lat="48.49722" lon="7.21257">
        <ele>577.8322</ele>
        <time>2026-03-05T09:49:53Z</time>
      </trkpt>
      <trkpt lat="48.49717" lon="7.21256">
        <ele>575.82794</ele>
        <time>2026-03-05T09:49:59Z</time>
      </trkpt>
      <trkpt lat="48.49712" lon="7.21255">
        <ele>573.82367</ele>
        <time>2026-03-05T09:50:03Z</time>
      </trkpt>
      <trkpt lat="48.49707" lon="7.21256">
        <ele>571.81934</ele>
        <time>2026-03-05T09:50:08Z</time>
      </trkpt>
      <trkpt lat="48.49702" lon="7.21258">
        <ele>569.81506</ele>
        <time>2026-03-05T09:50:14Z</time>
      </trkpt>
      <trkpt lat="48.49697" lon="7.21262">
        <ele>567.8108</ele>
        <time>2026-03-05T09:50:19Z</time>
      </trkpt>
      <trkpt lat="48.49693" lon="7.21266">
        <ele>567.8108</ele>
        <time>2026-03-05T09:50:24Z</time>
      </trkpt>
      <trkpt lat="48.49689" lon="7.2127">
        <ele>567.8108</ele>
        <time>2026-03-05T09:50:29Z</time>
      </trkpt>
      <trkpt lat="48.49686" lon="7.21276">
        <ele>567.8108</ele>
        <time>2026-03-05T09:50:34Z</time>
      </trkpt>
      <trkpt lat="48.49683" lon="7.21281">
        <ele>567.8108</ele>
        <time>2026-03-05T09:50:37Z</time>
      </trkpt>
      <trkpt lat="48.49679" lon="7.21289">
        <ele>567.8108</ele>
        <time>2026-03-05T09:50:43Z</time>
      </trkpt>
      <trkpt lat="48.49677" lon="7.21296">
        <ele>567.8108</ele>
        <time>2026-03-05T09:50:48Z</time>
      </trkpt>
      <trkpt lat="48.49674" lon="7.21304">
        <ele>567.8108</ele>
        <time>2026-03-05T09:50:58Z</time>
      </trkpt>
      <trkpt lat="48.49672" lon="7.21311">
        <ele>567.8108</ele>
        <time>2026-03-05T09:51:02Z</time>
      </trkpt>
      <trkpt lat="48.49671" lon="7.21319">
        <ele>567.8108</ele>
        <time>2026-03-05T09:51:09Z</time>
      </trkpt>
      <trkpt lat="48.49669" lon="7.21325">
        <ele>567.8108</ele>
        <time>2026-03-05T09:51:13Z</time>
      </trkpt>
      <trkpt lat="48.49668" lon="7.21333">
        <ele>567.8108</ele>
        <time>2026-03-05T09:51:20Z</time>
      </trkpt>
      <trkpt lat="48.49667" lon="7.2134">
        <ele>567.8108</ele>
        <time>2026-03-05T09:51:25Z</time>
      </trkpt>
      <trkpt lat="48.49667" lon="7.21348">
        <ele>567.8108</ele>
        <time>2026-03-05T09:51:31Z</time>
      </trkpt>
      <trkpt lat="48.49667" lon="7.21355">
        <ele>567.8108</ele>
        <time>2026-03-05T09:51:37Z</time>
      </trkpt>
      <trkpt lat="48.49667" lon="7.21363">
        <ele>567.8108</ele>
        <time>2026-03-05T09:51:42Z</time>
      </trkpt>
      <trkpt lat="48.49667" lon="7.21372">
        <ele>567.8108</ele>
        <time>2026-03-05T09:51:48Z</time>
      </trkpt>
      <trkpt lat="48.49667" lon="7.21379">
        <ele>567.8108</ele>
        <time>2026-03-05T09:51:54Z</time>
      </trkpt>
      <trkpt lat="48.49667" lon="7.21386">
        <ele>567.8108</ele>
        <time>2026-03-05T09:51:59Z</time>
      </trkpt>
      <trkpt lat="48.49669" lon="7.21394">
        <ele>565.7078</ele>
        <time>2026-03-05T09:52:04Z</time>
      </trkpt>
      <trkpt lat="48.4967" lon="7.21401">
        <ele>563.6048</ele>
        <time>2026-03-05T09:52:10Z</time>
      </trkpt>
      <trkpt lat="48.4967" lon="7.21409">
        <ele>561.50183</ele>
        <time>2026-03-05T09:52:15Z</time>
      </trkpt>
      <trkpt lat="48.49671" lon="7.21417">
        <ele>559.3988</ele>
        <time>2026-03-05T09:52:20Z</time>
      </trkpt>
      <trkpt lat="48.49672" lon="7.21425">
        <ele>557.29584</ele>
        <time>2026-03-05T09:52:27Z</time>
      </trkpt>
      <trkpt lat="48.49673" lon="7.21432">
        <ele>557.29584</ele>
        <time>2026-03-05T09:52:32Z</time>
      </trkpt>
      <trkpt lat="48.49675" lon="7.21439">
        <ele>557.29584</ele>
        <time>2026-03-05T09:52:37Z</time>
      </trkpt>
      <trkpt lat="48.49678" lon="7.21448">
        <ele>557.29584</ele>
        <time>2026-03-05T09:52:41Z</time>
      </trkpt>
      <trkpt lat="48.4968" lon="7.21454">
        <ele>557.29584</ele>
        <time>2026-03-05T09:52:48Z</time>
      </trkpt>
      <trkpt lat="48.49682" lon="7.21461">
        <ele>557.29584</ele>
        <time>2026-03-05T09:52:53Z</time>
      </trkpt>
      <trkpt lat="48.49683" lon="7.21468">
        <ele>557.29584</ele>
        <time>2026-03-05T09:52:58Z</time>
      </trkpt>
      <trkpt lat="48.49683" lon="7.21475">
        <ele>557.29584</ele>
        <time>2026-03-05T09:53:02Z</time>
      </trkpt>
      <trkpt lat="48.49684" lon="7.21483">
        <ele>557.29584</ele>
        <time>2026-03-05T09:53:08Z</time>
      </trkpt>
      <trkpt lat="48.49685" lon="7.21489">
        <ele>557.29584</ele>
        <time>2026-03-05T09:53:12Z</time>
      </trkpt>
      <trkpt lat="48.49686" lon="7.21497">
        <ele>557.29584</ele>
        <time>2026-03-05T09:53:17Z</time>
      </trkpt>
      <trkpt lat="48.49686" lon="7.21505">
        <ele>557.29584</ele>
        <time>2026-03-05T09:53:22Z</time>
      </trkpt>
      <trkpt lat="48.49686" lon="7.21513">
        <ele>557.29584</ele>
        <time>2026-03-05T09:53:28Z</time>
      </trkpt>
      <trkpt lat="48.49688" lon="7.2152">
        <ele>557.29584</ele>
        <time>2026-03-05T09:53:35Z</time>
      </trkpt>
      <trkpt lat="48.49689" lon="7.21527">
        <ele>557.29584</ele>
        <time>2026-03-05T09:53:40Z</time>
      </trkpt>
      <trkpt lat="48.4969" lon="7.21536">
        <ele>557.29584</ele>
        <time>2026-03-05T09:53:47Z</time>
      </trkpt>
      <trkpt lat="48.49691" lon="7.21543">
        <ele>557.29584</ele>
        <time>2026-03-05T09:53:54Z</time>
      </trkpt>
      <trkpt lat="48.49692" lon="7.2155">
        <ele>557.29584</ele>
        <time>2026-03-05T09:53:59Z</time>
      </trkpt>
      <trkpt lat="48.49693" lon="7.21557">
        <ele>557.29584</ele>
        <time>2026-03-05T09:54:04Z</time>
      </trkpt>
      <trkpt lat="48.49694" lon="7.21564">
        <ele>557.29584</ele>
        <time>2026-03-05T09:54:09Z</time>
      </trkpt>
      <trkpt lat="48.49696" lon="7.21571">
        <ele>555.2396</ele>
        <time>2026-03-05T09:54:14Z</time>
      </trkpt>
      <trkpt lat="48.49697" lon="7.21578">
        <ele>553.18335</ele>
        <time>2026-03-05T09:54:19Z</time>
      </trkpt>
      <trkpt lat="48.49699" lon="7.21588">
        <ele>551.12714</ele>
        <time>2026-03-05T09:54:25Z</time>
      </trkpt>
      <trkpt lat="48.49701" lon="7.21597">
        <ele>549.07086</ele>
        <time>2026-03-05T09:54:33Z</time>
      </trkpt>
      <trkpt lat="48.49702" lon="7.21603">
        <ele>547.01465</ele>
        <time>2026-03-05T09:54:38Z</time>
      </trkpt>
      <trkpt lat="48.49703" lon="7.21611">
        <ele>547.01465</ele>
        <time>2026-03-05T09:54:44Z</time>
      </trkpt>
      <trkpt lat="48.49705" lon="7.21619">
        <ele>547.01465</ele>
        <time>2026-03-05T09:54:50Z</time>
      </trkpt>
      <trkpt lat="48.49706" lon="7.21626">
        <ele>547.01465</ele>
        <time>2026-03-05T09:54:56Z</time>
      </trkpt>
      <trkpt lat="48.49708" lon="7.21633">
        <ele>547.01465</ele>
        <time>2026-03-05T09:55:01Z</time>
      </trkpt>
      <trkpt lat="48.49709" lon="7.2164">
        <ele>547.01465</ele>
        <time>2026-03-05T09:55:04Z</time>
      </trkpt>
      <trkpt lat="48.49711" lon="7.21647">
        <ele>547.01465</ele>
        <time>2026-03-05T09:55:08Z</time>
      </trkpt>
      <trkpt lat="48.49712" lon="7.21654">
        <ele>547.01465</ele>
        <time>2026-03-05T09:55:14Z</time>
      </trkpt>
      <trkpt lat="48.49713" lon="7.21661">
        <ele>547.01465</ele>
        <time>2026-03-05T09:55:18Z</time>
      </trkpt>
      <trkpt lat="48.49715" lon="7.21669">
        <ele>547.01465</ele>
        <time>2026-03-05T09:55:24Z</time>
      </trkpt>
      <trkpt lat="48.49716" lon="7.21676">
        <ele>547.01465</ele>
        <time>2026-03-05T09:55:30Z</time>
      </trkpt>
      <trkpt lat="48.49717" lon="7.21683">
        <ele>547.01465</ele>
        <time>2026-03-05T09:55:35Z</time>
      </trkpt>
      <trkpt lat="48.49719" lon="7.2169">
        <ele>544.6663</ele>
        <time>2026-03-05T09:55:43Z</time>
      </trkpt>
      <trkpt lat="48.4972" lon="7.21697">
        <ele>542.318</ele>
        <time>2026-03-05T09:55:47Z</time>
      </trkpt>
      <trkpt lat="48.49721" lon="7.21704">
        <ele>539.96967</ele>
        <time>2026-03-05T09:55:53Z</time>
      </trkpt>
      <trkpt lat="48.49723" lon="7.21712">
        <ele>537.62134</ele>
        <time>2026-03-05T09:55:57Z</time>
      </trkpt>
      <trkpt lat="48.49723" lon="7.21721">
        <ele>535.273</ele>
        <time>2026-03-05T09:56:04Z</time>
      </trkpt>
      <trkpt lat="48.49724" lon="7.21728">
        <ele>535.273</ele>
        <time>2026-03-05T09:56:09Z</time>
      </trkpt>
      <trkpt lat="48.49724" lon="7.21735">
        <ele>535.273</ele>
        <time>2026-03-05T09:56:14Z</time>
      </trkpt>
      <trkpt lat="48.49724" lon="7.21742">
        <ele>535.273</ele>
        <time>2026-03-05T09:56:20Z</time>
      </trkpt>
      <trkpt lat="48.49723" lon="7.21749">
        <ele>535.273</ele>
        <time>2026-03-05T09:56:25Z</time>
      </trkpt>
      <trkpt lat="48.49723" lon="7.21758">
        <ele>535.273</ele>
        <time>2026-03-05T09:56:31Z</time>
      </trkpt>
      <trkpt lat="48.49721" lon="7.21765">
        <ele>535.273</ele>
        <time>2026-03-05T09:56:36Z</time>
      </trkpt>
      <trkpt lat="48.4972" lon="7.21772">
        <ele>535.273</ele>
        <time>2026-03-05T09:56:39Z</time>
      </trkpt>
      <trkpt lat="48.4972" lon="7.2178">
        <ele>535.273</ele>
        <time>2026-03-05T09:56:46Z</time>
      </trkpt>
      <trkpt lat="48.49719" lon="7.21788">
        <ele>535.273</ele>
        <time>2026-03-05T09:56:53Z</time>
      </trkpt>
      <trkpt lat="48.49717" lon="7.21795">
        <ele>535.273</ele>
        <time>2026-03-05T09:56:57Z</time>
      </trkpt>
      <trkpt lat="48.49716" lon="7.21802">
        <ele>535.273</ele>
        <time>2026-03-05T09:57:01Z</time>
      </trkpt>
      <trkpt lat="48.49714" lon="7.21809">
        <ele>535.273</ele>
        <time>2026-03-05T09:57:08Z</time>
      </trkpt>
      <trkpt lat="48.49713" lon="7.21816">
        <ele>535.273</ele>
        <time>2026-03-05T09:57:13Z</time>
      </trkpt>
      <trkpt lat="48.49711" lon="7.21824">
        <ele>535.273</ele>
        <time>2026-03-05T09:57:17Z</time>
      </trkpt>
      <trkpt lat="48.49709" lon="7.21832">
        <ele>535.273</ele>
        <time>2026-03-05T09:57:21Z</time>
      </trkpt>
      <trkpt lat="48.49708" lon="7.21838">
        <ele>535.273</ele>
        <time>2026-03-05T09:57:26Z</time>
      </trkpt>
      <trkpt lat="48.49706" lon="7.21846">
        <ele>535.273</ele>
        <time>2026-03-05T09:57:34Z</time>
      </trkpt>
      <trkpt lat="48.49705" lon="7.21853">
        <ele>535.273</ele>
        <time>2026-03-05T09:57:41Z</time>
      </trkpt>
      <trkpt lat="48.49703" lon="7.21861">
        <ele>535.273</ele>
        <time>2026-03-05T09:57:45Z</time>
      </trkpt>
      <trkpt lat="48.49702" lon="7.21869">
        <ele>535.273</ele>
        <time>2026-03-05T09:57:48Z</time>
      </trkpt>
      <trkpt lat="48.497" lon="7.21876">
        <ele>535.273</ele>
        <time>2026-03-05T09:57:55Z</time>
      </trkpt>
      <trkpt lat="48.49699" lon="7.21884">
        <ele>532.8567</ele>
        <time>2026-03-05T09:58:04Z</time>
      </trkpt>
      <trkpt lat="48.49698" lon="7.21892">
        <ele>530.44037</ele>
        <time>2026-03-05T09:58:08Z</time>
      </trkpt>
      <trkpt lat="48.49696" lon="7.21899">
        <ele>528.0241</ele>
        <time>2026-03-05T09:58:12Z</time>
      </trkpt>
      <trkpt lat="48.49694" lon="7.21906">
        <ele>525.6078</ele>
        <time>2026-03-05T09:58:18Z</time>
      </trkpt>
      <trkpt lat="48.49693" lon="7.21913">
        <ele>523.19147</ele>
        <time>2026-03-05T09:58:22Z</time>
      </trkpt>
      <trkpt lat="48.49691" lon="7.2192">
        <ele>523.19147</ele>
        <time>2026-03-05T09:58:29Z</time>
      </trkpt>
      <trkpt lat="48.49688" lon="7.21926">
        <ele>523.19147</ele>
        <time>2026-03-05T09:58:34Z</time>
      </trkpt>
      <trkpt lat="48.49686" lon="7.21936">
        <ele>523.19147</ele>
        <time>2026-03-05T09:58:38Z</time>
      </trkpt>
      <trkpt lat="48.49684" lon="7.21942">
        <ele>523.19147</ele>
        <time>2026-03-05T09:58:44Z</time>
      </trkpt>
      <trkpt lat="48.49681" lon="7.21948">
        <ele>523.19147</ele>
        <time>2026-03-05T09:58:47Z</time>
      </trkpt>
      <trkpt lat="48.49678" lon="7.21954">
        <ele>523.19147</ele>
        <time>2026-03-05T09:58:52Z</time>
      </trkpt>
      <trkpt lat="48.49674" lon="7.2196">
        <ele>523.19147</ele>
        <time>2026-03-05T09:58:57Z</time>
      </trkpt>
      <trkpt lat="48.4967" lon="7.21965">
        <ele>523.19147</ele>
        <time>2026-03-05T09:59:03Z</time>
      </trkpt>
      <trkpt lat="48.49667" lon="7.2197">
        <ele>523.19147</ele>
        <time>2026-03-05T09:59:11Z</time>
      </trkpt>
      <trkpt lat="48.49661" lon="7.21975">
        <ele>523.19147</ele>
        <time>2026-03-05T09:59:17Z</time>
      </trkpt>
      <trkpt lat="48.49658" lon="7.2198">
        <ele>523.19147</ele>
        <time>2026-03-05T09:59:23Z</time>
      </trkpt>
      <trkpt lat="48.49654" lon="7.21983">
        <ele>521.1214</ele>
        <time>2026-03-05T09:59:27Z</time>
      </trkpt>
      <trkpt lat="48.49651" lon="7.21989">
        <ele>519.05133</ele>
        <time>2026-03-05T09:59:32Z</time>
      </trkpt>
      <trkpt lat="48.49646" lon="7.21994">
        <ele>516.9813</ele>
        <time>2026-03-05T09:59:37Z</time>
      </trkpt>
      <trkpt lat="48.49642" lon="7.21996">
        <ele>514.91125</ele>
        <time>2026-03-05T09:59:43Z</time>
      </trkpt>
      <trkpt lat="48.49638" lon="7.22">
        <ele>512.8412</ele>
        <time>2026-03-05T09:59:49Z</time>
      </trkpt>
      <trkpt lat="48.49635" lon="7.22005">
        <ele>512.8412</ele>
        <time>2026-03-05T09:59:55Z</time>
      </trkpt>
      <trkpt lat="48.4963" lon="7.2201">
        <ele>512.8412</ele>
        <time>2026-03-05T10:00:00Z</time>
      </trkpt>
      <trkpt lat="48.49625" lon="7.22013">
        <ele>512.8412</ele>
        <time>2026-03-05T10:00:04Z</time>
      </trkpt>
      <trkpt lat="48.49621" lon="7.22018">
        <ele>512.8412</ele>
        <time>2026-03-05T10:00:09Z</time>
      </trkpt>
      <trkpt lat="48.49617" lon="7.22022">
        <ele>512.8412</ele>
        <time>2026-03-05T10:00:13Z</time>
      </trkpt>
      <trkpt lat="48.49612" lon="7.22027">
        <ele>512.8412</ele>
        <time>2026-03-05T10:00:20Z</time>
      </trkpt>
      <trkpt lat="48.49608" lon="7.22033">
        <ele>512.8412</ele>
        <time>2026-03-05T10:00:26Z</time>
      </trkpt>
      <trkpt lat="48.49604" lon="7.22039">
        <ele>512.8412</ele>
        <time>2026-03-05T10:00:31Z</time>
      </trkpt>
      <trkpt lat="48.49601" lon="7.22045">
        <ele>512.8412</ele>
        <time>2026-03-05T10:00:36Z</time>
      </trkpt>
      <trkpt lat="48.49599" lon="7.22052">
        <ele>512.8412</ele>
        <time>2026-03-05T10:00:39Z</time>
      </trkpt>
      <trkpt lat="48.49599" lon="7.2206">
        <ele>512.8412</ele>
        <time>2026-03-05T10:00:45Z</time>
      </trkpt>
      <trkpt lat="48.49599" lon="7.22067">
        <ele>512.8412</ele>
        <time>2026-03-05T10:00:52Z</time>
      </trkpt>
      <trkpt lat="48.49599" lon="7.22075">
        <ele>512.8412</ele>
        <time>2026-03-05T10:00:57Z</time>
      </trkpt>
      <trkpt lat="48.49599" lon="7.22084">
        <ele>512.8412</ele>
        <time>2026-03-05T10:01:04Z</time>
      </trkpt>
      <trkpt lat="48.496" lon="7.22091">
        <ele>512.8412</ele>
        <time>2026-03-05T10:01:08Z</time>
      </trkpt>
      <trkpt lat="48.49601" lon="7.22098">
        <ele>512.8412</ele>
        <time>2026-03-05T10:01:15Z</time>
      </trkpt>
      <trkpt lat="48.49601" lon="7.22105">
        <ele>512.8412</ele>
        <time>2026-03-05T10:01:20Z</time>
      </trkpt>
      <trkpt lat="48.49602" lon="7.22113">
        <ele>512.8412</ele>
        <time>2026-03-05T10:01:25Z</time>
      </trkpt>
      <trkpt lat="48.49602" lon="7.2212">
        <ele>512.8412</ele>
        <time>2026-03-05T10:01:30Z</time>
      </trkpt>
      <trkpt lat="48.49601" lon="7.22129">
        <ele>512.8412</ele>
        <time>2026-03-05T10:01:33Z</time>
      </trkpt>
      <trkpt lat="48.496" lon="7.22137">
        <ele>512.8412</ele>
        <time>2026-03-05T10:01:40Z</time>
      </trkpt>
      <trkpt lat="48.49598" lon="7.22145">
        <ele>510.79956</ele>
        <time>2026-03-05T10:01:46Z</time>
      </trkpt>
      <trkpt lat="48.49597" lon="7.22152">
        <ele>508.75793</ele>
        <time>2026-03-05T10:01:51Z</time>
      </trkpt>
      <trkpt lat="48.49595" lon="7.22158">
        <ele>506.71634</ele>
        <time>2026-03-05T10:01:55Z</time>
      </trkpt>
      <trkpt lat="48.49594" lon="7.22167">
        <ele>504.6747</ele>
        <time>2026-03-05T10:02:04Z</time>
      </trkpt>
      <trkpt lat="48.49591" lon="7.22175">
        <ele>502.6331</ele>
        <time>2026-03-05T10:02:11Z</time>
      </trkpt>
      <trkpt lat="48.49589" lon="7.22183">
        <ele>502.6331</ele>
        <time>2026-03-05T10:02:15Z</time>
      </trkpt>
      <trkpt lat="48.49587" lon="7.2219">
        <ele>502.6331</ele>
        <time>2026-03-05T10:02:22Z</time>
      </trkpt>
      <trkpt lat="48.49583" lon="7.22196">
        <ele>502.6331</ele>
        <time>2026-03-05T10:02:27Z</time>
      </trkpt>
      <trkpt lat="48.49581" lon="7.22202">
        <ele>502.6331</ele>
        <time>2026-03-05T10:02:31Z</time>
      </trkpt>
      <trkpt lat="48.49578" lon="7.22208">
        <ele>502.6331</ele>
        <time>2026-03-05T10:02:36Z</time>
      </trkpt>
      <trkpt lat="48.49575" lon="7.22214">
        <ele>500.48074</ele>
        <time>2026-03-05T10:02:43Z</time>
      </trkpt>
      <trkpt lat="48.49571" lon="7.22219">
        <ele>498.32837</ele>
        <time>2026-03-05T10:02:49Z</time>
      </trkpt>
      <trkpt lat="48.49568" lon="7.22224">
        <ele>496.17603</ele>
        <time>2026-03-05T10:02:55Z</time>
      </trkpt>
      <trkpt lat="48.49564" lon="7.22229">
        <ele>494.02365</ele>
        <time>2026-03-05T10:03:01Z</time>
      </trkpt>
      <trkpt lat="48.49561" lon="7.22235">
        <ele>491.8713</ele>
        <time>2026-03-05T10:03:05Z</time>
      </trkpt>
      <trkpt lat="48.49558" lon="7.22241">
        <ele>491.8713</ele>
        <time>2026-03-05T10:03:11Z</time>
      </trkpt>
      <trkpt lat="48.49554" lon="7.22247">
        <ele>491.8713</ele>
        <time>2026-03-05T10:03:16Z</time>
      </trkpt>
      <trkpt lat="48.49551" lon="7.22253">
        <ele>491.8713</ele>
        <time>2026-03-05T10:03:20Z</time>
      </trkpt>
      <trkpt lat="48.49548" lon="7.22259">
        <ele>491.8713</ele>
        <time>2026-03-05T10:03:25Z</time>
      </trkpt>
      <trkpt lat="48.49544" lon="7.22263">
        <ele>491.8713</ele>
        <time>2026-03-05T10:03:29Z</time>
      </trkpt>
      <trkpt lat="48.49541" lon="7.22269">
        <ele>491.8713</ele>
        <time>2026-03-05T10:03:34Z</time>
      </trkpt>
      <trkpt lat="48.49538" lon="7.22275">
        <ele>491.8713</ele>
        <time>2026-03-05T10:03:39Z</time>
      </trkpt>
      <trkpt lat="48.49535" lon="7.22281">
        <ele>491.8713</ele>
        <time>2026-03-05T10:03:45Z</time>
      </trkpt>
      <trkpt lat="48.49533" lon="7.22288">
        <ele>491.8713</ele>
        <time>2026-03-05T10:03:49Z</time>
      </trkpt>
      <trkpt lat="48.49529" lon="7.22295">
        <ele>491.8713</ele>
        <time>2026-03-05T10:03:55Z</time>
      </trkpt>
      <trkpt lat="48.49527" lon="7.22301">
        <ele>491.8713</ele>
        <time>2026-03-05T10:04:00Z</time>
      </trkpt>
      <trkpt lat="48.49524" lon="7.22308">
        <ele>491.8713</ele>
        <time>2026-03-05T10:04:06Z</time>
      </trkpt>
      <trkpt lat="48.49521" lon="7.22315">
        <ele>491.8713</ele>
        <time>2026-03-05T10:04:11Z</time>
      </trkpt>
      <trkpt lat="48.49519" lon="7.22322">
        <ele>491.8713</ele>
        <time>2026-03-05T10:04:17Z</time>
      </trkpt>
      <trkpt lat="48.49516" lon="7.22329">
        <ele>491.8713</ele>
        <time>2026-03-05T10:04:21Z</time>
      </trkpt>
      <trkpt lat="48.49514" lon="7.22335">
        <ele>491.8713</ele>
        <time>2026-03-05T10:04:27Z</time>
      </trkpt>
      <trkpt lat="48.49512" lon="7.22342">
        <ele>491.8713</ele>
        <time>2026-03-05T10:04:32Z</time>
      </trkpt>
      <trkpt lat="48.4951" lon="7.22348">
        <ele>491.8713</ele>
        <time>2026-03-05T10:04:36Z</time>
      </trkpt>
      <trkpt lat="48.49507" lon="7.22354">
        <ele>491.8713</ele>
        <time>2026-03-05T10:04:43Z</time>
      </trkpt>
      <trkpt lat="48.49505" lon="7.22361">
        <ele>491.8713</ele>
        <time>2026-03-05T10:04:49Z</time>
      </trkpt>
      <trkpt lat="48.49502" lon="7.22368">
        <ele>491.8713</ele>
        <time>2026-03-05T10:04:53Z</time>
      </trkpt>
      <trkpt lat="48.495" lon="7.22375">
        <ele>489.7317</ele>
        <time>2026-03-05T10:04:59Z</time>
      </trkpt>
      <trkpt lat="48.49497" lon="7.22383">
        <ele>487.59204</ele>
        <time>2026-03-05T10:05:04Z</time>
      </trkpt>
      <trkpt lat="48.49494" lon="7.2239">
        <ele>485.45242</ele>
        <time>2026-03-05T10:05:10Z</time>
      </trkpt>
      <trkpt lat="48.49492" lon="7.22396">
        <ele>483.31277</ele>
        <time>2026-03-05T10:05:15Z</time>
      </trkpt>
      <trkpt lat="48.49489" lon="7.22403">
        <ele>481.17316</ele>
        <time>2026-03-05T10:05:21Z</time>
      </trkpt>
      <trkpt lat="48.49487" lon="7.2241">
        <ele>481.17316</ele>
        <time>2026-03-05T10:05:25Z</time>
      </trkpt>
      <trkpt lat="48.49484" lon="7.22417">
        <ele>481.17316</ele>
        <time>2026-03-05T10:05:30Z</time>
      </trkpt>
      <trkpt lat="48.49481" lon="7.22425">
        <ele>481.17316</ele>
        <time>2026-03-05T10:05:37Z</time>
      </trkpt>
      <trkpt lat="48.49478" lon="7.22431">
        <ele>481.17316</ele>
        <time>2026-03-05T10:05:43Z</time>
      </trkpt>
      <trkpt lat="48.49475" lon="7.22438">
        <ele>481.17316</ele>
        <time>2026-03-05T10:05:48Z</time>
      </trkpt>
      <trkpt lat="48.49471" lon="7.22444">
        <ele>481.17316</ele>
        <time>2026-03-05T10:05:54Z</time>
      </trkpt>
      <trkpt lat="48.49466" lon="7.22449">
        <ele>481.17316</ele>
        <time>2026-03-05T10:06:02Z</time>
      </trkpt>
      <trkpt lat="48.49463" lon="7.22453">
        <ele>481.17316</ele>
        <time>2026-03-05T10:06:05Z</time>
      </trkpt>
      <trkpt lat="48.49458" lon="7.22457">
        <ele>481.17316</ele>
        <time>2026-03-05T10:06:12Z</time>
      </trkpt>
      <trkpt lat="48.49452" lon="7.2246">
        <ele>481.17316</ele>
        <time>2026-03-05T10:06:17Z</time>
      </trkpt>
      <trkpt lat="48.49448" lon="7.22463">
        <ele>481.17316</ele>
        <time>2026-03-05T10:06:22Z</time>
      </trkpt>
      <trkpt lat="48.49443" lon="7.22465">
        <ele>481.17316</ele>
        <time>2026-03-05T10:06:28Z</time>
      </trkpt>
      <trkpt lat="48.49438" lon="7.22466">
        <ele>479.08435</ele>
        <time>2026-03-05T10:06:32Z</time>
      </trkpt>
      <trkpt lat="48.49433" lon="7.22468">
        <ele>476.99557</ele>
        <time>2026-03-05T10:06:39Z</time>
      </trkpt>
      <trkpt lat="48.49428" lon="7.22468">
        <ele>474.90677</ele>
        <time>2026-03-05T10:06:44Z</time>
      </trkpt>
      <trkpt lat="48.49423" lon="7.22468">
        <ele>472.818</ele>
        <time>2026-03-05T10:06:50Z</time>
      </trkpt>
      <trkpt lat="48.49418" lon="7.22468">
        <ele>470.7292</ele>
        <time>2026-03-05T10:06:54Z</time>
      </trkpt>
      <trkpt lat="48.49413" lon="7.22467">
        <ele>470.7292</ele>
        <time>2026-03-05T10:06:58Z</time>
      </trkpt>
      <trkpt lat="48.49408" lon="7.22466">
        <ele>470.7292</ele>
        <time>2026-03-05T10:07:03Z</time>
      </trkpt>
      <trkpt lat="48.49403" lon="7.22466">
        <ele>470.7292</ele>
        <time>2026-03-05T10:07:07Z</time>
      </trkpt>
      <trkpt lat="48.49398" lon="7.22467">
        <ele>470.7292</ele>
        <time>2026-03-05T10:07:12Z</time>
      </trkpt>
      <trkpt lat="48.49393" lon="7.22468">
        <ele>470.7292</ele>
        <time>2026-03-05T10:07:19Z</time>
      </trkpt>
      <trkpt lat="48.49388" lon="7.2247">
        <ele>470.7292</ele>
        <time>2026-03-05T10:07:24Z</time>
      </trkpt>
      <trkpt lat="48.49384" lon="7.22473">
        <ele>470.7292</ele>
        <time>2026-03-05T10:07:27Z</time>
      </trkpt>
      <trkpt lat="48.49377" lon="7.22476">
        <ele>470.7292</ele>
        <time>2026-03-05T10:07:35Z</time>
      </trkpt>
      <trkpt lat="48.49373" lon="7.22477">
        <ele>470.7292</ele>
        <time>2026-03-05T10:07:40Z</time>
      </trkpt>
      <trkpt lat="48.49367" lon="7.22481">
        <ele>470.7292</ele>
        <time>2026-03-05T10:07:45Z</time>
      </trkpt>
      <trkpt lat="48.49361" lon="7.22484">
        <ele>468.64243</ele>
        <time>2026-03-05T10:07:52Z</time>
      </trkpt>
      <trkpt lat="48.49357" lon="7.22487">
        <ele>466.55566</ele>
        <time>2026-03-05T10:07:57Z</time>
      </trkpt>
      <trkpt lat="48.49351" lon="7.2249">
        <ele>464.46893</ele>
        <time>2026-03-05T10:08:04Z</time>
      </trkpt>
      <trkpt lat="48.49347" lon="7.22493">
        <ele>462.38217</ele>
        <time>2026-03-05T10:08:08Z</time>
      </trkpt>
      <trkpt lat="48.49342" lon="7.22497">
        <ele>460.2954</ele>
        <time>2026-03-05T10:08:11Z</time>
      </trkpt>
      <trkpt lat="48.49338" lon="7.22501">
        <ele>460.2954</ele>
        <time>2026-03-05T10:08:16Z</time>
      </trkpt>
      <trkpt lat="48.49334" lon="7.22505">
        <ele>460.2954</ele>
        <time>2026-03-05T10:08:22Z</time>
      </trkpt>
      <trkpt lat="48.4933" lon="7.2251">
        <ele>460.2954</ele>
        <time>2026-03-05T10:08:27Z</time>
      </trkpt>
      <trkpt lat="48.49325" lon="7.22515">
        <ele>460.2954</ele>
        <time>2026-03-05T10:08:33Z</time>
      </trkpt>
      <trkpt lat="48.49321" lon="7.22521">
        <ele>460.2954</ele>
        <time>2026-03-05T10:08:38Z</time>
      </trkpt>
      <trkpt lat="48.49318" lon="7.22526">
        <ele>460.2954</ele>
        <time>2026-03-05T10:08:43Z</time>
      </trkpt>
      <trkpt lat="48.49314" lon="7.22531">
        <ele>460.2954</ele>
        <time>2026-03-05T10:08:49Z</time>
      </trkpt>
      <trkpt lat="48.4931" lon="7.22536">
        <ele>460.2954</ele>
        <time>2026-03-05T10:08:55Z</time>
      </trkpt>
      <trkpt lat="48.49307" lon="7.2254">
        <ele>460.2954</ele>
        <time>2026-03-05T10:09:00Z</time>
      </trkpt>
      <trkpt lat="48.49303" lon="7.22545">
        <ele>460.2954</ele>
        <time>2026-03-05T10:09:05Z</time>
      </trkpt>
      <trkpt lat="48.49299" lon="7.2255">
        <ele>460.2954</ele>
        <time>2026-03-05T10:09:10Z</time>
      </trkpt>
      <trkpt lat="48.49294" lon="7.22556">
        <ele>460.2954</ele>
        <time>2026-03-05T10:09:16Z</time>
      </trkpt>
      <trkpt lat="48.4929" lon="7.22561">
        <ele>460.2954</ele>
        <time>2026-03-05T10:09:20Z</time>
      </trkpt>
      <trkpt lat="48.49286" lon="7.22565">
        <ele>460.2954</ele>
        <time>2026-03-05T10:09:26Z</time>
      </trkpt>
      <trkpt lat="48.49283" lon="7.22569">
        <ele>460.2954</ele>
        <time>2026-03-05T10:09:32Z</time>
      </trkpt>
      <trkpt lat="48.49279" lon="7.22574">
        <ele>460.2954</ele>
        <time>2026-03-05T10:09:37Z</time>
      </trkpt>
      <trkpt lat="48.49274" lon="7.2258">
        <ele>460.2954</ele>
        <time>2026-03-05T10:09:41Z</time>
      </trkpt>
      <trkpt lat="48.4927" lon="7.22584">
        <ele>460.2954</ele>
        <time>2026-03-05T10:09:45Z</time>
      </trkpt>
      <trkpt lat="48.49266" lon="7.22589">
        <ele>458.2208</ele>
        <time>2026-03-05T10:09:50Z</time>
      </trkpt>
      <trkpt lat="48.49263" lon="7.22595">
        <ele>456.14615</ele>
        <time>2026-03-05T10:09:56Z</time>
      </trkpt>
      <trkpt lat="48.4926" lon="7.22599">
        <ele>454.07153</ele>
        <time>2026-03-05T10:10:01Z</time>
      </trkpt>
      <trkpt lat="48.49257" lon="7.22605">
        <ele>451.9969</ele>
        <time>2026-03-05T10:10:06Z</time>
      </trkpt>
      <trkpt lat="48.49253" lon="7.2261">
        <ele>449.92227</ele>
        <time>2026-03-05T10:10:11Z</time>
      </trkpt>
      <trkpt lat="48.49249" lon="7.22614">
        <ele>449.92227</ele>
        <time>2026-03-05T10:10:15Z</time>
      </trkpt>
      <trkpt lat="48.49246" lon="7.2262">
        <ele>449.92227</ele>
        <time>2026-03-05T10:10:19Z</time>
      </trkpt>
      <trkpt lat="48.49242" lon="7.22624">
        <ele>449.92227</ele>
        <time>2026-03-05T10:10:25Z</time>
      </trkpt>
      <trkpt lat="48.49238" lon="7.22629">
        <ele>449.92227</ele>
        <time>2026-03-05T10:10:29Z</time>
      </trkpt>
      <trkpt lat="48.49234" lon="7.22633">
        <ele>449.92227</ele>
        <time>2026-03-05T10:10:35Z</time>
      </trkpt>
      <trkpt lat="48.49229" lon="7.22637">
        <ele>449.92227</ele>
        <time>2026-03-05T10:10:40Z</time>
      </trkpt>
      <trkpt lat="48.49223" lon="7.2264">
        <ele>449.92227</ele>
        <time>2026-03-05T10:10:45Z</time>
      </trkpt>
      <trkpt lat="48.49219" lon="7.22641">
        <ele>449.92227</ele>
        <time>2026-03-05T10:10:50Z</time>
      </trkpt>
      <trkpt lat="48.49214" lon="7.22643">
        <ele>449.92227</ele>
        <time>2026-03-05T10:10:55Z</time>
      </trkpt>
      <trkpt lat="48.49209" lon="7.22645">
        <ele>449.92227</ele>
        <time>2026-03-05T10:11:00Z</time>
      </trkpt>
      <trkpt lat="48.49203" lon="7.22651">
        <ele>449.92227</ele>
        <time>2026-03-05T10:11:06Z</time>
      </trkpt>
      <trkpt lat="48.49199" lon="7.22656">
        <ele>449.92227</ele>
        <time>2026-03-05T10:11:10Z</time>
      </trkpt>
      <trkpt lat="48.49196" lon="7.22661">
        <ele>449.92227</ele>
        <time>2026-03-05T10:11:15Z</time>
      </trkpt>
      <trkpt lat="48.49193" lon="7.22667">
        <ele>449.92227</ele>
        <time>2026-03-05T10:11:21Z</time>
      </trkpt>
      <trkpt lat="48.4919" lon="7.22675">
        <ele>449.92227</ele>
        <time>2026-03-05T10:11:27Z</time>
      </trkpt>
      <trkpt lat="48.49187" lon="7.2268">
        <ele>449.92227</ele>
        <time>2026-03-05T10:11:31Z</time>
      </trkpt>
      <trkpt lat="48.49184" lon="7.22688">
        <ele>447.6736</ele>
        <time>2026-03-05T10:11:38Z</time>
      </trkpt>
      <trkpt lat="48.49181" lon="7.22695">
        <ele>445.42496</ele>
        <time>2026-03-05T10:11:42Z</time>
      </trkpt>
      <trkpt lat="48.49178" lon="7.22701">
        <ele>443.17627</ele>
        <time>2026-03-05T10:11:46Z</time>
      </trkpt>
      <trkpt lat="48.49176" lon="7.22707">
        <ele>440.9276</ele>
        <time>2026-03-05T10:11:49Z</time>
      </trkpt>
      <trkpt lat="48.49173" lon="7.22714">
        <ele>438.67896</ele>
        <time>2026-03-05T10:11:55Z</time>
      </trkpt>
      <trkpt lat="48.49169" lon="7.22721">
        <ele>438.67896</ele>
        <time>2026-03-05T10:12:01Z</time>
      </trkpt>
      <trkpt lat="48.49166" lon="7.22726">
        <ele>438.67896</ele>
        <time>2026-03-05T10:12:05Z</time>
      </trkpt>
      <trkpt lat="48.49162" lon="7.22733">
        <ele>438.67896</ele>
        <time>2026-03-05T10:12:12Z</time>
      </trkpt>
      <trkpt lat="48.4916" lon="7.22739">
        <ele>438.67896</ele>
        <time>2026-03-05T10:12:18Z</time>
      </trkpt>
      <trkpt lat="48.49157" lon="7.22745">
        <ele>438.67896</ele>
        <time>2026-03-05T10:12:23Z</time>
      </trkpt>
      <trkpt lat="48.49154" lon="7.22751">
        <ele>438.67896</ele>
        <time>2026-03-05T10:12:28Z</time>
      </trkpt>
      <trkpt lat="48.4915" lon="7.22756">
        <ele>438.67896</ele>
        <time>2026-03-05T10:12:33Z</time>
      </trkpt>
      <trkpt lat="48.49147" lon="7.22762">
        <ele>438.67896</ele>
        <time>2026-03-05T10:12:39Z</time>
      </trkpt>
      <trkpt lat="48.49143" lon="7.22768">
        <ele>438.67896</ele>
        <time>2026-03-05T10:12:45Z</time>
      </trkpt>
      <trkpt lat="48.49139" lon="7.22773">
        <ele>438.67896</ele>
        <time>2026-03-05T10:12:51Z</time>
      </trkpt>
      <trkpt lat="48.49136" lon="7.22778">
        <ele>438.67896</ele>
        <time>2026-03-05T10:12:56Z</time>
      </trkpt>
      <trkpt lat="48.49133" lon="7.22783">
        <ele>438.67896</ele>
        <time>2026-03-05T10:13:02Z</time>
      </trkpt>
      <trkpt lat="48.49128" lon="7.22786">
        <ele>438.67896</ele>
        <time>2026-03-05T10:13:07Z</time>
      </trkpt>
      <trkpt lat="48.49123" lon="7.22787">
        <ele>438.67896</ele>
        <time>2026-03-05T10:13:14Z</time>
      </trkpt>
      <trkpt lat="48.49118" lon="7.22787">
        <ele>438.67896</ele>
        <time>2026-03-05T10:13:33Z</time>
      </trkpt>
      <trkpt lat="48.49111" lon="7.22785">
        <ele>438.67896</ele>
        <time>2026-03-05T10:14:39Z</time>
      </trkpt>
      <trkpt lat="48.49108" lon="7.22777">
        <ele>438.67896</ele>
        <time>2026-03-05T10:14:47Z</time>
      </trkpt>
      <trkpt lat="48.49106" lon="7.22771">
        <ele>438.67896</ele>
        <time>2026-03-05T10:14:50Z</time>
      </trkpt>
      <trkpt lat="48.49107" lon="7.22763">
        <ele>438.67896</ele>
        <time>2026-03-05T10:14:57Z</time>
      </trkpt>
      <trkpt lat="48.49105" lon="7.22756">
        <ele>438.67896</ele>
        <time>2026-03-05T10:15:01Z</time>
      </trkpt>
      <trkpt lat="48.49103" lon="7.22749">
        <ele>438.67896</ele>
        <time>2026-03-05T10:15:06Z</time>
      </trkpt>
      <trkpt lat="48.49102" lon="7.22741">
        <ele>438.67896</ele>
        <time>2026-03-05T10:15:10Z</time>
      </trkpt>
      <trkpt lat="48.491" lon="7.22733">
        <ele>438.67896</ele>
        <time>2026-03-05T10:15:15Z</time>
      </trkpt>
      <trkpt lat="48.49099" lon="7.22727">
        <ele>438.67896</ele>
        <time>2026-03-05T10:15:19Z</time>
      </trkpt>
      <trkpt lat="48.49097" lon="7.2272">
        <ele>438.67896</ele>
        <time>2026-03-05T10:15:23Z</time>
      </trkpt>
      <trkpt lat="48.49096" lon="7.22713">
        <ele>438.67896</ele>
        <time>2026-03-05T10:15:27Z</time>
      </trkpt>
      <trkpt lat="48.49094" lon="7.22706">
        <ele>438.67896</ele>
        <time>2026-03-05T10:15:31Z</time>
      </trkpt>
      <trkpt lat="48.49093" lon="7.22697">
        <ele>438.67896</ele>
        <time>2026-03-05T10:15:35Z</time>
      </trkpt>
      <trkpt lat="48.49092" lon="7.2269">
        <ele>438.67896</ele>
        <time>2026-03-05T10:15:41Z</time>
      </trkpt>
      <trkpt lat="48.49091" lon="7.22682">
        <ele>438.67896</ele>
        <time>2026-03-05T10:15:47Z</time>
      </trkpt>
      <trkpt lat="48.49088" lon="7.22674">
        <ele>438.67896</ele>
        <time>2026-03-05T10:15:51Z</time>
      </trkpt>
      <trkpt lat="48.49086" lon="7.22668">
        <ele>438.67896</ele>
        <time>2026-03-05T10:15:56Z</time>
      </trkpt>
      <trkpt lat="48.49086" lon="7.22661">
        <ele>438.67896</ele>
        <time>2026-03-05T10:16:00Z</time>
      </trkpt>
      <trkpt lat="48.49083" lon="7.22655">
        <ele>438.67896</ele>
        <time>2026-03-05T10:16:05Z</time>
      </trkpt>
      <trkpt lat="48.49081" lon="7.22648">
        <ele>438.67896</ele>
        <time>2026-03-05T10:16:09Z</time>
      </trkpt>
      <trkpt lat="48.4908" lon="7.22641">
        <ele>438.67896</ele>
        <time>2026-03-05T10:16:14Z</time>
      </trkpt>
      <trkpt lat="48.49078" lon="7.22633">
        <ele>438.67896</ele>
        <time>2026-03-05T10:16:19Z</time>
      </trkpt>
      <trkpt lat="48.49076" lon="7.22627">
        <ele>438.67896</ele>
        <time>2026-03-05T10:16:24Z</time>
      </trkpt>
      <trkpt lat="48.49074" lon="7.22619">
        <ele>438.67896</ele>
        <time>2026-03-05T10:16:29Z</time>
      </trkpt>
      <trkpt lat="48.49072" lon="7.22612">
        <ele>438.67896</ele>
        <time>2026-03-05T10:16:34Z</time>
      </trkpt>
      <trkpt lat="48.4907" lon="7.22604">
        <ele>438.67896</ele>
        <time>2026-03-05T10:16:40Z</time>
      </trkpt>
      <trkpt lat="48.49067" lon="7.22596">
        <ele>438.67896</ele>
        <time>2026-03-05T10:16:46Z</time>
      </trkpt>
      <trkpt lat="48.49065" lon="7.22589">
        <ele>438.67896</ele>
        <time>2026-03-05T10:16:50Z</time>
      </trkpt>
      <trkpt lat="48.49063" lon="7.22582">
        <ele>438.67896</ele>
        <time>2026-03-05T10:16:54Z</time>
      </trkpt>
      <trkpt lat="48.4906" lon="7.22576">
        <ele>438.67896</ele>
        <time>2026-03-05T10:16:59Z</time>
      </trkpt>
      <trkpt lat="48.49059" lon="7.22569">
        <ele>438.67896</ele>
        <time>2026-03-05T10:17:04Z</time>
      </trkpt>
      <trkpt lat="48.49056" lon="7.22562">
        <ele>438.67896</ele>
        <time>2026-03-05T10:17:09Z</time>
      </trkpt>
      <trkpt lat="48.49054" lon="7.22554">
        <ele>438.67896</ele>
        <time>2026-03-05T10:17:13Z</time>
      </trkpt>
      <trkpt lat="48.49052" lon="7.22546">
        <ele>438.67896</ele>
        <time>2026-03-05T10:17:18Z</time>
      </trkpt>
      <trkpt lat="48.49049" lon="7.2254">
        <ele>438.67896</ele>
        <time>2026-03-05T10:17:22Z</time>
      </trkpt>
      <trkpt lat="48.49047" lon="7.22533">
        <ele>438.67896</ele>
        <time>2026-03-05T10:17:26Z</time>
      </trkpt>
      <trkpt lat="48.49045" lon="7.22526">
        <ele>438.67896</ele>
        <time>2026-03-05T10:17:31Z</time>
      </trkpt>
      <trkpt lat="48.49042" lon="7.2252">
        <ele>438.67896</ele>
        <time>2026-03-05T10:17:36Z</time>
      </trkpt>
      <trkpt lat="48.4904" lon="7.22514">
        <ele>438.67896</ele>
        <time>2026-03-05T10:17:41Z</time>
      </trkpt>
      <trkpt lat="48.49038" lon="7.22507">
        <ele>438.67896</ele>
        <time>2026-03-05T10:17:45Z</time>
      </trkpt>
      <trkpt lat="48.49036" lon="7.22501">
        <ele>438.67896</ele>
        <time>2026-03-05T10:17:48Z</time>
      </trkpt>
      <trkpt lat="48.49034" lon="7.22494">
        <ele>438.67896</ele>
        <time>2026-03-05T10:17:53Z</time>
      </trkpt>
      <trkpt lat="48.49031" lon="7.22486">
        <ele>438.67896</ele>
        <time>2026-03-05T10:17:58Z</time>
      </trkpt>
      <trkpt lat="48.49028" lon="7.22479">
        <ele>438.67896</ele>
        <time>2026-03-05T10:18:03Z</time>
      </trkpt>
      <trkpt lat="48.49027" lon="7.22472">
        <ele>438.67896</ele>
        <time>2026-03-05T10:18:08Z</time>
      </trkpt>
      <trkpt lat="48.49025" lon="7.22464">
        <ele>438.67896</ele>
        <time>2026-03-05T10:18:13Z</time>
      </trkpt>
      <trkpt lat="48.49024" lon="7.22456">
        <ele>438.67896</ele>
        <time>2026-03-05T10:18:17Z</time>
      </trkpt>
      <trkpt lat="48.49021" lon="7.22451">
        <ele>438.67896</ele>
        <time>2026-03-05T10:18:20Z</time>
      </trkpt>
      <trkpt lat="48.49019" lon="7.22444">
        <ele>438.67896</ele>
        <time>2026-03-05T10:18:25Z</time>
      </trkpt>
      <trkpt lat="48.49018" lon="7.22437">
        <ele>438.67896</ele>
        <time>2026-03-05T10:18:29Z</time>
      </trkpt>
      <trkpt lat="48.49017" lon="7.2243">
        <ele>438.67896</ele>
        <time>2026-03-05T10:18:34Z</time>
      </trkpt>
      <trkpt lat="48.49014" lon="7.22423">
        <ele>438.67896</ele>
        <time>2026-03-05T10:18:39Z</time>
      </trkpt>
      <trkpt lat="48.49012" lon="7.22416">
        <ele>438.67896</ele>
        <time>2026-03-05T10:18:43Z</time>
      </trkpt>
      <trkpt lat="48.49011" lon="7.2241">
        <ele>438.67896</ele>
        <time>2026-03-05T10:18:47Z</time>
      </trkpt>
      <trkpt lat="48.49008" lon="7.22402">
        <ele>438.67896</ele>
        <time>2026-03-05T10:18:52Z</time>
      </trkpt>
      <trkpt lat="48.49007" lon="7.22395">
        <ele>438.67896</ele>
        <time>2026-03-05T10:18:57Z</time>
      </trkpt>
      <trkpt lat="48.49009" lon="7.22386">
        <ele>438.67896</ele>
        <time>2026-03-05T10:19:01Z</time>
      </trkpt>
      <trkpt lat="48.49007" lon="7.2238">
        <ele>436.64322</ele>
        <time>2026-03-05T10:19:06Z</time>
      </trkpt>
      <trkpt lat="48.49005" lon="7.22373">
        <ele>434.60748</ele>
        <time>2026-03-05T10:19:10Z</time>
      </trkpt>
      <trkpt lat="48.49004" lon="7.22366">
        <ele>432.57175</ele>
        <time>2026-03-05T10:19:13Z</time>
      </trkpt>
      <trkpt lat="48.49004" lon="7.22358">
        <ele>430.536</ele>
        <time>2026-03-05T10:19:17Z</time>
      </trkpt>
      <trkpt lat="48.49003" lon="7.22351">
        <ele>428.50027</ele>
        <time>2026-03-05T10:19:21Z</time>
      </trkpt>
      <trkpt lat="48.49001" lon="7.22344">
        <ele>428.50027</ele>
        <time>2026-03-05T10:19:27Z</time>
      </trkpt>
      <trkpt lat="48.49001" lon="7.22337">
        <ele>428.50027</ele>
        <time>2026-03-05T10:19:31Z</time>
      </trkpt>
      <trkpt lat="48.49" lon="7.22329">
        <ele>428.50027</ele>
        <time>2026-03-05T10:19:35Z</time>
      </trkpt>
      <trkpt lat="48.48999" lon="7.22321">
        <ele>428.50027</ele>
        <time>2026-03-05T10:19:40Z</time>
      </trkpt>
      <trkpt lat="48.48997" lon="7.22314">
        <ele>428.50027</ele>
        <time>2026-03-05T10:19:44Z</time>
      </trkpt>
      <trkpt lat="48.48996" lon="7.22305">
        <ele>428.50027</ele>
        <time>2026-03-05T10:19:49Z</time>
      </trkpt>
      <trkpt lat="48.48995" lon="7.22298">
        <ele>428.50027</ele>
        <time>2026-03-05T10:19:54Z</time>
      </trkpt>
      <trkpt lat="48.48993" lon="7.2229">
        <ele>428.50027</ele>
        <time>2026-03-05T10:20:00Z</time>
      </trkpt>
      <trkpt lat="48.48991" lon="7.22282">
        <ele>428.50027</ele>
        <time>2026-03-05T10:20:04Z</time>
      </trkpt>
      <trkpt lat="48.48991" lon="7.22274">
        <ele>428.50027</ele>
        <time>2026-03-05T10:20:09Z</time>
      </trkpt>
      <trkpt lat="48.48991" lon="7.22266">
        <ele>428.50027</ele>
        <time>2026-03-05T10:20:13Z</time>
      </trkpt>
      <trkpt lat="48.48988" lon="7.2226">
        <ele>428.50027</ele>
        <time>2026-03-05T10:20:18Z</time>
      </trkpt>
      <trkpt lat="48.48988" lon="7.22253">
        <ele>428.50027</ele>
        <time>2026-03-05T10:20:22Z</time>
      </trkpt>
      <trkpt lat="48.48986" lon="7.22246">
        <ele>428.50027</ele>
        <time>2026-03-05T10:20:26Z</time>
      </trkpt>
      <trkpt lat="48.48987" lon="7.22238">
        <ele>428.50027</ele>
        <time>2026-03-05T10:20:31Z</time>
      </trkpt>
      <trkpt lat="48.48987" lon="7.22227">
        <ele>428.50027</ele>
        <time>2026-03-05T10:20:35Z</time>
      </trkpt>
      <trkpt lat="48.48983" lon="7.22222">
        <ele>428.50027</ele>
        <time>2026-03-05T10:20:39Z</time>
      </trkpt>
      <trkpt lat="48.48984" lon="7.22215">
        <ele>428.50027</ele>
        <time>2026-03-05T10:20:44Z</time>
      </trkpt>
      <trkpt lat="48.48984" lon="7.22208">
        <ele>428.50027</ele>
        <time>2026-03-05T10:20:49Z</time>
      </trkpt>
      <trkpt lat="48.48982" lon="7.22202">
        <ele>428.50027</ele>
        <time>2026-03-05T10:20:52Z</time>
      </trkpt>
      <trkpt lat="48.48981" lon="7.22193">
        <ele>428.50027</ele>
        <time>2026-03-05T10:20:56Z</time>
      </trkpt>
      <trkpt lat="48.4898" lon="7.22184">
        <ele>428.50027</ele>
        <time>2026-03-05T10:21:01Z</time>
      </trkpt>
      <trkpt lat="48.48981" lon="7.22177">
        <ele>428.50027</ele>
        <time>2026-03-05T10:21:05Z</time>
      </trkpt>
      <trkpt lat="48.48981" lon="7.22168">
        <ele>428.50027</ele>
        <time>2026-03-05T10:21:10Z</time>
      </trkpt>
      <trkpt lat="48.4898" lon="7.22162">
        <ele>428.50027</ele>
        <time>2026-03-05T10:21:13Z</time>
      </trkpt>
      <trkpt lat="48.4898" lon="7.22154">
        <ele>428.50027</ele>
        <time>2026-03-05T10:21:16Z</time>
      </trkpt>
      <trkpt lat="48.48981" lon="7.22147">
        <ele>428.50027</ele>
        <time>2026-03-05T10:21:22Z</time>
      </trkpt>
      <trkpt lat="48.48986" lon="7.22146">
        <ele>428.50027</ele>
        <time>2026-03-05T10:21:30Z</time>
      </trkpt>
      <trkpt lat="48.48985" lon="7.22137">
        <ele>428.50027</ele>
        <time>2026-03-05T10:21:35Z</time>
      </trkpt>
      <trkpt lat="48.48985" lon="7.22126">
        <ele>428.50027</ele>
        <time>2026-03-05T10:21:38Z</time>
      </trkpt>
      <trkpt lat="48.48987" lon="7.22119">
        <ele>428.50027</ele>
        <time>2026-03-05T10:21:44Z</time>
      </trkpt>
      <trkpt lat="48.48989" lon="7.22111">
        <ele>428.50027</ele>
        <time>2026-03-05T10:21:49Z</time>
      </trkpt>
      <trkpt lat="48.48992" lon="7.22106">
        <ele>428.50027</ele>
        <time>2026-03-05T10:21:55Z</time>
      </trkpt>
      <trkpt lat="48.48995" lon="7.22099">
        <ele>428.50027</ele>
        <time>2026-03-05T10:21:59Z</time>
      </trkpt>
      <trkpt lat="48.48999" lon="7.22094">
        <ele>428.50027</ele>
        <time>2026-03-05T10:22:03Z</time>
      </trkpt>
      <trkpt lat="48.49" lon="7.22087">
        <ele>428.50027</ele>
        <time>2026-03-05T10:22:07Z</time>
      </trkpt>
      <trkpt lat="48.49003" lon="7.22081">
        <ele>428.50027</ele>
        <time>2026-03-05T10:22:11Z</time>
      </trkpt>
      <trkpt lat="48.49004" lon="7.22071">
        <ele>428.50027</ele>
        <time>2026-03-05T10:22:15Z</time>
      </trkpt>
      <trkpt lat="48.49006" lon="7.22065">
        <ele>428.50027</ele>
        <time>2026-03-05T10:22:18Z</time>
      </trkpt>
      <trkpt lat="48.49009" lon="7.22059">
        <ele>428.50027</ele>
        <time>2026-03-05T10:22:23Z</time>
      </trkpt>
      <trkpt lat="48.49012" lon="7.22054">
        <ele>428.50027</ele>
        <time>2026-03-05T10:22:27Z</time>
      </trkpt>
      <trkpt lat="48.49015" lon="7.22047">
        <ele>428.50027</ele>
        <time>2026-03-05T10:22:32Z</time>
      </trkpt>
      <trkpt lat="48.49017" lon="7.2204">
        <ele>428.50027</ele>
        <time>2026-03-05T10:22:37Z</time>
      </trkpt>
      <trkpt lat="48.4902" lon="7.22033">
        <ele>428.50027</ele>
        <time>2026-03-05T10:22:44Z</time>
      </trkpt>
      <trkpt lat="48.49023" lon="7.22027">
        <ele>428.50027</ele>
        <time>2026-03-05T10:22:48Z</time>
      </trkpt>
      <trkpt lat="48.49026" lon="7.2202">
        <ele>428.50027</ele>
        <time>2026-03-05T10:22:52Z</time>
      </trkpt>
      <trkpt lat="48.49028" lon="7.22013">
        <ele>428.50027</ele>
        <time>2026-03-05T10:22:56Z</time>
      </trkpt>
      <trkpt lat="48.49031" lon="7.22007">
        <ele>428.50027</ele>
        <time>2026-03-05T10:23:02Z</time>
      </trkpt>
      <trkpt lat="48.49036" lon="7.22003">
        <ele>428.50027</ele>
        <time>2026-03-05T10:23:06Z</time>
      </trkpt>
      <trkpt lat="48.49038" lon="7.21996">
        <ele>428.50027</ele>
        <time>2026-03-05T10:23:10Z</time>
      </trkpt>
      <trkpt lat="48.49041" lon="7.21989">
        <ele>428.50027</ele>
        <time>2026-03-05T10:23:14Z</time>
      </trkpt>
      <trkpt lat="48.49046" lon="7.21985">
        <ele>428.50027</ele>
        <time>2026-03-05T10:23:18Z</time>
      </trkpt>
      <trkpt lat="48.49049" lon="7.2198">
        <ele>428.50027</ele>
        <time>2026-03-05T10:23:24Z</time>
      </trkpt>
      <trkpt lat="48.49052" lon="7.21974">
        <ele>428.50027</ele>
        <time>2026-03-05T10:23:28Z</time>
      </trkpt>
      <trkpt lat="48.49054" lon="7.21967">
        <ele>428.50027</ele>
        <time>2026-03-05T10:23:32Z</time>
      </trkpt>
      <trkpt lat="48.4906" lon="7.21964">
        <ele>428.50027</ele>
        <time>2026-03-05T10:23:36Z</time>
      </trkpt>
      <trkpt lat="48.49063" lon="7.2196">
        <ele>428.50027</ele>
        <time>2026-03-05T10:23:40Z</time>
      </trkpt>
      <trkpt lat="48.49067" lon="7.21954">
        <ele>428.50027</ele>
        <time>2026-03-05T10:23:44Z</time>
      </trkpt>
      <trkpt lat="48.49071" lon="7.21947">
        <ele>428.50027</ele>
        <time>2026-03-05T10:23:50Z</time>
      </trkpt>
      <trkpt lat="48.49074" lon="7.21941">
        <ele>428.50027</ele>
        <time>2026-03-05T10:23:54Z</time>
      </trkpt>
      <trkpt lat="48.49077" lon="7.21934">
        <ele>428.50027</ele>
        <time>2026-03-05T10:23:58Z</time>
      </trkpt>
      <trkpt lat="48.49079" lon="7.21927">
        <ele>428.50027</ele>
        <time>2026-03-05T10:24:03Z</time>
      </trkpt>
      <trkpt lat="48.49083" lon="7.21923">
        <ele>428.50027</ele>
        <time>2026-03-05T10:24:07Z</time>
      </trkpt>
      <trkpt lat="48.49086" lon="7.21916">
        <ele>428.50027</ele>
        <time>2026-03-05T10:24:12Z</time>
      </trkpt>
      <trkpt lat="48.49089" lon="7.21908">
        <ele>428.50027</ele>
        <time>2026-03-05T10:24:16Z</time>
      </trkpt>
      <trkpt lat="48.49093" lon="7.21902">
        <ele>428.50027</ele>
        <time>2026-03-05T10:24:23Z</time>
      </trkpt>
      <trkpt lat="48.49096" lon="7.2189">
        <ele>428.50027</ele>
        <time>2026-03-05T10:24:29Z</time>
      </trkpt>
      <trkpt lat="48.49101" lon="7.21885">
        <ele>428.50027</ele>
        <time>2026-03-05T10:24:34Z</time>
      </trkpt>
      <trkpt lat="48.49104" lon="7.21879">
        <ele>428.50027</ele>
        <time>2026-03-05T10:24:37Z</time>
      </trkpt>
      <trkpt lat="48.49107" lon="7.21873">
        <ele>428.50027</ele>
        <time>2026-03-05T10:24:43Z</time>
      </trkpt>
      <trkpt lat="48.4911" lon="7.21868">
        <ele>428.50027</ele>
        <time>2026-03-05T10:24:46Z</time>
      </trkpt>
      <trkpt lat="48.49112" lon="7.21861">
        <ele>428.50027</ele>
        <time>2026-03-05T10:24:51Z</time>
      </trkpt>
      <trkpt lat="48.49116" lon="7.21855">
        <ele>428.50027</ele>
        <time>2026-03-05T10:24:56Z</time>
      </trkpt>
      <trkpt lat="48.49121" lon="7.21851">
        <ele>428.50027</ele>
        <time>2026-03-05T10:24:59Z</time>
      </trkpt>
      <trkpt lat="48.49125" lon="7.21847">
        <ele>428.50027</ele>
        <time>2026-03-05T10:25:03Z</time>
      </trkpt>
      <trkpt lat="48.49128" lon="7.21843">
        <ele>428.50027</ele>
        <time>2026-03-05T10:25:07Z</time>
      </trkpt>
      <trkpt lat="48.49131" lon="7.21836">
        <ele>428.50027</ele>
        <time>2026-03-05T10:25:14Z</time>
      </trkpt>
      <trkpt lat="48.49136" lon="7.21831">
        <ele>428.50027</ele>
        <time>2026-03-05T10:25:18Z</time>
      </trkpt>
      <trkpt lat="48.49139" lon="7.21825">
        <ele>428.50027</ele>
        <time>2026-03-05T10:25:22Z</time>
      </trkpt>
      <trkpt lat="48.49141" lon="7.21817">
        <ele>428.50027</ele>
        <time>2026-03-05T10:25:26Z</time>
      </trkpt>
      <trkpt lat="48.49144" lon="7.21812">
        <ele>428.50027</ele>
        <time>2026-03-05T10:25:30Z</time>
      </trkpt>
      <trkpt lat="48.49147" lon="7.21807">
        <ele>428.50027</ele>
        <time>2026-03-05T10:25:33Z</time>
      </trkpt>
      <trkpt lat="48.49151" lon="7.21799">
        <ele>428.50027</ele>
        <time>2026-03-05T10:25:38Z</time>
      </trkpt>
      <trkpt lat="48.49153" lon="7.21794">
        <ele>428.50027</ele>
        <time>2026-03-05T10:25:43Z</time>
      </trkpt>
      <trkpt lat="48.49155" lon="7.21786">
        <ele>428.50027</ele>
        <time>2026-03-05T10:25:48Z</time>
      </trkpt>
      <trkpt lat="48.49158" lon="7.21778">
        <ele>428.50027</ele>
        <time>2026-03-05T10:25:54Z</time>
      </trkpt>
      <trkpt lat="48.49161" lon="7.21773">
        <ele>428.50027</ele>
        <time>2026-03-05T10:25:58Z</time>
      </trkpt>
      <trkpt lat="48.49163" lon="7.21765">
        <ele>428.50027</ele>
        <time>2026-03-05T10:26:03Z</time>
      </trkpt>
      <trkpt lat="48.49164" lon="7.21758">
        <ele>428.50027</ele>
        <time>2026-03-05T10:26:05Z</time>
      </trkpt>
      <trkpt lat="48.49165" lon="7.21749">
        <ele>428.50027</ele>
        <time>2026-03-05T10:26:12Z</time>
      </trkpt>
      <trkpt lat="48.4917" lon="7.21747">
        <ele>428.50027</ele>
        <time>2026-03-05T10:26:17Z</time>
      </trkpt>
      <trkpt lat="48.49175" lon="7.21744">
        <ele>428.50027</ele>
        <time>2026-03-05T10:26:20Z</time>
      </trkpt>
      <trkpt lat="48.49175" lon="7.21735">
        <ele>428.50027</ele>
        <time>2026-03-05T10:26:26Z</time>
      </trkpt>
      <trkpt lat="48.49178" lon="7.21727">
        <ele>428.50027</ele>
        <time>2026-03-05T10:26:31Z</time>
      </trkpt>
      <trkpt lat="48.4918" lon="7.21721">
        <ele>428.50027</ele>
        <time>2026-03-05T10:26:36Z</time>
      </trkpt>
      <trkpt lat="48.49182" lon="7.21713">
        <ele>428.50027</ele>
        <time>2026-03-05T10:26:42Z</time>
      </trkpt>
      <trkpt lat="48.4918" lon="7.21706">
        <ele>428.50027</ele>
        <time>2026-03-05T10:26:46Z</time>
      </trkpt>
      <trkpt lat="48.49181" lon="7.21698">
        <ele>428.50027</ele>
        <time>2026-03-05T10:26:51Z</time>
      </trkpt>
      <trkpt lat="48.49179" lon="7.21692">
        <ele>426.35004</ele>
        <time>2026-03-05T10:26:58Z</time>
      </trkpt>
      <trkpt lat="48.49174" lon="7.21689">
        <ele>424.1998</ele>
        <time>2026-03-05T10:27:01Z</time>
      </trkpt>
      <trkpt lat="48.49167" lon="7.21688">
        <ele>422.04956</ele>
        <time>2026-03-05T10:27:02Z</time>
      </trkpt>
      <trkpt lat="48.49165" lon="7.21695">
        <ele>419.89932</ele>
        <time>2026-03-05T10:27:07Z</time>
      </trkpt>
      <trkpt lat="48.4916" lon="7.21696">
        <ele>417.74908</ele>
        <time>2026-03-05T10:27:13Z</time>
      </trkpt>
      <trkpt lat="48.49155" lon="7.21695">
        <ele>417.74908</ele>
        <time>2026-03-05T10:27:16Z</time>
      </trkpt>
      <trkpt lat="48.4915" lon="7.21698">
        <ele>417.74908</ele>
        <time>2026-03-05T10:27:20Z</time>
      </trkpt>
      <trkpt lat="48.49147" lon="7.21704">
        <ele>417.74908</ele>
        <time>2026-03-05T10:27:24Z</time>
      </trkpt>
      <trkpt lat="48.49142" lon="7.21706">
        <ele>417.74908</ele>
        <time>2026-03-05T10:27:29Z</time>
      </trkpt>
      <trkpt lat="48.49137" lon="7.2171">
        <ele>417.74908</ele>
        <time>2026-03-05T10:27:34Z</time>
      </trkpt>
      <trkpt lat="48.49132" lon="7.21713">
        <ele>417.74908</ele>
        <time>2026-03-05T10:27:38Z</time>
      </trkpt>
      <trkpt lat="48.49129" lon="7.21718">
        <ele>417.74908</ele>
        <time>2026-03-05T10:27:44Z</time>
      </trkpt>
      <trkpt lat="48.49124" lon="7.21722">
        <ele>417.74908</ele>
        <time>2026-03-05T10:27:50Z</time>
      </trkpt>
      <trkpt lat="48.49118" lon="7.21726">
        <ele>417.74908</ele>
        <time>2026-03-05T10:27:56Z</time>
      </trkpt>
      <trkpt lat="48.49115" lon="7.2173">
        <ele>417.74908</ele>
        <time>2026-03-05T10:28:01Z</time>
      </trkpt>
      <trkpt lat="48.4911" lon="7.21733">
        <ele>417.74908</ele>
        <time>2026-03-05T10:28:04Z</time>
      </trkpt>
      <trkpt lat="48.49106" lon="7.21736">
        <ele>417.74908</ele>
        <time>2026-03-05T10:28:10Z</time>
      </trkpt>
      <trkpt lat="48.49101" lon="7.21739">
        <ele>417.74908</ele>
        <time>2026-03-05T10:28:14Z</time>
      </trkpt>
      <trkpt lat="48.49097" lon="7.21742">
        <ele>417.74908</ele>
        <time>2026-03-05T10:28:17Z</time>
      </trkpt>
      <trkpt lat="48.49093" lon="7.21749">
        <ele>417.74908</ele>
        <time>2026-03-05T10:28:22Z</time>
      </trkpt>
      <trkpt lat="48.49089" lon="7.21753">
        <ele>415.73944</ele>
        <time>2026-03-05T10:28:29Z</time>
      </trkpt>
      <trkpt lat="48.49084" lon="7.21755">
        <ele>413.7298</ele>
        <time>2026-03-05T10:28:33Z</time>
      </trkpt>
      <trkpt lat="48.49079" lon="7.21759">
        <ele>411.72015</ele>
        <time>2026-03-05T10:28:39Z</time>
      </trkpt>
      <trkpt lat="48.49075" lon="7.21762">
        <ele>409.7105</ele>
        <time>2026-03-05T10:28:44Z</time>
      </trkpt>
      <trkpt lat="48.4907" lon="7.21764">
        <ele>407.70087</ele>
        <time>2026-03-05T10:28:49Z</time>
      </trkpt>
      <trkpt lat="48.49066" lon="7.21769">
        <ele>407.70087</ele>
        <time>2026-03-05T10:28:53Z</time>
      </trkpt>
      <trkpt lat="48.49061" lon="7.21772">
        <ele>407.70087</ele>
        <time>2026-03-05T10:28:58Z</time>
      </trkpt>
      <trkpt lat="48.49059" lon="7.21779">
        <ele>407.70087</ele>
        <time>2026-03-05T10:29:04Z</time>
      </trkpt>
      <trkpt lat="48.49055" lon="7.21781">
        <ele>407.70087</ele>
        <time>2026-03-05T10:29:08Z</time>
      </trkpt>
      <trkpt lat="48.49051" lon="7.21786">
        <ele>407.70087</ele>
        <time>2026-03-05T10:29:12Z</time>
      </trkpt>
      <trkpt lat="48.49048" lon="7.21792">
        <ele>407.70087</ele>
        <time>2026-03-05T10:29:18Z</time>
      </trkpt>
      <trkpt lat="48.49043" lon="7.21797">
        <ele>407.70087</ele>
        <time>2026-03-05T10:29:23Z</time>
      </trkpt>
      <trkpt lat="48.4904" lon="7.21801">
        <ele>407.70087</ele>
        <time>2026-03-05T10:29:27Z</time>
      </trkpt>
      <trkpt lat="48.49034" lon="7.21807">
        <ele>407.70087</ele>
        <time>2026-03-05T10:29:32Z</time>
      </trkpt>
      <trkpt lat="48.4903" lon="7.21812">
        <ele>407.70087</ele>
        <time>2026-03-05T10:29:35Z</time>
      </trkpt>
      <trkpt lat="48.49026" lon="7.21814">
        <ele>405.6998</ele>
        <time>2026-03-05T10:29:41Z</time>
      </trkpt>
      <trkpt lat="48.49022" lon="7.2182">
        <ele>403.69876</ele>
        <time>2026-03-05T10:29:45Z</time>
      </trkpt>
      <trkpt lat="48.49018" lon="7.21823">
        <ele>401.6977</ele>
        <time>2026-03-05T10:29:51Z</time>
      </trkpt>
      <trkpt lat="48.49013" lon="7.21825">
        <ele>399.69666</ele>
        <time>2026-03-05T10:29:54Z</time>
      </trkpt>
      <trkpt lat="48.49009" lon="7.21829">
        <ele>397.6956</ele>
        <time>2026-03-05T10:29:57Z</time>
      </trkpt>
      <trkpt lat="48.49003" lon="7.21829">
        <ele>397.6956</ele>
        <time>2026-03-05T10:30:04Z</time>
      </trkpt>
      <trkpt lat="48.48999" lon="7.21833">
        <ele>397.6956</ele>
        <time>2026-03-05T10:30:09Z</time>
      </trkpt>
      <trkpt lat="48.48993" lon="7.21835">
        <ele>397.6956</ele>
        <time>2026-03-05T10:30:15Z</time>
      </trkpt>
      <trkpt lat="48.48987" lon="7.21836">
        <ele>397.6956</ele>
        <time>2026-03-05T10:30:21Z</time>
      </trkpt>
      <trkpt lat="48.48983" lon="7.21838">
        <ele>397.6956</ele>
        <time>2026-03-05T10:30:24Z</time>
      </trkpt>
      <trkpt lat="48.48978" lon="7.21841">
        <ele>397.6956</ele>
        <time>2026-03-05T10:30:28Z</time>
      </trkpt>
      <trkpt lat="48.48973" lon="7.21843">
        <ele>397.6956</ele>
        <time>2026-03-05T10:30:32Z</time>
      </trkpt>
      <trkpt lat="48.48968" lon="7.21845">
        <ele>397.6956</ele>
        <time>2026-03-05T10:30:37Z</time>
      </trkpt>
      <trkpt lat="48.48964" lon="7.21847">
        <ele>395.39313</ele>
        <time>2026-03-05T10:30:43Z</time>
      </trkpt>
      <trkpt lat="48.48959" lon="7.21848">
        <ele>393.09067</ele>
        <time>2026-03-05T10:30:48Z</time>
      </trkpt>
      <trkpt lat="48.48954" lon="7.21849">
        <ele>390.78818</ele>
        <time>2026-03-05T10:30:53Z</time>
      </trkpt>
      <trkpt lat="48.48949" lon="7.2185">
        <ele>388.48572</ele>
        <time>2026-03-05T10:30:57Z</time>
      </trkpt>
      <trkpt lat="48.48944" lon="7.21852">
        <ele>386.18326</ele>
        <time>2026-03-05T10:31:01Z</time>
      </trkpt>
      <trkpt lat="48.4894" lon="7.21851">
        <ele>386.18326</ele>
        <time>2026-03-05T10:31:06Z</time>
      </trkpt>
      <trkpt lat="48.48935" lon="7.21851">
        <ele>386.18326</ele>
        <time>2026-03-05T10:31:10Z</time>
      </trkpt>
      <trkpt lat="48.4893" lon="7.21847">
        <ele>386.18326</ele>
        <time>2026-03-05T10:31:15Z</time>
      </trkpt>
      <trkpt lat="48.48925" lon="7.21844">
        <ele>386.18326</ele>
        <time>2026-03-05T10:31:19Z</time>
      </trkpt>
      <trkpt lat="48.4892" lon="7.21842">
        <ele>386.18326</ele>
        <time>2026-03-05T10:31:24Z</time>
      </trkpt>
      <trkpt lat="48.48915" lon="7.21839">
        <ele>386.18326</ele>
        <time>2026-03-05T10:31:29Z</time>
      </trkpt>
      <trkpt lat="48.48911" lon="7.21836">
        <ele>386.18326</ele>
        <time>2026-03-05T10:31:34Z</time>
      </trkpt>
      <trkpt lat="48.48906" lon="7.21833">
        <ele>386.18326</ele>
        <time>2026-03-05T10:31:38Z</time>
      </trkpt>
      <trkpt lat="48.48902" lon="7.2183">
        <ele>386.18326</ele>
        <time>2026-03-05T10:31:43Z</time>
      </trkpt>
      <trkpt lat="48.48897" lon="7.21826">
        <ele>386.18326</ele>
        <time>2026-03-05T10:31:48Z</time>
      </trkpt>
      <trkpt lat="48.48892" lon="7.21823">
        <ele>386.18326</ele>
        <time>2026-03-05T10:31:53Z</time>
      </trkpt>
      <trkpt lat="48.48887" lon="7.21821">
        <ele>386.18326</ele>
        <time>2026-03-05T10:31:58Z</time>
      </trkpt>
      <trkpt lat="48.48882" lon="7.21819">
        <ele>386.18326</ele>
        <time>2026-03-05T10:32:02Z</time>
      </trkpt>
      <trkpt lat="48.48877" lon="7.21815">
        <ele>386.18326</ele>
        <time>2026-03-05T10:32:07Z</time>
      </trkpt>
      <trkpt lat="48.48873" lon="7.21812">
        <ele>386.18326</ele>
        <time>2026-03-05T10:32:11Z</time>
      </trkpt>
      <trkpt lat="48.48868" lon="7.2181">
        <ele>386.18326</ele>
        <time>2026-03-05T10:32:16Z</time>
      </trkpt>
      <trkpt lat="48.48863" lon="7.21809">
        <ele>386.18326</ele>
        <time>2026-03-05T10:32:22Z</time>
      </trkpt>
      <trkpt lat="48.48858" lon="7.21809">
        <ele>384.16953</ele>
        <time>2026-03-05T10:32:26Z</time>
      </trkpt>
      <trkpt lat="48.48853" lon="7.21808">
        <ele>382.15576</ele>
        <time>2026-03-05T10:32:30Z</time>
      </trkpt>
    </trkseg>
  </trk>
</gpx>